Provisional Data: Little Mehoopany Creek near North Mehoopany, PA


Please select a monitoring station.
Please select start date.
Please select start date.

Toggle Unit: C/F Toggle Unit: C/F
Sample Time Temperature (C) Temperature (F) Specific Conductivity (mS/cm) pH   Turbidity (NTU+) DO (mg/L)
8/9/2021 12:00:00 AM 19.98 67.964 0.148 7.42 4.44 8.39
8/9/2021 12:15:00 AM 19.91 67.838 0.147 7.45 4.83 8.22
8/9/2021 12:30:00 AM 19.83 67.694 0.148 7.45 4.85 8.11
8/9/2021 12:45:00 AM 19.76 67.568 0.148 7.43 4.59 8.42
8/9/2021 1:00:00 AM 19.68 67.424 0.147 7.45 4.46 8.39
8/9/2021 1:15:00 AM 19.62 67.316 0.148 7.45 4.48 8.27
8/9/2021 1:30:00 AM 19.55 67.19 0.148 7.39 4.87 8.37
8/9/2021 1:45:00 AM 19.49 67.082 0.148 7.44 4.75 8.23
8/9/2021 2:00:00 AM 19.43 66.974 0.148 7.36 4.97 7.88
8/9/2021 2:15:00 AM 19.37 66.866 0.148 7.44 4.55 8.11
8/9/2021 2:30:00 AM 19.31 66.758 0.148 7.44 4.26 8
8/9/2021 2:45:00 AM 19.25 66.65 0.148 7.45 4.34 7.82
8/9/2021 3:00:00 AM 19.2 66.56 0.148 7.45 4.46 8.01
8/9/2021 3:15:00 AM 19.14 66.452 0.148 7.44 5 8.09
8/9/2021 3:30:00 AM 19.08 66.344 0.148 7.4 5.19 8.51
8/9/2021 3:45:00 AM 19.03 66.254 0.148 7.44 5 8.44
8/9/2021 4:00:00 AM 18.98 66.164 0.148 7.43 4.63 8.29
8/9/2021 4:15:00 AM 18.92 66.056 0.148 7.37 4.61 7.95
8/9/2021 4:30:00 AM 18.87 65.966 0.148 7.45 4.67 8.22
8/9/2021 4:45:00 AM 18.82 65.876 0.148 7.44 4.64 8.02
8/9/2021 5:00:00 AM 18.77 65.786 0.148 7.44 4.84 8.15
8/9/2021 5:15:00 AM 18.72 65.696 0.148 7.31 5.67 8.12
8/9/2021 5:30:00 AM 18.68 65.624 0.148 7.44 4.52 8.38
8/9/2021 5:45:00 AM 18.63 65.534 0.148 7.43 4.5 8.02
8/9/2021 6:00:00 AM 18.59 65.462 0.148 7.44 4.53 8.53
8/9/2021 6:15:00 AM 18.54 65.372 0.148 7.44 4.52 8.59
8/9/2021 6:30:00 AM 18.5 65.3 0.148 7.44 4.56 8.42
8/9/2021 6:45:00 AM 18.46 65.228 0.148 7.45 4.52 8.28
8/9/2021 7:00:00 AM 18.43 65.174 0.148 7.45 4.98 8.33
8/9/2021 7:15:00 AM 18.4 65.12 0.148 7.46 4.31 8.33
8/9/2021 7:30:00 AM 18.38 65.084 0.148 7.48 4.57 8.28
8/9/2021 7:45:00 AM 18.38 65.084 0.148 7.5 4.26 8.68
8/9/2021 8:00:00 AM 18.38 65.084 0.147 7.52 4.51 8.94
8/9/2021 8:15:00 AM 18.4 65.12 0.147 7.55 4.66 8.75
8/9/2021 8:30:00 AM 18.42 65.156 0.147 7.56 4.67 8.93
8/9/2021 8:45:00 AM 18.45 65.21 0.147 7.59 4.27 8.8
8/9/2021 9:00:00 AM 18.51 65.318 0.147 7.62 4.62 9.02
8/9/2021 9:15:00 AM 18.57 65.426 0.147 7.63 4.76 9.15
8/9/2021 9:30:00 AM 18.65 65.57 0.147 7.63 4.79 9.21
8/9/2021 9:45:00 AM 18.75 65.75 0.147 7.71 4.46 8.96
8/9/2021 10:00:00 AM 18.84 65.912 0.147 7.69 4.42 9.06
8/9/2021 10:15:00 AM 18.99 66.182 0.147 7.77 4.4 9.22
8/9/2021 10:30:00 AM 19.14 66.452 0.146 7.79 4.33 8.98
8/9/2021 10:45:00 AM 19.3 66.74 0.146 7.87 4.3 9.3
8/9/2021 11:00:00 AM 19.46 67.028 0.146 7.92 4.53 9.01
8/9/2021 11:15:00 AM 19.64 67.352 0.146 7.95 5.05 9.63
8/9/2021 11:30:00 AM 19.84 67.712 0.146 8.05 4.59 9.26
8/9/2021 11:45:00 AM 20.03 68.054 0.146 8.11 4.86 9.75
8/9/2021 12:00:00 PM 20.23 68.414 0.146 8.08 4.43 9.6
8/9/2021 12:15:00 PM 20.43 68.774 0.146 8.18 4.5 9.26
8/9/2021 12:30:00 PM 20.63 69.134 0.146 8.25 4.43 9.33
8/9/2021 12:45:00 PM 20.83 69.494 0.146 8.29 4.43 9.47
8/9/2021 1:00:00 PM 21.01 69.818 0.146 8.32 4.39 9.52
8/9/2021 1:15:00 PM 21.2 70.16 0.146 8.38 4.32 9.65
8/9/2021 1:30:00 PM 21.37 70.466 0.146 8.42 4.61 9.63
8/9/2021 1:45:00 PM 21.51 70.718 0.146 8.42 4.37 9.51
8/9/2021 2:00:00 PM 21.61 70.898 0.146 8.41 4.38 9.37
8/9/2021 2:15:00 PM 21.74 71.132 0.146 8.45 4.32 9.37
8/9/2021 2:30:00 PM 21.72 71.096 0.146 8.43 4.46 9.42
8/9/2021 2:45:00 PM 21.72 71.096 0.146 8.37 4.45 9.43
8/9/2021 3:00:00 PM 21.75 71.15 0.146 8.42 4.4 9.24
8/9/2021 3:15:00 PM 21.8 71.24 0.146 8.42 4.28 9.07
8/9/2021 3:30:00 PM 21.8 71.24 0.146 8.42 4.31 9.33
8/9/2021 3:45:00 PM 21.7 71.06 0.146 8.23 4.44 9.26
8/9/2021 4:00:00 PM 21.6 70.88 0.147 8.23 4.28 9.23
8/9/2021 4:15:00 PM 21.6 70.88 0.147 8.2 4.25 8.83
8/9/2021 4:30:00 PM 21.67 71.006 0.147 8.22 4.42 9.17
8/9/2021 4:45:00 PM 21.71 71.078 0.147 8.23 4.48 9.21
8/9/2021 5:00:00 PM 21.73 71.114 0.147 8.25 4.19 9.3
8/9/2021 5:15:00 PM 21.75 71.15 0.147 8.2 4.49 9.02
8/9/2021 5:30:00 PM 21.72 71.096 0.147 8.15 4.36 8.87
8/9/2021 5:45:00 PM 21.68 71.024 0.147 8.1 4.82 9.02
8/9/2021 6:00:00 PM 21.63 70.934 0.147 8.03 4.19 8.78
8/9/2021 6:15:00 PM 21.57 70.826 0.147 7.95 4.89 8.78
8/9/2021 6:30:00 PM 21.51 70.718 0.147 7.87 4.27 8.35
8/9/2021 6:45:00 PM 21.46 70.628 0.148 7.86 4.32 8.34
8/9/2021 7:00:00 PM 21.39 70.502 0.148 7.79 4.2 8.48
8/9/2021 7:15:00 PM 21.34 70.412 0.148 7.73 4.25 8.54
8/9/2021 7:30:00 PM 21.28 70.304 0.148 7.66 4.17 8.43
8/9/2021 7:45:00 PM 21.21 70.17799 0.149 7.62 4.26 8.07
8/9/2021 8:00:00 PM 21.17 70.106 0.149 7.59 4.24 8.32
8/9/2021 8:15:00 PM 21.13 70.034 0.149 7.54 4.5 7.8
8/9/2021 8:30:00 PM 21.09 69.962 0.149 7.52 4.97 8.24
8/9/2021 8:45:00 PM 21.04 69.872 0.149 7.47 4.51 8.16
8/9/2021 9:00:00 PM 21.01 69.818 0.149 7.48 5.13 8.16
8/9/2021 9:15:00 PM 20.96 69.728 0.149 7.43 4.62 7.96
8/9/2021 9:30:00 PM 20.91 69.638 0.149 7.42 4.76 8
8/9/2021 9:45:00 PM 20.86 69.548 0.15 7.43 4.62 7.61
8/9/2021 10:00:00 PM 20.81 69.458 0.15 7.43 4.5 7.94
8/9/2021 10:15:00 PM 20.78 69.404 0.15 7.43 4.45 8.1
8/9/2021 10:30:00 PM 20.72 69.296 0.15 7.43 4.74 8.04
8/9/2021 10:45:00 PM 20.67 69.206 0.15 7.43 4.94 8.11
8/9/2021 11:00:00 PM 20.61 69.098 0.15 7.39 4.75 8.06
8/9/2021 11:15:00 PM 20.55 68.99 0.15 7.43 4.52 8.05
8/9/2021 11:30:00 PM 20.49 68.882 0.15 7.36 4.32 7.97
8/9/2021 11:45:00 PM 20.43 68.774 0.15 7.43 4.86 8.06
8/10/2021 12:00:00 AM 20.37 68.666 0.15 7.42 4.32 8.21
8/10/2021 12:15:00 AM 20.31 68.558 0.15 7.43 4.42 8.03
8/10/2021 12:30:00 AM 20.25 68.45 0.15 7.35 4.65 8.19
8/10/2021 12:45:00 AM 20.2 68.36 0.151 7.4 4.93 8.17
8/10/2021 1:00:00 AM 20.17 68.306 0.151 7.35 4.54 8.2
8/10/2021 1:15:00 AM 20.12 68.216 0.151 7.42 4.5 8.27
8/10/2021 1:30:00 AM 20.08 68.144 0.151 7.39 4.4 8.2
8/10/2021 1:45:00 AM 20.04 68.07201 0.151 7.35 4.55 8.21
8/10/2021 2:00:00 AM 20 68 0.151 7.41 4.5 8.34
8/10/2021 2:15:00 AM 19.96 67.92799 0.151 7.43 4.28 8.3
8/10/2021 2:30:00 AM 19.93 67.874 0.151 7.4 4.78 8.28
8/10/2021 2:45:00 AM 19.89 67.802 0.151 7.38 4.63 8.24
8/10/2021 3:00:00 AM 19.85 67.73 0.151 7.42 5.14 8.36
8/10/2021 3:15:00 AM 19.81 67.658 0.151 7.41 4.52 8.41
8/10/2021 3:30:00 AM 19.77 67.586 0.151 7.39 4.55 8.27
8/10/2021 3:45:00 AM 19.74 67.532 0.151 7.41 4.58 8.41
8/10/2021 4:00:00 AM 19.71 67.478 0.151 7.41 4.56 8.21
8/10/2021 4:15:00 AM 19.66 67.388 0.151 7.41 4.6 8.12
8/10/2021 4:30:00 AM 19.64 67.352 0.151 7.39 4.65 8.37
8/10/2021 4:45:00 AM 19.6 67.28 0.151 7.41 4.53 8.37
8/10/2021 5:00:00 AM 19.57 67.226 0.151 7.36 4.65 8.27
8/10/2021 5:15:00 AM 19.54 67.172 0.151 7.39 4.62 8.28
8/10/2021 5:30:00 AM 19.52 67.136 0.151 7.41 4.71 8.25
8/10/2021 5:45:00 AM 19.5 67.1 0.151 7.42 5.33 8.21
8/10/2021 6:00:00 AM 19.49 67.082 0.151 7.34 12.91 7.87
8/10/2021 6:15:00 AM 19.48 67.064 0.151 7.41 6.7 8.42
8/10/2021 6:30:00 AM 19.47 67.046 0.151 7.39 9.35 8.34
8/10/2021 6:45:00 AM 19.46 67.028 0.151 7.4 5.32 8.4
8/10/2021 7:00:00 AM 19.46 67.028 0.151 7.4 5.65 8.44
8/10/2021 7:15:00 AM 19.45 67.01 0.151 7.37 9.22 8.2
8/10/2021 7:30:00 AM 19.44 66.992 0.151 7.38 6.78 8.49
8/10/2021 7:45:00 AM 19.44 66.992 0.151 7.43 5.39 8.56
8/10/2021 8:00:00 AM 19.45 67.01 0.151 7.43 5.59 8.51
8/10/2021 8:15:00 AM 19.46 67.028 0.151 7.45 14.06 8.61
8/10/2021 8:30:00 AM 19.5 67.1 0.15 7.5 7.1 8.8
8/10/2021 8:45:00 AM 19.55 67.19 0.15 7.55 6.3 8.85
8/10/2021 9:00:00 AM 19.6 67.28 0.15 7.57 5.34 8.95
8/10/2021 9:15:00 AM 19.66 67.388 0.15 7.62 4.77 9.12
8/10/2021 9:30:00 AM 19.7 67.46 0.15 7.67 4.85 9.13
8/10/2021 9:45:00 AM 19.73 67.514 0.15 7.67 4.87 9.11
8/10/2021 10:00:00 AM 19.76 67.568 0.15 7.69 4.69 9.14
8/10/2021 10:15:00 AM 19.81 67.658 0.15 7.71 4.62 9.25
8/10/2021 10:30:00 AM 19.86 67.748 0.15 7.76 4.7 9.27
8/10/2021 10:45:00 AM 19.93 67.874 0.15 7.82 4.66 9.25
8/10/2021 11:00:00 AM 19.97 67.946 0.078 7.76 5.32 9.38
8/10/2021 11:15:00 AM 20 68 0.149 7.87 4.78 9.32
8/10/2021 11:30:00 AM 20.06 68.108 0.149 7.86 5.01 9.46
8/10/2021 11:45:00 AM 20.14 68.252 0.149 7.97 4.73 9.5
8/10/2021 12:00:00 PM 20.2 68.36 0.149 7.94 4.78 9.51
8/10/2021 12:15:00 PM 20.3 68.54 0.149 8.06 4.99 9.48
8/10/2021 12:30:00 PM 20.34 68.612 0.149 7.91 5.08 9.51
8/10/2021 12:45:00 PM 20.4 68.72 0.149 8.08 4.72 9.52
8/10/2021 1:00:00 PM 20.43 68.774 0.149 8.07 4.63 9.47
8/10/2021 1:15:00 PM 20.49 68.882 0.149 8.11 4.61 9.54
8/10/2021 1:30:00 PM 20.63 69.134 0.149 7.96 4.99 9.64
8/10/2021 1:45:00 PM 20.79 69.422 0.149 8.24 4.6 9.63
8/10/2021 2:00:00 PM 20.89 69.602 0.149 8.31 4.67 9.68
8/10/2021 2:15:00 PM 21.06 69.908 0.148 8.37 4.61 9.77
8/10/2021 2:30:00 PM 21.25 70.25 0.148 8.42 4.48 9.72
8/10/2021 2:45:00 PM 21.43 70.574 0.148 8.52 4.62 9.79
8/10/2021 3:00:00 PM 21.56 70.808 0.148 8.52 4.62 9.75
8/10/2021 3:15:00 PM 21.63 70.934 0.148 8.5 4.53 9.67
8/10/2021 3:30:00 PM 21.66 70.988 0.148 8.54 4.66 9.69
8/10/2021 3:45:00 PM 21.7 71.06 0.148 8.53 4.71 9.66
8/10/2021 4:00:00 PM 21.73 71.114 0.148 8.52 4.95 9.63
8/10/2021 4:15:00 PM 21.74 71.132 0.148 8.49 4.59 9.57
8/10/2021 4:30:00 PM 21.77 71.186 0.148 8.45 4.8 9.47
8/10/2021 4:45:00 PM 21.76 71.168 0.148 8.38 4.82 9.38
8/10/2021 5:00:00 PM 21.74 71.132 0.149 8.35 4.53 9.26
8/10/2021 5:15:00 PM 21.71 71.078 0.149 8.31 4.45 9.29
8/10/2021 5:30:00 PM 21.7 71.06 0.149 8.25 4.54 9.18
8/10/2021 5:45:00 PM 21.67 71.006 0.149 8.17 4.91 9.12
8/10/2021 6:00:00 PM 21.67 71.006 0.149 8.13 4.77 9.09
8/10/2021 6:15:00 PM 21.67 71.006 0.15 8.03 4.94 9.07
8/10/2021 6:30:00 PM 21.66 70.988 0.15 8.07 5.21 9.07
8/10/2021 6:45:00 PM 21.63 70.934 0.15 8.01 4.49 8.97
8/10/2021 7:00:00 PM 21.61 70.898 0.15 7.92 4.55 8.9
8/10/2021 7:15:00 PM 21.57 70.826 0.15 7.87 4.57 8.83
8/10/2021 7:30:00 PM 21.54 70.772 0.15 7.81 4.33 8.69
8/10/2021 7:45:00 PM 21.49 70.682 0.151 7.75 4.69 8.63
8/10/2021 8:00:00 PM 21.44 70.592 0.151 7.67 4.57 8.44
8/10/2021 8:15:00 PM 21.39 70.502 0.151 7.58 5.02 8.31
8/10/2021 8:30:00 PM 21.34 70.412 0.152 7.56 5.28 8.21
8/10/2021 8:45:00 PM 21.29 70.32201 0.152 7.5 5.06 8.05
8/10/2021 9:00:00 PM 21.22 70.196 0.152 7.45 4.68 7.96
8/10/2021 9:15:00 PM 21.17 70.106 0.152 7.38 4.71 7.89
8/10/2021 9:30:00 PM 21.13 70.034 0.152 7.44 5.01 7.78
8/10/2021 9:45:00 PM 21.08 69.944 0.152 7.4 4.86 7.83
8/10/2021 10:00:00 PM 21.03 69.854 0.152 7.45 5 7.88
8/10/2021 10:15:00 PM 20.97 69.746 0.152 7.4 5.43 7.86
8/10/2021 10:30:00 PM 20.94 69.692 0.152 7.36 5.43 7.84
8/10/2021 10:45:00 PM 20.89 69.602 0.153 7.4 6.12 7.97
8/10/2021 11:00:00 PM 20.87 69.566 0.152 7.42 5.67 7.93
8/10/2021 11:15:00 PM 20.83 69.494 0.153 7.37 4.82 8.05
8/10/2021 11:30:00 PM 20.8 69.44 0.153 7.42 4.89 7.92
8/10/2021 11:45:00 PM 20.77 69.386 0.153 7.29 4.82 7.96
8/11/2021 12:00:00 AM 20.74 69.332 0.153 7.3 4.64 7.95
8/11/2021 12:15:00 AM 20.7 69.26 0.153 7.36 4.58 8.02
8/11/2021 12:30:00 AM 20.66 69.188 0.153 7.29 4.48 8.02
8/11/2021 12:45:00 AM 20.62 69.116 0.153 7.38 4.61 7.88
8/11/2021 1:00:00 AM 20.58 69.044 0.153 7.4 4.76 7.85
8/11/2021 1:15:00 AM 20.54 68.972 0.153 7.39 4.82 8.04
8/11/2021 1:30:00 AM 20.51 68.918 0.153 7.43 4.93 8.03
8/11/2021 1:45:00 AM 20.47 68.846 0.153 7.32 4.94 7.77
8/11/2021 2:00:00 AM 20.44 68.792 0.153 7.42 5.55 8.05
8/11/2021 2:15:00 AM 20.42 68.756 0.153 7.45 4.62 8.07
8/11/2021 2:30:00 AM 20.4 68.72 0.153 7.45 4.66 7.98
8/11/2021 2:45:00 AM 20.38 68.684 0.153 7.43 4.63 7.99
8/11/2021 3:00:00 AM 20.35 68.63 0.153 7.43 4.91 8.14
8/11/2021 3:15:00 AM 20.33 68.594 0.153 7.37 4.95 8.02
8/11/2021 3:30:00 AM 20.3 68.54 0.153 7.29 4.76 8.09
8/11/2021 3:45:00 AM 20.27 68.486 0.153 7.38 5.06 7.95
8/11/2021 4:00:00 AM 20.24 68.432 0.153 7.34 4.8 8.14
8/11/2021 4:15:00 AM 20.2 68.36 0.153 7.38 4.99 8.14
8/11/2021 4:30:00 AM 20.16 68.288 0.153 7.33 4.49 8.07
8/11/2021 4:45:00 AM 20.11 68.198 0.153 7.35 4.81 8.09
8/11/2021 5:00:00 AM 20.07 68.126 0.153 7.38 4.67 7.98
8/11/2021 5:15:00 AM 20.04 68.07201 0.153 7.36 4.74 8.08
8/11/2021 5:30:00 AM 20 68 0.153 7.32 4.8 7.85
8/11/2021 5:45:00 AM 19.97 67.946 0.153 7.34 9.58 7.91
8/11/2021 6:00:00 AM 19.94 67.892 0.153 7.39 4.75 7.75
8/11/2021 6:15:00 AM 19.92 67.856 0.153 7.4 4.93 8.12
8/11/2021 6:30:00 AM 19.9 67.82 0.153 7.33 6.03 8.06
8/11/2021 6:45:00 AM 19.87 67.766 0.153 7.36 4.91 8.03
8/11/2021 7:00:00 AM 19.86 67.748 0.153 7.34 4.61 7.74
8/11/2021 7:15:00 AM 19.85 67.73 0.153 7.39 4.66 8.04
8/11/2021 7:30:00 AM 19.84 67.712 0.153 7.33 5.18 8.14
8/11/2021 7:45:00 AM 19.85 67.73 0.153 7.42 4.45 8.21
8/11/2021 8:00:00 AM 19.86 67.748 0.153 7.43 4.54 8.16
8/11/2021 8:15:00 AM 19.88 67.784 0.153 7.46 4.58 8.45
8/11/2021 8:30:00 AM 19.9 67.82 0.153 7.46 4.6 8.23
8/11/2021 8:45:00 AM 19.92 67.856 0.152 7.49 4.4 8.33
8/11/2021 9:00:00 AM 19.95 67.91 0.152 7.49 4.4 8.59
8/11/2021 9:15:00 AM 19.99 67.982 0.152 7.54 4.41 8.61
8/11/2021 9:30:00 AM 20.05 68.09 0.152 7.63 4.74 8.54
8/11/2021 9:45:00 AM 20.11 68.198 0.152 7.65 4.78 8.92
8/11/2021 10:00:00 AM 20.2 68.36 0.152 7.67 4.68 8.98
8/11/2021 10:15:00 AM 20.29 68.522 0.152 7.69 4.53 9.01
8/11/2021 10:30:00 AM 20.44 68.792 0.151 7.76 4.6 8.81
8/11/2021 10:45:00 AM 20.57 69.026 0.151 7.88 4.51 9.17
8/11/2021 11:00:00 AM 20.68 69.224 0.151 7.92 4.84 9.25
8/11/2021 11:15:00 AM 20.79 69.422 0.151 8.02 4.73 8.78
8/11/2021 11:30:00 AM 20.89 69.602 0.151 8.09 5.05 9.06
8/11/2021 11:45:00 AM 20.96 69.728 0.151 8.11 4.6 9.19
8/11/2021 12:00:00 PM 21.03 69.854 0.15 8.12 4.88 9.3
8/11/2021 12:15:00 PM 21.06 69.908 0.151 8.11 4.57 9.17
8/11/2021 12:30:00 PM 21.16 70.088 0.151 8.11 4.32 9.38
8/11/2021 12:45:00 PM 21.34 70.412 0.151 8.15 4.8 9.53
8/11/2021 1:00:00 PM 21.62 70.916 0.151 8.21 4.36 9.21
8/11/2021 1:15:00 PM 21.89 71.402 0.15 8.36 4.55 9.6
8/11/2021 1:30:00 PM 22.11 71.798 0.15 8.41 4.37 9.42
8/11/2021 1:45:00 PM 22.22 71.996 0.15 8.47 4.36 9.58
8/11/2021 2:00:00 PM 22.28 72.104 0.15 8.47 4.34 9.28
8/11/2021 2:15:00 PM 22.31 72.158 0.15 8.3 4.37 9.07
8/11/2021 2:30:00 PM 22.41 72.338 0.15 8.47 4.53 9.24
8/11/2021 2:45:00 PM 22.47 72.446 0.15 8.38 4.7 9.3
8/11/2021 3:00:00 PM 22.52 72.536 0.15 8.41 4.49 8.92
8/11/2021 3:15:00 PM 22.58 72.644 0.15 8.51 4.38 8.88
8/11/2021 3:30:00 PM 22.65 72.77 0.15 8.51 4.52 9.34
8/11/2021 3:45:00 PM 22.72 72.896 0.15 8.51 4.69 9.21
8/11/2021 4:00:00 PM 22.77 72.986 0.15 8.49 4.94 9.01
8/11/2021 4:15:00 PM 22.79 73.022 0.15 8.45 4.51 8.79
8/11/2021 4:30:00 PM 22.83 73.094 0.15 8.41 4.41 8.9
8/11/2021 4:45:00 PM 22.84 73.112 0.15 8.38 4.58 9.02
8/11/2021 5:00:00 PM 22.85 73.13 0.15 8.44 4.95 8.98
8/11/2021 5:15:00 PM 22.85 73.13 0.151 8.3 4.4 8.97
8/11/2021 5:30:00 PM 22.83 73.094 0.151 8.2 4.61 8.82
8/11/2021 5:45:00 PM 22.79 73.022 0.151 8.25 5.57 8.82
8/11/2021 6:00:00 PM 22.71 72.878 0.151 8.14 5.17 8.5
8/11/2021 6:15:00 PM 22.65 72.77 0.152 8.06 5.08 8.59
8/11/2021 6:30:00 PM 22.58 72.644 0.098 7.95 5.39 8.41
8/11/2021 6:45:00 PM 22.49 72.482 0.152 7.69 4.92 8.37
8/11/2021 7:00:00 PM 22.42 72.356 0.153 7.68 4.44 7.79
8/11/2021 7:15:00 PM 22.36 72.248 0.153 7.59 4.48 8.16
8/11/2021 7:30:00 PM 22.3 72.14 0.153 7.59 4.41 8.05
8/11/2021 7:45:00 PM 22.24 72.032 0.153 7.41 4.31 7.71
8/11/2021 8:00:00 PM 22.19 71.942 0.153 7.6 6.21 7.35
8/11/2021 8:15:00 PM 22.15 71.87 0.154 7.49 5.73 7.73
8/11/2021 8:30:00 PM 22.1 71.78 0.154 7.42 4.72 7.77
8/11/2021 8:45:00 PM 22.05 71.69 0.154 7.52 4.71 7.54
8/11/2021 9:00:00 PM 22 71.6 0.154 7.38 4.8 7.53
8/11/2021 9:15:00 PM 21.95 71.51 0.154 7.47 5.31 7.39
8/11/2021 9:30:00 PM 21.91 71.438 0.154 7.33 5.02 7.49
8/11/2021 9:45:00 PM 21.86 71.348 0.154 7.35 4.98 7.72
8/11/2021 10:00:00 PM 21.81 71.258 0.154 7.32 4.72 7.49
8/11/2021 10:15:00 PM 21.76 71.168 0.154 7.43 6.41 7.63
8/11/2021 10:30:00 PM 21.72 71.096 0.154 7.31 5.63 7.77
8/11/2021 10:45:00 PM 21.67 71.006 0.154 7.28 5.05 7.77
8/11/2021 11:00:00 PM 21.62 70.916 0.154 7.32 4.91 7.85
8/11/2021 11:15:00 PM 21.56 70.808 0.154 7.34 7.54 7.74
8/11/2021 11:30:00 PM 21.49 70.682 0.154 7.35 4.86 7.81
8/11/2021 11:45:00 PM 21.43 70.574 0.154 7.4 4.51 7.74
8/12/2021 12:00:00 AM 21.37 70.466 0.154 7.37 4.58 7.8
8/12/2021 12:15:00 AM 21.29 70.32201 0.154 7.39 4.63 7.81
8/12/2021 12:30:00 AM 21.22 70.196 0.154 7.39 4.67 7.88
8/12/2021 12:45:00 AM 21.16 70.088 0.154 7.33 4.81 8.01
8/12/2021 1:00:00 AM 21.09 69.962 0.154 7.33 4.66 7.91
8/12/2021 1:15:00 AM 21.04 69.872 0.154 7.46 6.38 7.37
8/12/2021 1:30:00 AM 20.98 69.764 0.154 7.39 4.88 7.99
8/12/2021 1:45:00 AM 20.94 69.692 0.154 7.35 4.57 7.85
8/12/2021 2:00:00 AM 20.89 69.602 0.154 7.37 4.39 7.99
8/12/2021 2:15:00 AM 20.85 69.53 0.154 7.29 4.73 8.01
8/12/2021 2:30:00 AM 20.8 69.44 0.154 7.41 4.75 7.98
8/12/2021 2:45:00 AM 20.75 69.35 0.154 7.34 4.5 7.82
8/12/2021 3:00:00 AM 20.71 69.278 0.154 7.34 4.69 8
8/12/2021 3:15:00 AM 20.67 69.206 0.154 7.42 5.22 7.75
8/12/2021 3:30:00 AM 20.64 69.152 0.154 7.43 5.93 7.7
8/12/2021 3:45:00 AM 20.6 69.08 0.155 7.43 6.08 7.52
8/12/2021 4:00:00 AM 20.57 69.026 0.155 7.39 6.77 8.06
8/12/2021 4:15:00 AM 20.53 68.954 0.155 7.4 5.12 7.95
8/12/2021 4:30:00 AM 20.49 68.882 0.155 7.39 4.8 8.15
8/12/2021 4:45:00 AM 20.45 68.81 0.155 7.39 4.71 7.91
8/12/2021 5:00:00 AM 20.4 68.72 0.155 7.39 4.72 8.04
8/12/2021 5:15:00 AM 20.37 68.666 0.155 7.4 4.75 7.83
8/12/2021 5:30:00 AM 20.33 68.594 0.155 7.33 4.73 8.14
8/12/2021 5:45:00 AM 20.29 68.522 0.155 7.37 4.68 7.91
8/12/2021 6:00:00 AM 20.25 68.45 0.155 7.35 4.79 8.25
8/12/2021 6:15:00 AM 20.21 68.378 0.155 7.41 5.63 7.69
8/12/2021 6:30:00 AM 20.18 68.324 0.155 7.33 4.51 8.17
8/12/2021 6:45:00 AM 20.14 68.252 0.155 7.26 4.63 8.14
8/12/2021 7:00:00 AM 20.11 68.198 0.155 7.37 4.81 8.26
8/12/2021 7:15:00 AM 20.08 68.144 0.155 7.42 5.14 8.24
8/12/2021 7:30:00 AM 20.06 68.108 0.155 7.46 5.58 8.27
8/12/2021 7:45:00 AM 20.05 68.09 0.155 7.37 4.44 8.23
8/12/2021 8:00:00 AM 20.05 68.09 0.155 7.47 4.56 8.33
8/12/2021 8:15:00 AM 20.05 68.09 0.155 7.4 4.66 8.37
8/12/2021 8:30:00 AM 20.06 68.108 0.155 7.42 4.57 8.49
8/12/2021 8:45:00 AM 20.08 68.144 0.155 7.51 5.69 8.38
8/12/2021 9:00:00 AM 20.14 68.252 0.154 7.54 5.57 8.72
8/12/2021 9:15:00 AM 20.19 68.342 0.154 7.57 6.23 8.63
8/12/2021 9:30:00 AM 20.27 68.486 0.154 7.62 5.73 8.57
8/12/2021 9:45:00 AM 20.36 68.648 0.154 7.59 4.71 8.7
8/12/2021 10:00:00 AM 20.44 68.792 0.154 7.63 4.99 8.76
8/12/2021 10:15:00 AM 20.55 68.99 0.154 7.56 4.71 8.86
8/12/2021 10:30:00 AM 20.71 69.278 0.154 7.57 4.61 8.83
8/12/2021 10:45:00 AM 20.87 69.566 0.154 7.74 4.68 8.82
8/12/2021 11:00:00 AM 21.08 69.944 0.154 7.77 4.78 8.88
8/12/2021 11:15:00 AM 21.28 70.304 0.154 7.82 5.16 8.86
8/12/2021 11:30:00 AM 21.5 70.7 0.154 7.94 4.54 9.26
8/12/2021 11:45:00 AM 21.69 71.042 0.154 8.02 4.53 8.89
8/12/2021 12:00:00 PM 21.91 71.438 0.153 8.17 4.58 9.13
8/12/2021 12:15:00 PM 22.1 71.78 0.153 8.31 5.75 9.08
8/12/2021 12:30:00 PM 22.29 72.122 0.153 8.25 4.54 9.07
8/12/2021 12:45:00 PM 22.46 72.42799 0.153 8.34 4.51 9.29
8/12/2021 1:00:00 PM 22.55 72.59 0.153 8.42 4.49 9.31
8/12/2021 1:15:00 PM 22.62 72.716 0.153 8.48 4.48 9.3
8/12/2021 1:30:00 PM 22.66 72.788 0.152 8.45 4.7 9.38
8/12/2021 1:45:00 PM 22.69 72.842 0.152 8.4 4.67 9.29
8/12/2021 2:00:00 PM 22.74 72.932 0.152 8.48 4.99 9.14
8/12/2021 2:15:00 PM 22.77 72.986 0.152 8.5 4.86 9.22
8/12/2021 2:30:00 PM 22.81 73.058 0.152 8.63 4.92 9.26
8/12/2021 2:45:00 PM 22.8 73.04 0.152 8.59 5.58 8.92
8/12/2021 3:00:00 PM 22.72 72.896 0.153 8.5 5.03 8.44
8/12/2021 3:15:00 PM 22.57 72.626 0.153 8.3 5.76 8.48
8/12/2021 3:30:00 PM 22.45 72.41 0.152 8.07 6.91 8.45
8/12/2021 3:45:00 PM 22.34 72.212 0.154 8.02 6.27 8.2
8/12/2021 4:00:00 PM 22.34 72.212 0.154 7.83 5.39 8.67
8/12/2021 4:15:00 PM 22.34 72.212 0.154 8.06 5.27 8.55
8/12/2021 4:30:00 PM 22.29 72.122 0.154 7.99 4.39 8.85
8/12/2021 4:45:00 PM 22.31 72.158 0.154 7.86 4.93 8.94
8/12/2021 5:00:00 PM 22.34 72.212 0.154 8.07 4.42 8.97
8/12/2021 5:15:00 PM 22.35 72.23 0.154 8.14 5.2 8.95
8/12/2021 5:30:00 PM 22.32 72.176 0.154 8.12 4.79 8.95
8/12/2021 5:45:00 PM 22.26 72.068 0.154 8.01 5.11 8.86
8/12/2021 6:00:00 PM 22.2 71.96 0.154 7.94 4.48 8.76
8/12/2021 6:15:00 PM 22.14 71.852 0.155 7.73 4.87 8.59
8/12/2021 6:30:00 PM 22.07 71.726 0.155 7.89 4.83 8.63
8/12/2021 6:45:00 PM 22.01 71.618 0.155 7.82 4.66 8.48
8/12/2021 7:00:00 PM 21.94 71.492 0.155 7.55 4.47 8.44
8/12/2021 7:15:00 PM 21.88 71.384 0.156 7.46 4.78 8.15
8/12/2021 7:30:00 PM 21.82 71.276 0.156 7.56 5.92 8.33
8/12/2021 7:45:00 PM 21.76 71.168 0.156 7.56 4.46 8.21
8/12/2021 8:00:00 PM 21.69 71.042 0.156 7.49 4.61 8.21
8/12/2021 8:15:00 PM 21.62 70.916 0.156 7.5 4.76 8
8/12/2021 8:30:00 PM 21.56 70.808 0.157 7.51 4.89 7.77
8/12/2021 8:45:00 PM 21.5 70.7 0.157 7.45 4.88 7.21
8/12/2021 9:00:00 PM 21.45 70.61 0.157 7.45 4.85 7.99
8/12/2021 9:15:00 PM 21.41 70.538 0.157 7.5 4.66 7.45
8/12/2021 9:30:00 PM 21.38 70.484 0.157 7.48 4.64 7.66
8/12/2021 9:45:00 PM 21.4 70.52 0.155 7.48 6.73 7.86
8/12/2021 10:00:00 PM 21.46 70.628 0.152 7.46 7.04 7.85
8/12/2021 10:15:00 PM 21.46 70.628 0.152 7.42 7.51 7.6
8/12/2021 10:30:00 PM 21.42 70.556 0.152 7.44 6.39 7.94
8/12/2021 10:45:00 PM 21.36 70.448 0.152 7.46 6.32 7.91
8/12/2021 11:00:00 PM 21.3 70.34 0.153 7.45 5.46 7.7
8/12/2021 11:15:00 PM 21.24 70.232 0.153 7.44 5.25 7.85
8/12/2021 11:30:00 PM 21.19 70.142 0.153 7.44 5.13 7.91
8/12/2021 11:45:00 PM 21.13 70.034 0.153 7.39 5.02 7.63
8/13/2021 12:00:00 AM 21.08 69.944 0.153 7.42 5.46 7.91
8/13/2021 12:15:00 AM 21.04 69.872 0.153 7.4 8 7.94
8/13/2021 12:30:00 AM 20.99 69.782 0.153 7.45 4.73 7.78
8/13/2021 12:45:00 AM 20.95 69.71 0.154 7.45 5.01 7.73
8/13/2021 1:00:00 AM 20.9 69.62 0.154 7.45 5.11 7.94
8/13/2021 1:15:00 AM 20.85 69.53 0.154 7.46 4.72 7.96
8/13/2021 1:30:00 AM 20.81 69.458 0.154 7.45 4.77 8.08
8/13/2021 1:45:00 AM 20.76 69.368 0.154 7.45 4.85 7.61
8/13/2021 2:00:00 AM 20.7 69.26 0.155 7.46 4.79 7.75
8/13/2021 2:15:00 AM 20.65 69.17 0.155 7.41 4.89 7.26
8/13/2021 2:30:00 AM 20.6 69.08 0.155 7.46 4.71 7.74
8/13/2021 2:45:00 AM 20.55 68.99 0.155 7.4 4.83 7.89
8/13/2021 3:00:00 AM 20.51 68.918 0.155 7.37 4.61 7.96
8/13/2021 3:15:00 AM 20.46 68.828 0.155 7.46 4.75 7.69
8/13/2021 3:30:00 AM 20.42 68.756 0.156 7.4 4.91 7.87
8/13/2021 3:45:00 AM 20.37 68.666 0.156 7.42 4.75 7.77
8/13/2021 4:00:00 AM 20.33 68.594 0.156 7.32 4.76 7.77
8/13/2021 4:15:00 AM 20.29 68.522 0.156 7.44 4.77 8.02
8/13/2021 4:30:00 AM 20.25 68.45 0.156 7.41 4.7 7.73
8/13/2021 4:45:00 AM 20.23 68.414 0.156 7.4 4.85 7.78
8/13/2021 5:00:00 AM 20.19 68.342 0.156 7.43 4.86 7.8
8/13/2021 5:15:00 AM 20.14 68.252 0.156 7.43 5.67 7.54
8/13/2021 5:30:00 AM 20.1 68.18 0.156 7.43 4.66 7.66
8/13/2021 5:45:00 AM 20.07 68.126 0.156 7.38 4.85 7.85
8/13/2021 6:00:00 AM 20.04 68.07201 0.156 7.4 4.78 7.58
8/13/2021 6:15:00 AM 20.01 68.018 0.156 7.45 4.76 7.89
8/13/2021 6:30:00 AM 19.99 67.982 0.156 7.44 4.71 7.74
8/13/2021 6:45:00 AM 19.97 67.946 0.156 7.44 4.74 8.01
8/13/2021 7:00:00 AM 19.95 67.91 0.156 7.41 5.51 7.87
8/13/2021 7:15:00 AM 19.94 67.892 0.156 7.28 4.7 7.97
8/13/2021 7:30:00 AM 19.93 67.874 0.156 7.47 4.74 8.04
8/13/2021 7:45:00 AM 19.92 67.856 0.156 7.38 4.77 8.2
8/13/2021 8:00:00 AM 19.92 67.856 0.156 7.46 4.64 8.22
8/13/2021 8:15:00 AM 19.93 67.874 0.156 7.42 4.82 8.43
8/13/2021 8:30:00 AM 19.92 67.856 0.156 7.52 4.79 8.28
8/13/2021 8:45:00 AM 19.94 67.892 0.156 7.56 4.63 8.26
8/13/2021 9:00:00 AM 19.99 67.982 0.156 7.57 4.73 8.65
8/13/2021 9:15:00 AM 20.02 68.036 0.156 7.63 4.49 8.49
8/13/2021 9:30:00 AM 20.07 68.126 0.156 7.49 4.91 8.66
8/13/2021 9:45:00 AM 20.11 68.198 0.156 7.48 4.57 8.53
8/13/2021 10:00:00 AM 20.18 68.324 0.155 7.62 4.73 8.88
8/13/2021 10:15:00 AM 20.27 68.486 0.155 7.57 4.77 8.69
8/13/2021 10:30:00 AM 20.4 68.72 0.155 7.72 5.13 8.99
8/13/2021 10:45:00 AM 20.59 69.062 0.155 7.72 4.54 9.01
8/13/2021 11:00:00 AM 20.76 69.368 0.155 7.7 4.68 9.05
8/13/2021 11:15:00 AM 20.99 69.782 0.155 7.79 4.73 8.86
8/13/2021 11:30:00 AM 21.2 70.16 0.155 7.77 4.62 8.91
8/13/2021 11:45:00 AM 21.45 70.61 0.155 7.97 4.6 9.25
8/13/2021 12:00:00 PM 21.67 71.006 0.155 8.06 4.52 9
8/13/2021 12:15:00 PM 21.85 71.33 0.155 8.1 4.57 9.05
8/13/2021 12:30:00 PM 22.07 71.726 0.155 8.09 4.47 9.09
8/13/2021 12:45:00 PM 22.3 72.14 0.155 8.17 4.52 9.19
8/13/2021 1:00:00 PM 22.49 72.482 0.155 8.18 4.59 9.13
8/13/2021 1:15:00 PM 22.69 72.842 0.155 8.26 4.64 9.25
8/13/2021 1:30:00 PM 22.87 73.166 0.154 8.24 4.66 9.08
8/13/2021 1:45:00 PM 22.98 73.364 0.155 8.22 4.81 9.09
8/13/2021 2:00:00 PM 23.09 73.562 0.155 8.16 4.62 9.1
8/13/2021 2:15:00 PM 23.22 73.796 0.155 8.35 4.98 9.06
8/13/2021 2:30:00 PM 23.31 73.958 0.155 8.29 4.66 9.03
8/13/2021 2:45:00 PM 23.35 74.03 0.155 8.15 4.47 9.02
8/13/2021 3:00:00 PM 23.38 74.084 0.155 8.24 5.12 8.84
8/13/2021 3:15:00 PM 23.37 74.066 0.155 8.2 4.7 8.97
8/13/2021 3:30:00 PM 23.36 74.048 0.155 8.26 4.71 8.89
8/13/2021 3:45:00 PM 23.34 74.012 0.155 8.04 4.62 8.71
8/13/2021 4:00:00 PM 23.33 73.994 0.155 8.01 4.69 8.87
8/13/2021 4:15:00 PM 23.31 73.958 0.156 8.1 4.45 8.9
8/13/2021 4:30:00 PM 23.28 73.904 0.156 8.06 4.81 8.71
8/13/2021 4:45:00 PM 23.25 73.85 0.156 8.08 7.8 8.64
8/13/2021 5:00:00 PM 23.21 73.778 0.156 7.98 4.71 8.49
8/13/2021 5:15:00 PM 23.16 73.688 0.156 8.05 4.87 8.6
8/13/2021 5:30:00 PM 23.07 73.526 0.156 7.83 4.64 8.54
8/13/2021 5:45:00 PM 22.96 73.328 0.157 7.8 4.74 8.34
8/13/2021 6:00:00 PM 22.85 73.13 0.156 7.71 4.83 8.24
8/13/2021 6:15:00 PM 22.75 72.95 0.156 7.7 5 8.07
8/13/2021 6:30:00 PM 22.65 72.77 0.157 7.65 5.06 7.93
8/13/2021 6:45:00 PM 22.53 72.554 0.157 7.54 4.69 7.64
8/13/2021 7:00:00 PM 22.43 72.374 0.157 7.59 4.81 7.95
8/13/2021 7:15:00 PM 22.34 72.212 0.157 7.65 5.1 7.73
8/13/2021 7:30:00 PM 22.26 72.068 0.157 7.54 4.65 7.93
8/13/2021 7:45:00 PM 22.17 71.906 0.157 7.63 4.64 7.89
8/13/2021 8:00:00 PM 22.08 71.744 0.157 7.6 4.73 7.81
8/13/2021 8:15:00 PM 22.02 71.636 0.157 7.6 4.72 7.59
8/13/2021 8:30:00 PM 21.95 71.51 0.157 7.57 4.86 7.9
8/13/2021 8:45:00 PM 21.88 71.384 0.157 7.53 6.04 7.7
8/13/2021 9:00:00 PM 21.81 71.258 0.157 7.54 4.82 7.43
8/13/2021 9:15:00 PM 21.75 71.15 0.157 7.53 5.03 7.34
8/13/2021 9:30:00 PM 21.68 71.024 0.158 7.51 5.61 7.28
8/13/2021 9:45:00 PM 21.62 70.916 0.158 7.48 4.63 7.34
8/13/2021 10:00:00 PM 21.55 70.79 0.158 7.44 4.64 7.78
8/13/2021 10:15:00 PM 21.48 70.664 0.158 7.49 4.72 7.85
8/13/2021 10:30:00 PM 21.42 70.556 0.158 7.43 4.99 7.5
8/13/2021 10:45:00 PM 21.36 70.448 0.158 7.49 4.67 7.72
8/13/2021 11:00:00 PM 21.29 70.32201 0.158 7.48 4.53 7.6
8/13/2021 11:15:00 PM 21.23 70.214 0.158 7.43 4.78 7.87
8/13/2021 11:30:00 PM 21.17 70.106 0.158 7.34 4.7 7.73
8/13/2021 11:45:00 PM 21.1 69.98 0.158 7.44 4.64 7.78
8/14/2021 12:00:00 AM 21.04 69.872 0.158 7.46 4.6 7.65
8/14/2021 12:15:00 AM 20.98 69.764 0.158 7.45 4.56 7.75
8/14/2021 12:30:00 AM 20.92 69.656 0.158 7.47 5.21 7.59
8/14/2021 12:45:00 AM 20.86 69.548 0.158 7.47 4.64 7.85
8/14/2021 1:00:00 AM 20.8 69.44 0.158 7.45 4.81 7.85
8/14/2021 1:15:00 AM 20.75 69.35 0.158 7.42 4.59 7.62
8/14/2021 1:30:00 AM 20.7 69.26 0.158 7.41 4.76 7.44
8/14/2021 1:45:00 AM 20.65 69.17 0.159 7.4 5.13 7.57
8/14/2021 2:00:00 AM 20.62 69.116 0.158 7.36 4.83 7.99
8/14/2021 2:15:00 AM 20.58 69.044 0.159 7.45 4.81 8.17
8/14/2021 2:30:00 AM 20.54 68.972 0.159 7.47 4.86 8.22
8/14/2021 2:45:00 AM 20.5 68.9 0.159 7.45 4.72 8.23
8/14/2021 3:00:00 AM 20.47 68.846 0.159 7.4 4.8 8.22
8/14/2021 3:15:00 AM 20.43 68.774 0.159 7.45 4.78 8.21
8/14/2021 3:30:00 AM 20.4 68.72 0.159 7.46 4.75 8.24
8/14/2021 3:45:00 AM 20.36 68.648 0.159 7.44 4.77 8.26
8/14/2021 4:00:00 AM 20.33 68.594 0.159 7.45 4.79 8.27
8/14/2021 4:15:00 AM 20.3 68.54 0.159 7.45 4.56 8.07
8/14/2021 4:30:00 AM 20.27 68.486 0.159 7.45 4.63 7.91
8/14/2021 4:45:00 AM 20.24 68.432 0.159 7.45 4.57 7.97
8/14/2021 5:00:00 AM 20.21 68.378 0.159 7.46 4.66 8.01
8/14/2021 5:15:00 AM 20.18 68.324 0.159 7.46 4.55 8.14
8/14/2021 5:30:00 AM 20.15 68.27 0.159 7.44 4.99 7.81
8/14/2021 5:45:00 AM 20.13 68.234 0.159 7.43 4.89 8.01
8/14/2021 6:00:00 AM 20.1 68.18 0.159 7.45 4.74 8.1
8/14/2021 6:15:00 AM 20.08 68.144 0.159 7.44 5 8.1
8/14/2021 6:30:00 AM 20.06 68.108 0.159 7.44 4.91 8.01
8/14/2021 6:45:00 AM 20.04 68.07201 0.159 7.41 4.71 7.85
8/14/2021 7:00:00 AM 20.02 68.036 0.159 7.39 4.87 7.92
8/14/2021 7:15:00 AM 20 68 0.159 7.44 4.67 8.13
8/14/2021 7:30:00 AM 19.98 67.964 0.159 7.46 4.91 8.19
8/14/2021 7:45:00 AM 19.98 67.964 0.159 7.46 4.75 8.24
8/14/2021 8:00:00 AM 19.99 67.982 0.159 7.5 4.72 8.4
8/14/2021 8:15:00 AM 20 68 0.159 7.49 4.67 8.46
8/14/2021 8:30:00 AM 20.02 68.036 0.159 7.48 4.72 8.56
8/14/2021 8:45:00 AM 20.04 68.07201 0.159 7.55 4.77 8.75
8/14/2021 9:00:00 AM 20.07 68.126 0.159 7.56 4.61 8.51
8/14/2021 9:15:00 AM 20.11 68.198 0.158 7.59 4.69 8.6
8/14/2021 9:30:00 AM 20.15 68.27 0.159 7.5 4.7 8.79
8/14/2021 9:45:00 AM 20.19 68.342 0.158 7.56 4.81 8.74
8/14/2021 10:00:00 AM 20.22 68.396 0.159 7.66 4.65 8.64
8/14/2021 10:15:00 AM 20.23 68.414 0.159 7.67 4.73 8.8
8/14/2021 10:30:00 AM 20.22 68.396 0.159 7.59 5.04 8.96
8/14/2021 10:45:00 AM 20.22 68.396 0.159 7.7 4.83 9
8/14/2021 11:00:00 AM 20.22 68.396 0.158 7.71 4.63 9.09
8/14/2021 11:15:00 AM 20.22 68.396 0.158 7.71 4.59 9.08
8/14/2021 11:30:00 AM 20.24 68.432 0.158 7.78 4.71 9.21
8/14/2021 11:45:00 AM 20.23 68.414 0.158 7.79 4.7 9.07
8/14/2021 12:00:00 PM 20.24 68.432 0.158 7.88 4.96 9.34
8/14/2021 12:15:00 PM 20.28 68.504 0.158 7.94 4.86 9.41
8/14/2021 12:30:00 PM 20.32 68.576 0.158 7.93 4.68 9.36
8/14/2021 12:45:00 PM 20.37 68.666 0.158 7.97 4.82 9.43
8/14/2021 1:00:00 PM 20.47 68.846 0.157 8.05 4.98 9.59
8/14/2021 1:15:00 PM 20.47 68.846 0.157 8.13 4.84 9.53
8/14/2021 1:30:00 PM 20.49 68.882 0.157 8.14 4.9 9.57
8/14/2021 1:45:00 PM 20.53 68.954 0.157 8.14 4.57 9.58
8/14/2021 2:00:00 PM 20.57 69.026 0.157 8.2 4.71 9.61
8/14/2021 2:15:00 PM 20.59 69.062 0.157 8.24 4.65 9.68
8/14/2021 2:30:00 PM 20.62 69.116 0.157 8.29 4.81 9.69
8/14/2021 2:45:00 PM 20.61 69.098 0.157 8.22 4.53 9.37
8/14/2021 3:00:00 PM 20.62 69.116 0.157 8.03 4.54 8.95
8/14/2021 3:15:00 PM 20.66 69.188 0.157 8.08 4.5 8.93
8/14/2021 3:30:00 PM 20.71 69.278 0.157 8.18 4.52 8.87
8/14/2021 3:45:00 PM 20.8 69.44 0.157 8.31 4.54 9.18
8/14/2021 4:00:00 PM 20.91 69.638 0.157 8.35 4.64 9.22
8/14/2021 4:15:00 PM 20.96 69.728 0.157 8.24 4.64 9.22
8/14/2021 4:30:00 PM 21 69.8 0.157 8.07 4.65 9
8/14/2021 4:45:00 PM 21.01 69.818 0.158 8.05 4.75 8.79
8/14/2021 5:00:00 PM 21 69.8 0.158 7.86 4.7 8.47
8/14/2021 5:15:00 PM 20.98 69.764 0.158 7.9 4.69 8.76
8/14/2021 5:30:00 PM 20.94 69.692 0.158 7.96 4.39 8.51
8/14/2021 5:45:00 PM 20.87 69.566 0.158 7.38 4.53 8.05
8/14/2021 6:00:00 PM 20.79 69.422 0.159 7.67 4.71 8.24
8/14/2021 6:15:00 PM 20.7 69.26 0.158 7.86 4.51 8.66
8/14/2021 6:30:00 PM 20.62 69.116 0.159 7.33 4.55 8.01
8/14/2021 6:45:00 PM 20.56 69.008 0.159 7.34 4.49 7.87
8/14/2021 7:00:00 PM 20.49 68.882 0.159 7.55 4.83 8.06
8/14/2021 7:15:00 PM 20.42 68.756 0.159 7.44 4.56 7.62
8/14/2021 7:30:00 PM 20.35 68.63 0.159 7.42 6.64 7.82
8/14/2021 7:45:00 PM 20.29 68.522 0.159 7.34 4.89 7.65
8/14/2021 8:00:00 PM 20.21 68.378 0.159 7.35 4.88 7.71
8/14/2021 8:15:00 PM 20.15 68.27 0.16 7.21 4.71 7.49
8/14/2021 8:30:00 PM 20.07 68.126 0.16 7.41 7.59 7.7
8/14/2021 8:45:00 PM 20 68 0.16 7.47 5.48 7.61
8/14/2021 9:00:00 PM 19.92 67.856 0.161 7.48 5.34 7.63
8/14/2021 9:15:00 PM 19.83 67.694 0.16 7.37 4.96 7.68
8/14/2021 9:30:00 PM 19.76 67.568 0.161 7.43 4.85 7.87
8/14/2021 9:45:00 PM 19.68 67.424 0.16 7.37 5.03 7.68
8/14/2021 10:00:00 PM 19.6 67.28 0.16 7.41 4.91 7.74
8/14/2021 10:15:00 PM 19.53 67.154 0.161 7.37 4.75 7.88
8/14/2021 10:30:00 PM 19.47 67.046 0.161 7.37 5.22 7.57
8/14/2021 10:45:00 PM 19.39 66.902 0.16 7.43 4.99 7.92
8/14/2021 11:00:00 PM 19.32 66.776 0.16 7.42 4.83 7.65
8/14/2021 11:15:00 PM 19.25 66.65 0.161 7.42 4.67 7.6
8/14/2021 11:30:00 PM 19.17 66.506 0.16 7.43 4.7 8.03
8/14/2021 11:45:00 PM 19.09 66.362 0.16 7.4 4.86 7.62
8/15/2021 12:00:00 AM 19.03 66.254 0.161 7.38 4.78 7.9
8/15/2021 12:15:00 AM 18.97 66.146 0.16 7.41 4.76 7.74
8/15/2021 12:30:00 AM 18.9 66.02 0.16 7.41 4.77 7.88
8/15/2021 12:45:00 AM 18.84 65.912 0.16 7.41 4.72 7.96
8/15/2021 1:00:00 AM 18.78 65.804 0.16 7.39 4.77 8.07
8/15/2021 1:15:00 AM 18.72 65.696 0.16 7.36 4.99 8.04
8/15/2021 1:30:00 AM 18.65 65.57 0.16 7.41 4.43 7.98
8/15/2021 1:45:00 AM 18.58 65.444 0.16 7.38 4.7 7.93
8/15/2021 2:00:00 AM 18.52 65.336 0.16 7.4 4.82 8.02
8/15/2021 2:15:00 AM 18.46 65.228 0.16 7.41 4.76 7.96
8/15/2021 2:30:00 AM 18.4 65.12 0.16 7.43 4.72 8.31
8/15/2021 2:45:00 AM 18.35 65.03 0.16 7.39 4.92 7.86
8/15/2021 3:00:00 AM 18.27 64.886 0.16 7.38 4.94 7.99
8/15/2021 3:15:00 AM 18.21 64.778 0.16 7.41 4.69 8.18
8/15/2021 3:30:00 AM 18.13 64.634 0.16 7.37 4.79 8.15
8/15/2021 3:45:00 AM 18.06 64.508 0.16 7.39 4.87 8.08
8/15/2021 4:00:00 AM 17.99 64.382 0.161 7.31 5.1 8.36
8/15/2021 4:15:00 AM 17.92 64.256 0.16 7.39 5.04 8.26
8/15/2021 4:30:00 AM 17.85 64.13 0.161 7.38 4.8 8.14
8/15/2021 4:45:00 AM 17.8 64.04 0.161 7.32 4.82 8.21
8/15/2021 5:00:00 AM 17.73 63.914 0.161 7.37 5.02 8.36
8/15/2021 5:15:00 AM 17.68 63.824 0.161 7.36 4.97 8.15
8/15/2021 5:30:00 AM 17.61 63.698 0.161 7.37 4.85 8.32
8/15/2021 5:45:00 AM 17.56 63.608 0.161 7.39 5.34 8.26
8/15/2021 6:00:00 AM 17.51 63.518 0.161 7.42 5.24 8.45
8/15/2021 6:15:00 AM 17.46 63.428 0.161 7.34 5.2 8.42
8/15/2021 6:30:00 AM 17.41 63.338 0.161 7.39 4.98 8.35
8/15/2021 6:45:00 AM 17.37 63.266 0.161 7.38 4.91 8.43
8/15/2021 7:00:00 AM 17.32 63.176 0.161 7.35 4.78 8.41
8/15/2021 7:15:00 AM 17.28 63.104 0.161 7.35 4.82 8.44
8/15/2021 7:30:00 AM 17.26 63.068 0.161 7.36 4.97 8.44
8/15/2021 7:45:00 AM 17.23 63.014 0.161 7.4 4.96 8.48
8/15/2021 8:00:00 AM 17.19 62.942 0.161 7.39 4.83 8.34
8/15/2021 8:15:00 AM 17.18 62.924 0.161 7.41 4.89 8.8
8/15/2021 8:30:00 AM 17.16 62.888 0.161 7.4 4.71 8.71
8/15/2021 8:45:00 AM 17.15 62.87 0.161 7.41 5.09 8.88
8/15/2021 9:00:00 AM 17.16 62.888 0.161 7.47 4.94 8.76
8/15/2021 9:15:00 AM 17.18 62.924 0.161 7.46 4.88 9.02
8/15/2021 9:30:00 AM 17.21 62.978 0.16 7.45 4.71 8.85
8/15/2021 9:45:00 AM 17.26 63.068 0.16 7.49 4.89 8.99
8/15/2021 10:00:00 AM 17.31 63.158 0.16 7.44 4.73 8.89
8/15/2021 10:15:00 AM 17.39 63.302 0.16 7.49 4.75 9.13
8/15/2021 10:30:00 AM 17.48 63.464 0.16 7.6 4.6 9.04
8/15/2021 10:45:00 AM 17.58 63.644 0.16 7.54 4.69 9.16
8/15/2021 11:00:00 AM 17.79 64.022 0.16 7.77 5.01 9.7
8/15/2021 11:15:00 AM 17.95 64.31 0.16 7.86 4.77 9.72
8/15/2021 11:30:00 AM 18.11 64.598 0.159 7.83 4.71 9.59
8/15/2021 11:45:00 AM 18.41 65.138 0.159 8.02 4.78 9.56
8/15/2021 12:00:00 PM 18.59 65.462 0.159 7.94 4.64 9.59
8/15/2021 12:15:00 PM 18.89 66.002 0.159 8.11 4.72 9.57
8/15/2021 12:30:00 PM 19.13 66.434 0.159 8.13 4.76 9.71
8/15/2021 12:45:00 PM 19.36 66.848 0.159 8.18 4.63 9.76
8/15/2021 1:00:00 PM 19.59 67.262 0.159 8.27 4.65 9.29
8/15/2021 1:15:00 PM 19.77 67.586 0.159 8.14 4.59 9.32
8/15/2021 1:30:00 PM 19.93 67.874 0.159 8.25 7.26 9.35
8/15/2021 1:45:00 PM 20.08 68.144 0.159 8.3 7.86 9.05
8/15/2021 2:00:00 PM 20.18 68.324 0.159 8.17 5.43 9.33
8/15/2021 2:15:00 PM 20.25 68.45 0.159 8.18 5.58 9.04
8/15/2021 2:30:00 PM 20.32 68.576 0.159 8.23 4.85 9.23
8/15/2021 2:45:00 PM 20.4 68.72 0.159 8.31 4.84 9.38
8/15/2021 3:00:00 PM 20.44 68.792 0.159 8.31 4.91 9.48
8/15/2021 3:15:00 PM 20.47 68.846 0.159 8.28 4.78 9.42
8/15/2021 3:30:00 PM 20.47 68.846 0.159 8.25 4.75 9.49
8/15/2021 3:45:00 PM 20.43 68.774 0.159 8.16 4.9 9.38
8/15/2021 4:00:00 PM 20.41 68.738 0.159 8.32 4.68 9.28
8/15/2021 4:15:00 PM 20.42 68.756 0.159 8.17 4.75 9.34
8/15/2021 4:30:00 PM 20.42 68.756 0.159 8.22 4.92 9.49
8/15/2021 4:45:00 PM 20.42 68.756 0.16 8.24 4.54 9.31
8/15/2021 5:00:00 PM 20.4 68.72 0.159 8.22 4.63 9.28
8/15/2021 5:15:00 PM 20.34 68.612 0.16 8.19 4.74 8.78
8/15/2021 5:30:00 PM 20.26 68.468 0.16 8.04 4.83 9.2
8/15/2021 5:45:00 PM 20.19 68.342 0.16 8.08 4.89 9.15
8/15/2021 6:00:00 PM 20.09 68.162 0.16 7.94 4.88 9.04
8/15/2021 6:15:00 PM 20.02 68.036 0.161 7.9 4.72 8.95
8/15/2021 6:30:00 PM 19.98 67.964 0.161 7.91 4.81 8.59
8/15/2021 6:45:00 PM 19.93 67.874 0.161 7.73 4.74 8.61
8/15/2021 7:00:00 PM 19.85 67.73 0.161 7.71 4.81 8.42
8/15/2021 7:15:00 PM 19.77 67.586 0.162 7.59 4.74 8.32
8/15/2021 7:30:00 PM 19.7 67.46 0.161 7.69 4.65 8.26
8/15/2021 7:45:00 PM 19.62 67.316 0.162 7.7 4.82 8.29
8/15/2021 8:00:00 PM 19.55 67.19 0.162 7.53 5.69 8.18
8/15/2021 8:15:00 PM 19.47 67.046 0.162 7.48 4.9 8.1
8/15/2021 8:30:00 PM 19.4 66.92 0.163 7.45 5.03 8.2
8/15/2021 8:45:00 PM 19.33 66.794 0.163 7.51 5.09 7.9
8/15/2021 9:00:00 PM 19.26 66.668 0.163 7.48 4.89 8.25
8/15/2021 9:15:00 PM 19.2 66.56 0.163 7.51 5 7.84
8/15/2021 9:30:00 PM 19.11 66.398 0.164 7.52 5.47 7.89
8/15/2021 9:45:00 PM 19.05 66.29 0.164 7.51 5.16 8.02
8/15/2021 10:00:00 PM 18.98 66.164 0.164 7.45 4.74 7.98
8/15/2021 10:15:00 PM 18.92 66.056 0.164 7.47 4.94 7.84
8/15/2021 10:30:00 PM 18.85 65.93 0.164 7.44 4.98 7.94
8/15/2021 10:45:00 PM 18.79 65.82201 0.164 7.47 4.74 7.97
8/15/2021 11:00:00 PM 18.74 65.732 0.164 7.46 4.81 8
8/15/2021 11:15:00 PM 18.69 65.642 0.164 7.48 4.77 7.96
8/15/2021 11:30:00 PM 18.64 65.552 0.164 7.42 4.83 7.85
8/15/2021 11:45:00 PM 18.58 65.444 0.164 7.41 4.85 8.1
8/16/2021 12:00:00 AM 18.53 65.354 0.164 7.43 4.93 7.92
8/16/2021 12:15:00 AM 18.48 65.264 0.164 7.41 4.92 7.93
8/16/2021 12:30:00 AM 18.44 65.192 0.164 7.36 5.27 8
8/16/2021 12:45:00 AM 18.39 65.102 0.164 7.38 5 7.98
8/16/2021 1:00:00 AM 18.35 65.03 0.164 7.4 5.56 7.83
8/16/2021 1:15:00 AM 18.3 64.94 0.164 7.38 5.64 8.31
8/16/2021 1:30:00 AM 18.26 64.868 0.164 7.4 6.14 8
8/16/2021 1:45:00 AM 18.22 64.796 0.164 7.41 6.95 8.05
8/16/2021 2:00:00 AM 18.18 64.724 0.164 7.36 5.5 7.75
8/16/2021 2:15:00 AM 18.14 64.652 0.164 7.38 5.56 7.81
8/16/2021 2:30:00 AM 18.11 64.598 0.164 7.4 5.55 7.84
8/16/2021 2:45:00 AM 18.07 64.526 0.164 7.42 5.34 7.8
8/16/2021 3:00:00 AM 18.04 64.472 0.164 7.38 5.14 8.12
8/16/2021 3:15:00 AM 18.01 64.418 0.164 7.39 5.94 7.83
8/16/2021 3:30:00 AM 17.98 64.364 0.164 7.39 5.36 8.16
8/16/2021 3:45:00 AM 17.95 64.31 0.164 7.38 5.13 8.07
8/16/2021 4:00:00 AM 17.93 64.274 0.164 7.38 5.18 8.12
8/16/2021 4:15:00 AM 17.9 64.22 0.164 7.37 5.26 8.13
8/16/2021 4:30:00 AM 17.87 64.166 0.164 7.38 5.11 8.03
8/16/2021 4:45:00 AM 17.85 64.13 0.164 7.38 5.53 8.24
8/16/2021 5:00:00 AM 17.83 64.094 0.164 7.35 5.27 8.15
8/16/2021 5:15:00 AM 17.81 64.058 0.164 7.34 5.24 7.99
8/16/2021 5:30:00 AM 17.79 64.022 0.164 7.34 5.38 7.71
8/16/2021 5:45:00 AM 17.77 63.986 0.164 7.38 5.3 8.24
8/16/2021 6:00:00 AM 17.76 63.968 0.164 7.35 5.43 8
8/16/2021 6:15:00 AM 17.74 63.932 0.164 7.36 5.1 8.29
8/16/2021 6:30:00 AM 17.73 63.914 0.164 7.36 5.3 8.2
8/16/2021 6:45:00 AM 17.71 63.878 0.164 7.36 5.11 8.26
8/16/2021 7:00:00 AM 17.7 63.86 0.164 7.37 5.06 8.32
8/16/2021 7:15:00 AM 17.69 63.842 0.164 7.36 5.11 8.27
8/16/2021 7:30:00 AM 17.68 63.824 0.164 7.36 5.27 8.34
8/16/2021 7:45:00 AM 17.69 63.842 0.164 7.39 5.06 8.45
8/16/2021 8:00:00 AM 17.69 63.842 0.164 7.39 5.12 8.58
8/16/2021 8:15:00 AM 17.7 63.86 0.165 7.4 5.03 8.74
8/16/2021 8:30:00 AM 17.71 63.878 0.164 7.38 5.11 8.72
8/16/2021 8:45:00 AM 17.72 63.896 0.164 7.43 5.1 8.5
8/16/2021 9:00:00 AM 17.74 63.932 0.164 7.43 5.11 8.77
8/16/2021 9:15:00 AM 17.76 63.968 0.164 7.42 4.97 8.77
8/16/2021 9:30:00 AM 17.78 64.004 0.164 7.41 5 8.78
8/16/2021 9:45:00 AM 17.81 64.058 0.164 7.42 5.07 8.65
8/16/2021 10:00:00 AM 17.84 64.112 0.164 7.46 4.97 8.92
8/16/2021 10:15:00 AM 17.87 64.166 0.164 7.44 5.36 8.71
8/16/2021 10:30:00 AM 17.91 64.238 0.164 7.52 5.08 9.11
8/16/2021 10:45:00 AM 17.96 64.328 0.164 7.48 4.95 8.73
8/16/2021 11:00:00 AM 18 64.4 0.164 7.51 5.11 8.57
8/16/2021 11:15:00 AM 18.07 64.526 0.163 7.5 4.99 9.28
8/16/2021 11:30:00 AM 18.15 64.67 0.163 7.54 4.97 8.93
8/16/2021 11:45:00 AM 18.26 64.868 0.163 7.45 5.01 9.1
8/16/2021 12:00:00 PM 18.36 65.048 0.163 7.49 4.95 9.11
8/16/2021 12:15:00 PM 18.49 65.282 0.163 7.53 4.82 9.4
8/16/2021 12:30:00 PM 18.59 65.462 0.163 7.79 5.11 9.71
8/16/2021 12:45:00 PM 18.68 65.624 0.162 7.87 4.85 9.61
8/16/2021 1:00:00 PM 18.78 65.804 0.162 7.67 5.03 9.68
8/16/2021 1:15:00 PM 18.96 66.128 0.162 7.87 4.78 9.59
8/16/2021 1:30:00 PM 19.12 66.416 0.162 7.98 5.08 9.87
8/16/2021 1:45:00 PM 19.27 66.686 0.162 8.17 4.86 9.92
8/16/2021 2:00:00 PM 19.43 66.974 0.162 8.23 4.96 9.94
8/16/2021 2:15:00 PM 19.59 67.262 0.162 8.29 4.96 9.73
8/16/2021 2:30:00 PM 19.73 67.514 0.161 8.36 4.81 9.98
8/16/2021 2:45:00 PM 19.83 67.694 0.161 8.37 5 9.92
8/16/2021 3:00:00 PM 19.94 67.892 0.161 8.38 4.84 9.89
8/16/2021 3:15:00 PM 20.02 68.036 0.161 8.43 5.09 9.9
8/16/2021 3:30:00 PM 20.08 68.144 0.161 8.36 4.74 9.81
8/16/2021 3:45:00 PM 20.13 68.234 0.161 8.49 4.99 9.91
8/16/2021 4:00:00 PM 20.15 68.27 0.162 8.44 4.78 9.61
8/16/2021 4:15:00 PM 20.15 68.27 0.161 8.43 5.01 9.61
8/16/2021 4:30:00 PM 20.12 68.216 0.162 8.28 5.07 8.95
8/16/2021 4:45:00 PM 20.11 68.198 0.162 8.32 5.01 9.01
8/16/2021 5:00:00 PM 20.08 68.144 0.162 8.08 4.94 8.94
8/16/2021 5:15:00 PM 20.08 68.144 0.162 8.17 5.06 9.07
8/16/2021 5:30:00 PM 20.07 68.126 0.162 8.14 5.13 8.98
8/16/2021 5:45:00 PM 20.07 68.126 0.163 8.03 5.07 9.06
8/16/2021 6:00:00 PM 20.06 68.108 0.163 7.99 5.14 8.76
8/16/2021 6:15:00 PM 20.05 68.09 0.163 8.02 4.94 8.54
8/16/2021 6:30:00 PM 20.03 68.054 0.163 7.75 5.14 8.36
8/16/2021 6:45:00 PM 20.02 68.036 0.163 7.85 4.96 8.36
8/16/2021 7:00:00 PM 19.99 67.982 0.163 7.86 4.95 8.27
8/16/2021 7:15:00 PM 19.94 67.892 0.164 7.65 5.12 7.98
8/16/2021 7:30:00 PM 19.9 67.82 0.164 7.62 5.86 7.99
8/16/2021 7:45:00 PM 19.85 67.73 0.164 7.75 5.36 8.24
8/16/2021 8:00:00 PM 19.8 67.64 0.165 7.54 5.05 8.22
8/16/2021 8:15:00 PM 19.74 67.532 0.165 7.61 5.56 8
8/16/2021 8:30:00 PM 19.68 67.424 0.165 7.49 5.6 8.09
8/16/2021 8:45:00 PM 19.63 67.334 0.166 7.44 5.17 8.08
8/16/2021 9:00:00 PM 19.57 67.226 0.166 7.32 5.34 7.93
8/16/2021 9:15:00 PM 19.53 67.154 0.166 7.41 5.19 8.03
8/16/2021 9:30:00 PM 19.49 67.082 0.166 7.26 5.24 7.95
8/16/2021 9:45:00 PM 19.44 66.992 0.166 7.42 5.18 7.63
8/16/2021 10:00:00 PM 19.4 66.92 0.166 7.43 5.38 7.46
8/16/2021 10:15:00 PM 19.36 66.848 0.167 7.26 5.07 7.72
8/16/2021 10:30:00 PM 19.33 66.794 0.166 7.4 5.07 7.67
8/16/2021 10:45:00 PM 19.3 66.74 0.167 7.44 4.95 7.77
8/16/2021 11:00:00 PM 19.27 66.686 0.167 7.42 4.99 7.57
8/16/2021 11:15:00 PM 19.24 66.632 0.167 7.27 5.12 7.58
8/16/2021 11:30:00 PM 19.22 66.596 0.167 7.39 4.88 7.8
8/16/2021 11:45:00 PM 19.2 66.56 0.167 7.37 4.84 7.89
8/17/2021 12:00:00 AM 19.18 66.524 0.167 7.37 4.87 7.66
8/17/2021 12:15:00 AM 19.16 66.488 0.167 7.4 4.89 7.89
8/17/2021 12:30:00 AM 19.13 66.434 0.167 7.37 4.88 7.69
8/17/2021 12:45:00 AM 19.11 66.398 0.166 7.32 5.07 7.71
8/17/2021 1:00:00 AM 19.09 66.362 0.167 7.3 5.14 7.82
8/17/2021 1:15:00 AM 19.08 66.344 0.166 7.36 5.11 7.62
8/17/2021 1:30:00 AM 19.05 66.29 0.166 7.32 5.02 7.97
8/17/2021 1:45:00 AM 19.04 66.272 0.166 7.22 4.9 7.53
8/17/2021 2:00:00 AM 19.02 66.236 0.166 7.2 4.96 7.62
8/17/2021 2:15:00 AM 19.01 66.218 0.166 7.21 4.95 7.86
8/17/2021 2:30:00 AM 18.99 66.182 0.166 7.32 4.85 7.52
8/17/2021 2:45:00 AM 18.98 66.164 0.166 7.36 4.89 7.68
8/17/2021 3:00:00 AM 18.97 66.146 0.167 7.33 4.9 7.54
8/17/2021 3:15:00 AM 18.95 66.11 0.167 7.35 4.98 7.92
8/17/2021 3:30:00 AM 18.94 66.092 0.166 7.38 4.88 7.74
8/17/2021 3:45:00 AM 18.92 66.056 0.166 7.36 5.06 7.73
8/17/2021 4:00:00 AM 18.91 66.038 0.166 7.35 4.87 7.87
8/17/2021 4:15:00 AM 18.89 66.002 0.166 7.25 4.93 7.89
8/17/2021 4:30:00 AM 18.88 65.984 0.166 7.26 4.91 7.75
8/17/2021 4:45:00 AM 18.87 65.966 0.167 7.3 4.88 7.73
8/17/2021 5:00:00 AM 18.86 65.948 0.166 7.34 4.92 7.83
8/17/2021 5:15:00 AM 18.85 65.93 0.166 7.35 4.95 7.85
8/17/2021 5:30:00 AM 18.84 65.912 0.166 7.36 5.02 8.06
8/17/2021 5:45:00 AM 18.83 65.894 0.166 7.35 5.05 7.91
8/17/2021 6:00:00 AM 18.82 65.876 0.166 7.35 5.52 7.85
8/17/2021 6:15:00 AM 18.82 65.876 0.166 7.33 5.15 7.89
8/17/2021 6:30:00 AM 18.82 65.876 0.166 7.34 5.17 8.05
8/17/2021 6:45:00 AM 18.81 65.858 0.165 7.35 5.21 7.94
8/17/2021 7:00:00 AM 18.81 65.858 0.165 7.28 5.1 7.69
8/17/2021 7:15:00 AM 18.8 65.84 0.165 7.31 5.32 7.86
8/17/2021 7:30:00 AM 18.8 65.84 0.165 7.33 5.29 7.87
8/17/2021 7:45:00 AM 18.79 65.82201 0.164 7.3 4.96 7.71
8/17/2021 8:00:00 AM 18.78 65.804 0.164 7.29 5.1 7.98
8/17/2021 8:15:00 AM 18.79 65.82201 0.164 7.29 5.09 8.03
8/17/2021 8:30:00 AM 18.79 65.82201 0.164 7.33 5.05 8.09
8/17/2021 8:45:00 AM 18.8 65.84 0.163 7.33 5.17 8.23
8/17/2021 9:00:00 AM 18.82 65.876 0.162 7.32 5.73 8.3
8/17/2021 9:15:00 AM 18.85 65.93 0.161 7.35 5.93 8.35
8/17/2021 9:30:00 AM 18.89 66.002 0.159 7.35 6.24 8.04
8/17/2021 9:45:00 AM 18.92 66.056 0.158 7.38 6.17 8.52
8/17/2021 10:00:00 AM 18.95 66.11 0.158 7.34 5.94 8.13
8/17/2021 10:15:00 AM 18.98 66.164 0.158 7.4 5.92 8.34
8/17/2021 10:30:00 AM 19 66.2 0.158 7.4 5.82 8.33
8/17/2021 10:45:00 AM 19.04 66.272 0.157 7.46 5.43 8.33
8/17/2021 11:00:00 AM 19.09 66.362 0.157 7.5 5.78 8.9
8/17/2021 11:15:00 AM 19.13 66.434 0.157 7.51 5.27 8.9
8/17/2021 11:30:00 AM 19.2 66.56 0.156 7.56 5.17 8.98
8/17/2021 11:45:00 AM 19.24 66.632 0.156 7.59 5.05 8.91
8/17/2021 12:00:00 PM 19.28 66.704 0.156 7.54 4.88 8.9
8/17/2021 12:15:00 PM 19.31 66.758 0.156 7.64 4.95 8.89
8/17/2021 12:30:00 PM 19.34 66.812 0.156 7.62 5.3 9.12
8/17/2021 12:45:00 PM 19.35 66.83 0.156 7.52 5.12 8.76
8/17/2021 1:00:00 PM 19.36 66.848 0.156 7.55 5.01 8.99
8/17/2021 1:15:00 PM 19.38 66.884 0.157 7.53 4.95 8.82
8/17/2021 1:30:00 PM 19.38 66.884 0.157 7.59 5.02 9
8/17/2021 1:45:00 PM 19.41 66.938 0.157 7.57 5.04 9
8/17/2021 2:00:00 PM 19.43 66.974 0.157 7.62 4.9 8.98
8/17/2021 2:15:00 PM 19.45 67.01 0.157 7.59 4.95 9.1
8/17/2021 2:30:00 PM 19.47 67.046 0.158 7.64 5.04 9.06
8/17/2021 2:45:00 PM 19.51 67.118 0.158 7.61 4.83 9.08
8/17/2021 3:00:00 PM 19.57 67.226 0.158 7.64 4.97 9.26
8/17/2021 3:15:00 PM 19.63 67.334 0.158 7.71 4.75 9.15
8/17/2021 3:30:00 PM 19.67 67.406 0.158 7.71 4.7 9.11
8/17/2021 3:45:00 PM 19.72 67.496 0.158 7.7 4.69 9.15
8/17/2021 4:00:00 PM 19.79 67.622 0.158 7.75 4.9 9.28
8/17/2021 4:15:00 PM 19.84 67.712 0.158 7.8 4.71 9.36
8/17/2021 4:30:00 PM 19.89 67.802 0.158 7.75 4.88 9.32
8/17/2021 4:45:00 PM 19.93 67.874 0.158 7.8 4.81 9.43
8/17/2021 5:00:00 PM 19.98 67.964 0.158 7.92 5.44 9.43
8/17/2021 5:15:00 PM 20 68 0.158 7.81 4.89 9.26
8/17/2021 5:30:00 PM 20.03 68.054 0.158 7.84 4.78 9.19
8/17/2021 5:45:00 PM 20.05 68.09 0.158 7.77 4.62 9.07
8/17/2021 6:00:00 PM 20.05 68.09 0.158 7.84 4.66 9.07
8/17/2021 6:15:00 PM 20.05 68.09 0.158 7.75 4.92 9.03
8/17/2021 6:30:00 PM 20.05 68.09 0.159 7.74 4.85 9
8/17/2021 6:45:00 PM 20.02 68.036 0.159 7.65 4.72 8.37
8/17/2021 7:00:00 PM 20 68 0.159 7.66 4.79 8.2
8/17/2021 7:15:00 PM 19.97 67.946 0.159 7.43 4.83 7.96
8/17/2021 7:30:00 PM 19.94 67.892 0.16 7.57 4.75 8.04
8/17/2021 7:45:00 PM 19.9 67.82 0.16 7.32 4.71 7.87
8/17/2021 8:00:00 PM 19.86 67.748 0.16 7.52 5.26 7.85
8/17/2021 8:15:00 PM 19.82 67.676 0.16 7.49 4.97 7.82
8/17/2021 8:30:00 PM 19.78 67.604 0.16 7.39 4.89 7.75
8/17/2021 8:45:00 PM 19.75 67.55 0.161 7.4 4.73 7.6
8/17/2021 9:00:00 PM 19.72 67.496 0.161 7.37 4.76 7.71
8/17/2021 9:15:00 PM 19.7 67.46 0.161 7.4 4.72 7.75
8/17/2021 9:30:00 PM 19.67 67.406 0.161 7.34 4.7 7.63
8/17/2021 9:45:00 PM 19.64 67.352 0.161 7.42 5.23 7.73
8/17/2021 10:00:00 PM 19.61 67.298 0.161 7.39 4.87 7.8
8/17/2021 10:15:00 PM 19.58 67.244 0.16 7.28 4.9 7.85
8/17/2021 10:30:00 PM 19.56 67.208 0.161 7.33 4.79 8.02
8/17/2021 10:45:00 PM 19.55 67.19 0.161 7.32 4.74 7.73
8/17/2021 11:00:00 PM 19.53 67.154 0.161 7.28 5.17 7.95
8/17/2021 11:15:00 PM 19.52 67.136 0.161 7.29 4.7 7.95
8/17/2021 11:30:00 PM 19.5 67.1 0.161 7.33 4.97 7.74
8/17/2021 11:45:00 PM 19.48 67.064 0.161 7.31 4.98 7.9
8/18/2021 12:00:00 AM 19.47 67.046 0.161 7.28 4.97 8.15
8/18/2021 12:15:00 AM 19.45 67.01 0.161 7.33 4.89 8
8/18/2021 12:30:00 AM 19.44 66.992 0.161 7.31 5.01 8.15
8/18/2021 12:45:00 AM 19.43 66.974 0.161 7.32 5.02 8.18
8/18/2021 1:00:00 AM 19.42 66.956 0.161 7.3 5.02 7.97
8/18/2021 1:15:00 AM 19.4 66.92 0.16 7.23 4.72 7.88
8/18/2021 1:30:00 AM 19.39 66.902 0.161 7.22 5.38 8.05
8/18/2021 1:45:00 AM 19.38 66.884 0.161 7.25 5.74 7.83
8/18/2021 2:00:00 AM 19.37 66.866 0.161 7.29 5.14 7.71
8/18/2021 2:15:00 AM 19.36 66.848 0.161 7.28 5.36 7.44
8/18/2021 2:30:00 AM 19.34 66.812 0.161 7.32 5.2 7.64
8/18/2021 2:45:00 AM 19.33 66.794 0.161 7.26 5.13 7.91
8/18/2021 3:00:00 AM 19.32 66.776 0.161 7.3 5.01 7.65
8/18/2021 3:15:00 AM 19.3 66.74 0.161 7.02 4.91 7.71
8/18/2021 3:30:00 AM 19.28 66.704 0.161 7.22 4.95 7.52
8/18/2021 3:45:00 AM 19.27 66.686 0.161 7.25 4.69 7.85
8/18/2021 4:00:00 AM 19.25 66.65 0.161 7.11 4.78 7.68
8/18/2021 4:15:00 AM 19.24 66.632 0.161 7.2 4.85 7.8
8/18/2021 4:30:00 AM 19.23 66.614 0.161 7.26 4.83 8.08
8/18/2021 4:45:00 AM 19.21 66.578 0.161 7.29 4.88 7.85
8/18/2021 5:00:00 AM 19.2 66.56 0.161 7.23 5.01 7.79
8/18/2021 5:15:00 AM 19.19 66.542 0.161 7.14 4.83 7.9
8/18/2021 5:30:00 AM 19.17 66.506 0.161 7.16 4.83 7.64
8/18/2021 5:45:00 AM 19.17 66.506 0.161 7.15 7.14 7.87
8/18/2021 6:00:00 AM 19.16 66.488 0.161 7.15 5.64 7.47
8/18/2021 6:15:00 AM 19.15 66.47 0.161 7.18 5.05 7.96
8/18/2021 6:30:00 AM 19.15 66.47 0.161 7.21 5.31 8.15
8/18/2021 6:45:00 AM 19.14 66.452 0.161 7.18 5.11 8
8/18/2021 7:00:00 AM 19.13 66.434 0.161 7.18 5.25 7.97
8/18/2021 7:15:00 AM 19.13 66.434 0.161 7.22 5.01 8.06
8/18/2021 7:30:00 AM 19.13 66.434 0.161 7.23 5 8.02
8/18/2021 7:45:00 AM 19.12 66.416 0.161 7 5.11 7.6
8/18/2021 8:00:00 AM 19.12 66.416 0.161 7.2 5.12 8.02
8/18/2021 8:15:00 AM 19.12 66.416 0.161 7.16 4.98 7.96
8/18/2021 8:30:00 AM 19.13 66.434 0.161 7.23 4.99 8.15
8/18/2021 8:45:00 AM 19.15 66.47 0.161 7.25 4.87 8.33
8/18/2021 9:00:00 AM 19.17 66.506 0.161 7.33 4.73 8.59
8/18/2021 9:15:00 AM 19.2 66.56 0.161 7.34 4.64 8.66
8/18/2021 9:30:00 AM 19.24 66.632 0.161 7.37 4.83 8.74
8/18/2021 9:45:00 AM 19.29 66.722 0.16 7.46 4.73 8.79
8/18/2021 10:00:00 AM 19.33 66.794 0.161 7.46 4.73 8.88
8/18/2021 10:15:00 AM 19.39 66.902 0.16 7.45 4.69 8.8
8/18/2021 10:30:00 AM 19.44 66.992 0.16 7.5 4.6 8.97
8/18/2021 10:45:00 AM 19.52 67.136 0.16 7.59 4.74 9.18
8/18/2021 11:00:00 AM 19.57 67.226 0.16 7.58 4.7 9.09
8/18/2021 11:15:00 AM 19.63 67.334 0.16 7.65 4.84 9.27
8/18/2021 11:30:00 AM 19.67 67.406 0.16 7.6 4.83 9.02
8/18/2021 11:45:00 AM 19.69 67.442 0.16 7.63 4.77 9.17
8/18/2021 12:00:00 PM 19.7 67.46 0.16 7.58 4.69 9.04
8/18/2021 12:15:00 PM 19.74 67.532 0.16 7.56 4.69 9.13
8/18/2021 12:30:00 PM 19.79 67.622 0.16 7.55 4.63 9.11
8/18/2021 12:45:00 PM 19.85 67.73 0.16 7.65 4.79 9.13
8/18/2021 1:00:00 PM 19.91 67.838 0.16 7.71 4.64 9.24
8/18/2021 1:15:00 PM 19.98 67.964 0.16 7.68 4.59 9.17
8/18/2021 1:30:00 PM 20.06 68.108 0.16 7.73 4.59 9.34
8/18/2021 1:45:00 PM 20.13 68.234 0.16 7.72 4.55 9.26
8/18/2021 2:00:00 PM 20.24 68.432 0.159 7.85 4.86 9.3
8/18/2021 2:15:00 PM 20.31 68.558 0.159 7.86 4.66 9.37
8/18/2021 2:30:00 PM 20.36 68.648 0.159 7.86 4.76 9.32
8/18/2021 2:45:00 PM 20.4 68.72 0.159 7.9 4.55 9.28
8/18/2021 3:00:00 PM 20.42 68.756 0.159 7.83 4.57 9.22
8/18/2021 3:15:00 PM 20.45 68.81 0.159 7.83 5.85 9.21
8/18/2021 3:30:00 PM 20.53 68.954 0.16 7.88 4.92 9.26
8/18/2021 3:45:00 PM 20.6 69.08 0.16 7.88 4.77 9.27
8/18/2021 4:00:00 PM 20.64 69.152 0.16 7.89 4.84 9.2
8/18/2021 4:15:00 PM 20.64 69.152 0.159 7.93 5.02 9.13
8/18/2021 4:30:00 PM 20.62 69.116 0.159 7.68 5.09 8.73
8/18/2021 4:45:00 PM 20.6 69.08 0.159 7.6 4.92 8.57
8/18/2021 5:00:00 PM 20.57 69.026 0.16 7.61 4.81 8.51
8/18/2021 5:15:00 PM 20.54 68.972 0.16 7.55 4.96 8.18
8/18/2021 5:30:00 PM 20.51 68.918 0.16 7.46 4.91 8.23
8/18/2021 5:45:00 PM 20.47 68.846 0.16 7.41 4.91 7.95
8/18/2021 6:00:00 PM 20.43 68.774 0.16 7.54 5.04 8.1
8/18/2021 6:15:00 PM 20.36 68.648 0.159 7.52 5.26 8.6
8/18/2021 6:30:00 PM 20.34 68.612 0.157 7.59 5.83 8.6
8/18/2021 6:45:00 PM 20.34 68.612 0.157 7.54 5.42 8.55
8/18/2021 7:00:00 PM 20.34 68.612 0.156 7.59 5.84 8.01
8/18/2021 7:15:00 PM 20.34 68.612 0.155 7.58 6.12 8.02
8/18/2021 7:30:00 PM 20.35 68.63 0.153 7.57 5.94 7.86
8/18/2021 7:45:00 PM 20.38 68.684 0.151 7.55 6.28 7.8
8/18/2021 8:00:00 PM 20.43 68.774 0.148 7.5 9.33 8.35
8/18/2021 8:15:00 PM 20.46 68.828 0.146 7.53 7.45 8.05
8/18/2021 8:30:00 PM 20.46 68.828 0.145 7.52 6.75 8.36
8/18/2021 8:45:00 PM 20.46 68.828 0.145 7.51 6.95 8.4
8/18/2021 9:00:00 PM 20.45 68.81 0.145 7.5 8.05 8.37
8/18/2021 9:15:00 PM 20.43 68.774 0.145 7.47 8.6 8.4
8/18/2021 9:30:00 PM 20.4 68.72 0.145 7.49 7.73 8.38
8/18/2021 9:45:00 PM 20.37 68.666 0.146 7.5 6.52 8.42
8/18/2021 10:00:00 PM 20.36 68.648 0.145 7.5 6.55 8.39
8/18/2021 10:15:00 PM 20.37 68.666 0.144 7.5 7.71 8.47
8/18/2021 10:30:00 PM 20.36 68.648 0.143 7.48 8.7 8.49
8/18/2021 10:45:00 PM 20.33 68.594 0.143 7.49 7.81 8.49
8/18/2021 11:00:00 PM 20.29 68.522 0.144 7.49 7.09 8.51
8/18/2021 11:15:00 PM 20.25 68.45 0.144 7.44 7.42 8.52
8/18/2021 11:30:00 PM 20.2 68.36 0.145 7.48 7.24 8.54
8/18/2021 11:45:00 PM 20.16 68.288 0.145 7.48 7.45 8.57
8/19/2021 12:00:00 AM 20.12 68.216 0.145 7.47 7.54 8.6
8/19/2021 12:15:00 AM 20.09 68.162 0.145 7.47 8.5 8.61
8/19/2021 12:30:00 AM 20.08 68.144 0.145 7.47 7.27 8.61
8/19/2021 12:45:00 AM 20.06 68.108 0.145 7.47 8.96 8.62
8/19/2021 1:00:00 AM 20.05 68.09 0.145 7.45 7.15 8.61
8/19/2021 1:15:00 AM 20.04 68.07201 0.145 7.47 7.46 8.62
8/19/2021 1:30:00 AM 20.03 68.054 0.145 7.46 7.34 8.62
8/19/2021 1:45:00 AM 20.03 68.054 0.145 7.46 6.66 8.61
8/19/2021 2:00:00 AM 20.02 68.036 0.145 7.46 7.28 8.62
8/19/2021 2:15:00 AM 20.02 68.036 0.145 7.46 6.99 8.62
8/19/2021 2:30:00 AM 20.02 68.036 0.145 7.46 7.53 8.6
8/19/2021 2:45:00 AM 20.02 68.036 0.145 7.45 7.45 8.61
8/19/2021 3:00:00 AM 20.01 68.018 0.145 7.45 7.26 8.64
8/19/2021 3:15:00 AM 20 68 0.145 7.45 6.26 8.64
8/19/2021 3:30:00 AM 20 68 0.145 7.45 6.26 8.63
8/19/2021 3:45:00 AM 19.99 67.982 0.145 7.43 6.55 8.63
8/19/2021 4:00:00 AM 19.99 67.982 0.145 7.42 6.45 8.64
8/19/2021 4:15:00 AM 19.98 67.964 0.145 7.42 7.43 8.64
8/19/2021 4:30:00 AM 19.98 67.964 0.145 7.42 6.37 8.65
8/19/2021 4:45:00 AM 19.97 67.946 0.145 7.42 8.5 8.67
8/19/2021 5:00:00 AM 19.97 67.946 0.145 7.41 7.25 8.66
8/19/2021 5:15:00 AM 19.96 67.92799 0.145 7.4 7.49 8.67
8/19/2021 5:30:00 AM 19.95 67.91 0.145 7.41 6.93 8.68
8/19/2021 5:45:00 AM 19.94 67.892 0.145 7.41 7.34 8.68
8/19/2021 6:00:00 AM 19.94 67.892 0.145 7.41 7.01 8.68
8/19/2021 6:15:00 AM 19.94 67.892 0.145 7.41 7.55 8.68
8/19/2021 6:30:00 AM 19.94 67.892 0.145 7.41 7.22 8.69
8/19/2021 6:45:00 AM 19.95 67.91 0.145 7.41 7.79 8.71
8/19/2021 7:00:00 AM 19.96 67.92799 0.145 7.42 7.44 8.7
8/19/2021 7:15:00 AM 19.97 67.946 0.145 7.42 7.26 8.72
8/19/2021 7:30:00 AM 19.99 67.982 0.144 7.44 7.67 8.75
8/19/2021 7:45:00 AM 20.01 68.018 0.144 7.49 7.75 8.76
8/19/2021 8:00:00 AM 20.06 68.108 0.143 7.52 9.54 8.8
8/19/2021 8:15:00 AM 20.09 68.162 0.143 7.54 7.34 8.81
8/19/2021 8:30:00 AM 20.13 68.234 0.142 7.57 6.81 8.82
8/19/2021 8:45:00 AM 20.17 68.306 0.141 7.58 7.23 8.81
8/19/2021 9:00:00 AM 20.22 68.396 0.141 7.61 8.22 8.78
8/19/2021 9:15:00 AM 20.26 68.468 0.14 7.62 7.07 8.74
8/19/2021 9:30:00 AM 20.28 68.504 0.14 7.61 7.8 8.73
8/19/2021 9:45:00 AM 20.32 68.576 0.14 7.62 7.22 8.77
8/19/2021 10:00:00 AM 20.36 68.648 0.139 7.62 7.16 8.77
8/19/2021 10:15:00 AM 20.4 68.72 0.139 7.63 6.85 8.79
8/19/2021 10:30:00 AM 20.45 68.81 0.138 7.64 6.73 8.83
8/19/2021 10:45:00 AM 20.55 68.99 0.138 7.67 6.84 8.88
8/19/2021 11:00:00 AM 20.62 69.116 0.137 7.68 6.69 8.87
8/19/2021 11:15:00 AM 20.66 69.188 0.136 7.68 6.51 8.89
8/19/2021 11:30:00 AM 20.73 69.314 0.136 7.7 6.55 8.87
8/19/2021 11:45:00 AM 20.88 69.584 0.135 7.7 6.48 8.89
8/19/2021 12:00:00 PM 20.91 69.638 0.134 7.69 6.87 8.86
8/19/2021 12:15:00 PM 21 69.8 0.134 7.72 6.81 8.9
8/19/2021 12:30:00 PM 21.15 70.07 0.133 7.75 6.58 8.89
8/19/2021 12:45:00 PM 21.26 70.268 0.133 7.76 7.02 8.88
8/19/2021 1:00:00 PM 21.33 70.394 0.132 7.72 7.97 8.85
8/19/2021 1:15:00 PM 21.45 70.61 0.132 7.71 8.07 8.82
8/19/2021 1:30:00 PM 21.53 70.754 0.132 7.74 7.35 8.82
8/19/2021 1:45:00 PM 21.59 70.862 0.131 7.76 7.42 8.81
8/19/2021 2:00:00 PM 21.69 71.042 0.131 7.76 6.98 8.79
8/19/2021 2:15:00 PM 21.75 71.15 0.131 7.75 7.29 8.78
8/19/2021 2:30:00 PM 21.81 71.258 0.13 7.78 7.67 8.78
8/19/2021 2:45:00 PM 21.81 71.258 0.13 7.74 7.43 8.76
8/19/2021 3:00:00 PM 21.88 71.384 0.13 7.78 7.38 8.76
8/19/2021 3:15:00 PM 21.89 71.402 0.13 7.77 7.2 8.72
8/19/2021 3:30:00 PM 21.93 71.474 0.13 7.75 7.09 8.74
8/19/2021 3:45:00 PM 22.01 71.618 0.13 7.77 8.57 8.75
8/19/2021 4:00:00 PM 22.15 71.87 0.129 7.78 7.85 8.74
8/19/2021 4:15:00 PM 22.12 71.816 0.129 7.77 9.96 8.68
8/19/2021 4:30:00 PM 22.11 71.798 0.129 7.74 9.82 8.65
8/19/2021 4:45:00 PM 22.11 71.798 0.129 7.74 8.58 8.64
8/19/2021 5:00:00 PM 22.14 71.852 0.129 7.72 9.21 8.63
8/19/2021 5:15:00 PM 22.21 71.978 0.129 7.73 9.81 8.63
8/19/2021 5:30:00 PM 22.24 72.032 0.129 7.71 10.02 8.58
8/19/2021 5:45:00 PM 22.24 72.032 0.129 7.68 9.91 8.52
8/19/2021 6:00:00 PM 22.24 72.032 0.129 7.65 8.12 8.5
8/19/2021 6:15:00 PM 22.24 72.032 0.129 7.66 9.69 8.51
8/19/2021 6:30:00 PM 22.21 71.978 0.129 7.63 9.87 8.46
8/19/2021 6:45:00 PM 22.17 71.906 0.129 7.6 8.78 8.47
8/19/2021 7:00:00 PM 22.15 71.87 0.129 7.59 10.26 8.46
8/19/2021 7:15:00 PM 22.11 71.798 0.129 7.58 9.3 8.44
8/19/2021 7:30:00 PM 22.05 71.69 0.129 7.57 9.84 8.4
8/19/2021 7:45:00 PM 22 71.6 0.129 7.56 9.47 8.39
8/19/2021 8:00:00 PM 21.95 71.51 0.129 7.55 13.16 8.42
8/19/2021 8:15:00 PM 21.89 71.402 0.129 7.53 10.99 8.41
8/19/2021 8:30:00 PM 21.84 71.312 0.129 7.54 11.29 8.42
8/19/2021 8:45:00 PM 21.79 71.222 0.129 7.53 12.6 8.41
8/19/2021 9:00:00 PM 21.74 71.132 0.128 7.54 12.2 8.43
8/19/2021 9:15:00 PM 21.69 71.042 0.128 7.52 13.64 8.42
8/19/2021 9:30:00 PM 21.66 70.988 0.128 7.52 14.14 8.44
8/19/2021 9:45:00 PM 21.62 70.916 0.128 7.51 17.23 8.42
8/19/2021 10:00:00 PM 21.59 70.862 0.128 7.53 17.09 8.45
8/19/2021 10:15:00 PM 21.56 70.808 0.128 7.53 17.31 8.46
8/19/2021 10:30:00 PM 21.52 70.736 0.128 7.51 14.47 8.46
8/19/2021 10:45:00 PM 21.48 70.664 0.128 7.5 13.94 8.46
8/19/2021 11:00:00 PM 21.45 70.61 0.128 7.5 14.2 8.47
8/19/2021 11:15:00 PM 21.43 70.574 0.128 7.51 15.31 8.48
8/19/2021 11:30:00 PM 21.4 70.52 0.128 7.51 15.87 8.48
8/19/2021 11:45:00 PM 21.39 70.502 0.128 7.51 15.79 8.5
8/20/2021 12:00:00 AM 21.36 70.448 0.128 7.51 16.78 8.5
8/20/2021 12:15:00 AM 21.34 70.412 0.128 7.5 17.47 8.49
8/20/2021 12:30:00 AM 21.32 70.376 0.128 7.51 18.64 8.51
8/20/2021 12:45:00 AM 21.3 70.34 0.128 7.51 17.03 8.52
8/20/2021 1:00:00 AM 21.27 70.286 0.128 7.49 16.92 8.5
8/20/2021 1:15:00 AM 21.24 70.232 0.128 7.5 16.47 8.52
8/20/2021 1:30:00 AM 21.21 70.17799 0.128 7.49 16.94 8.49
8/20/2021 1:45:00 AM 21.2 70.16 0.128 7.51 17.79 8.52
8/20/2021 2:00:00 AM 21.18 70.124 0.128 7.5 18.65 8.53
8/20/2021 2:15:00 AM 21.15 70.07 0.128 7.49 17.53 8.52
8/20/2021 2:30:00 AM 21.13 70.034 0.128 7.5 17.3 8.53
8/20/2021 2:45:00 AM 21.11 69.998 0.128 7.5 17.32 8.53
8/20/2021 3:00:00 AM 21.09 69.962 0.128 7.5 18.16 8.53
8/20/2021 3:15:00 AM 21.07 69.926 0.128 7.5 18.1 8.54
8/20/2021 3:30:00 AM 21.05 69.89 0.128 7.51 17.99 8.56
8/20/2021 3:45:00 AM 21.03 69.854 0.128 7.51 18.34 8.57
8/20/2021 4:00:00 AM 21 69.8 0.128 7.5 16.85 8.56
8/20/2021 4:15:00 AM 20.98 69.764 0.128 7.5 16.76 8.57
8/20/2021 4:30:00 AM 20.95 69.71 0.128 7.51 17.43 8.57
8/20/2021 4:45:00 AM 20.94 69.692 0.128 7.51 18.4 8.57
8/20/2021 5:00:00 AM 20.9 69.62 0.128 7.48 17.46 8.52
8/20/2021 5:15:00 AM 20.9 69.62 0.128 7.5 18.26 8.58
8/20/2021 5:30:00 AM 20.87 69.566 0.128 7.49 18.09 8.57
8/20/2021 5:45:00 AM 20.86 69.548 0.128 7.49 17.75 8.57
8/20/2021 6:00:00 AM 20.85 69.53 0.128 7.5 18.84 8.59
8/20/2021 6:15:00 AM 20.84 69.512 0.128 7.5 18.25 8.6
8/20/2021 6:30:00 AM 20.82 69.476 0.128 7.5 17.87 8.58
8/20/2021 6:45:00 AM 20.8 69.44 0.128 7.5 17.54 8.6
8/20/2021 7:00:00 AM 20.79 69.422 0.128 7.49 16.5 8.61
8/20/2021 7:15:00 AM 20.79 69.422 0.128 7.5 18.71 8.63
8/20/2021 7:30:00 AM 20.77 69.386 0.128 7.49 18.32 8.63
8/20/2021 7:45:00 AM 20.79 69.422 0.128 7.52 18.09 8.66
8/20/2021 8:00:00 AM 20.8 69.44 0.128 7.54 18.72 8.7
8/20/2021 8:15:00 AM 20.81 69.458 0.128 7.56 17.99 8.71
8/20/2021 8:30:00 AM 20.82 69.476 0.128 7.54 27.1 8.72
8/20/2021 8:45:00 AM 20.85 69.53 0.128 7.57 18.19 8.73
8/20/2021 9:00:00 AM 20.88 69.584 0.128 7.58 18.59 8.77
8/20/2021 9:15:00 AM 20.92 69.656 0.128 7.59 19.63 8.8
8/20/2021 9:30:00 AM 20.95 69.71 0.128 7.62 18.73 8.79
8/20/2021 9:45:00 AM 20.98 69.764 0.128 7.62 16.91 8.79
8/20/2021 10:00:00 AM 21.03 69.854 0.128 7.65 17.81 8.81
8/20/2021 10:15:00 AM 21.09 69.962 0.128 7.65 18.91 8.85
8/20/2021 10:30:00 AM 21.16 70.088 0.128 7.69 18.03 8.85
8/20/2021 10:45:00 AM 21.21 70.17799 0.128 7.67 17.92 8.85
8/20/2021 11:00:00 AM 21.25 70.25 0.128 7.68 17.51 8.84
8/20/2021 11:15:00 AM 21.28 70.304 0.128 7.68 16.53 8.81
8/20/2021 11:30:00 AM 21.34 70.412 0.128 7.7 18.14 8.83
8/20/2021 11:45:00 AM 21.38 70.484 0.128 7.69 19.34 8.81
8/20/2021 12:00:00 PM 21.43 70.574 0.128 7.71 19.25 8.8
8/20/2021 12:15:00 PM 21.48 70.664 0.128 7.72 18.99 8.79
8/20/2021 12:30:00 PM 21.52 70.736 0.128 7.71 17.96 8.81
8/20/2021 12:45:00 PM 21.59 70.862 0.128 7.74 18.94 8.82
8/20/2021 1:00:00 PM 21.65 70.97 0.128 7.75 16.28 8.82
8/20/2021 1:15:00 PM 21.69 71.042 0.128 7.74 19.04 8.8
8/20/2021 1:30:00 PM 21.75 71.15 0.128 7.75 17.05 8.8
8/20/2021 1:45:00 PM 21.81 71.258 0.128 7.77 16.64 8.79
8/20/2021 2:00:00 PM 21.85 71.33 0.128 7.76 17.41 8.77
8/20/2021 2:15:00 PM 21.91 71.438 0.128 7.76 16.05 8.77
8/20/2021 2:30:00 PM 21.96 71.528 0.128 7.77 19.01 8.76
8/20/2021 2:45:00 PM 21.99 71.582 0.128 7.78 19.51 8.75
8/20/2021 3:00:00 PM 22.03 71.654 0.128 7.73 17.62 8.75
8/20/2021 3:15:00 PM 22.03 71.654 0.128 7.73 19.02 8.68
8/20/2021 3:30:00 PM 22.04 71.672 0.128 7.73 16.58 8.66
8/20/2021 3:45:00 PM 22.03 71.654 0.128 7.69 19.75 8.6
8/20/2021 4:00:00 PM 21.98 71.564 0.128 7.67 16.64 8.55
8/20/2021 4:15:00 PM 21.95 71.51 0.128 7.66 18 8.55
8/20/2021 4:30:00 PM 21.93 71.474 0.128 7.67 17.78 8.55
8/20/2021 4:45:00 PM 21.92 71.456 0.128 7.69 16.2 8.59
8/20/2021 5:00:00 PM 21.92 71.456 0.128 7.69 14.66 8.63
8/20/2021 5:15:00 PM 21.94 71.492 0.128 7.71 14.57 8.65
8/20/2021 5:30:00 PM 21.92 71.456 0.128 7.7 15.16 8.64
8/20/2021 5:45:00 PM 21.9 71.42 0.128 7.69 15.53 8.61
8/20/2021 6:00:00 PM 21.9 71.42 0.128 7.7 16.6 8.61
8/20/2021 6:15:00 PM 21.89 71.402 0.128 7.7 15.75 8.62
8/20/2021 6:30:00 PM 21.87 71.366 0.128 7.68 17.39 8.59
8/20/2021 6:45:00 PM 21.85 71.33 0.128 7.68 16.32 8.56
8/20/2021 7:00:00 PM 21.83 71.294 0.128 7.64 14.48 8.54
8/20/2021 7:15:00 PM 21.81 71.258 0.128 7.61 15.76 8.51
8/20/2021 7:30:00 PM 21.79 71.222 0.129 7.62 16.27 8.5
8/20/2021 7:45:00 PM 21.76 71.168 0.129 7.6 16.19 8.46
8/20/2021 8:00:00 PM 21.73 71.114 0.129 7.58 15.39 8.43
8/20/2021 8:15:00 PM 21.69 71.042 0.129 7.57 15.76 8.43
8/20/2021 8:30:00 PM 21.67 71.006 0.129 7.56 16.52 8.42
8/20/2021 8:45:00 PM 21.63 70.934 0.129 7.56 18.68 8.43
8/20/2021 9:00:00 PM 21.61 70.898 0.129 7.57 16.48 8.45
8/20/2021 9:15:00 PM 21.58 70.844 0.129 7.56 16.5 8.46
8/20/2021 9:30:00 PM 21.53 70.754 0.129 7.55 15.72 8.43
8/20/2021 9:45:00 PM 21.5 70.7 0.129 7.55 17.03 8.47
8/20/2021 10:00:00 PM 21.46 70.628 0.129 7.53 16.04 8.47
8/20/2021 10:15:00 PM 21.42 70.556 0.129 7.53 19.06 8.46
8/20/2021 10:30:00 PM 21.4 70.52 0.129 7.53 20.47 8.47
8/20/2021 10:45:00 PM 21.38 70.484 0.129 7.54 19.17 8.49
8/20/2021 11:00:00 PM 21.34 70.412 0.129 7.53 16.56 8.48
8/20/2021 11:15:00 PM 21.32 70.376 0.129 7.53 17.46 8.49
8/20/2021 11:30:00 PM 21.29 70.32201 0.129 7.52 17.34 8.49
8/20/2021 11:45:00 PM 21.27 70.286 0.129 7.53 18.65 8.49
8/21/2021 12:00:00 AM 21.25 70.25 0.129 7.53 17.43 8.5
8/21/2021 12:15:00 AM 21.23 70.214 0.129 7.54 16.78 8.5
8/21/2021 12:30:00 AM 21.2 70.16 0.129 7.53 17.44 8.5
8/21/2021 12:45:00 AM 21.19 70.142 0.129 7.54 18.7 8.52
8/21/2021 1:00:00 AM 21.17 70.106 0.129 7.52 18.59 8.51
8/21/2021 1:15:00 AM 21.15 70.07 0.129 7.52 17.77 8.53
8/21/2021 1:30:00 AM 21.12 70.016 0.129 7.51 19.55 8.51
8/21/2021 1:45:00 AM 21.1 69.98 0.129 7.51 16.74 8.51
8/21/2021 2:00:00 AM 21.08 69.944 0.13 7.52 16.52 8.53
8/21/2021 2:15:00 AM 21.06 69.908 0.13 7.51 17.87 8.52
8/21/2021 2:30:00 AM 21.04 69.872 0.13 7.52 19.4 8.53
8/21/2021 2:45:00 AM 21 69.8 0.13 7.51 17.46 8.53
8/21/2021 3:00:00 AM 20.98 69.764 0.13 7.52 19.16 8.54
8/21/2021 3:15:00 AM 20.96 69.728 0.13 7.53 18.62 8.56
8/21/2021 3:30:00 AM 20.94 69.692 0.13 7.51 17.19 8.55
8/21/2021 3:45:00 AM 20.93 69.674 0.13 7.52 17.11 8.56
8/21/2021 4:00:00 AM 20.91 69.638 0.13 7.52 16.76 8.56
8/21/2021 4:15:00 AM 20.89 69.602 0.13 7.51 16.88 8.57
8/21/2021 4:30:00 AM 20.88 69.584 0.13 7.53 16.55 8.56
8/21/2021 4:45:00 AM 20.86 69.548 0.13 7.52 16.56 8.58
8/21/2021 5:00:00 AM 20.85 69.53 0.13 7.52 17.9 8.56
8/21/2021 5:15:00 AM 20.84 69.512 0.13 7.51 17.74 8.57
8/21/2021 5:30:00 AM 20.82 69.476 0.13 7.51 17.76 8.56
8/21/2021 5:45:00 AM 20.81 69.458 0.13 7.5 16.36 8.57
8/21/2021 6:00:00 AM 20.8 69.44 0.13 7.52 16.88 8.57
8/21/2021 6:15:00 AM 20.78 69.404 0.13 7.51 16.27 8.57
8/21/2021 6:30:00 AM 20.77 69.386 0.13 7.51 19.16 8.58
8/21/2021 6:45:00 AM 20.76 69.368 0.13 7.51 17.75 8.57
8/21/2021 7:00:00 AM 20.76 69.368 0.13 7.52 18.31 8.59
8/21/2021 7:15:00 AM 20.75 69.35 0.13 7.52 18.83 8.6
8/21/2021 7:30:00 AM 20.76 69.368 0.13 7.53 17.69 8.63
8/21/2021 7:45:00 AM 20.75 69.35 0.13 7.53 16.73 8.63
8/21/2021 8:00:00 AM 20.76 69.368 0.13 7.54 16.71 8.63
8/21/2021 8:15:00 AM 20.76 69.368 0.13 7.54 16.17 8.66
8/21/2021 8:30:00 AM 20.77 69.386 0.13 7.55 16.38 8.68
8/21/2021 8:45:00 AM 20.8 69.44 0.13 7.56 16.91 8.72
8/21/2021 9:00:00 AM 20.83 69.494 0.13 7.58 17.02 8.76
8/21/2021 9:15:00 AM 20.85 69.53 0.13 7.6 16.42 8.77
8/21/2021 9:30:00 AM 20.87 69.566 0.13 7.61 15.28 8.76
8/21/2021 9:45:00 AM 20.9 69.62 0.13 7.61 16.03 8.79
8/21/2021 10:00:00 AM 20.95 69.71 0.13 7.63 17.02 8.81
8/21/2021 10:15:00 AM 21 69.8 0.13 7.65 15.8 8.83
8/21/2021 10:30:00 AM 21.08 69.944 0.13 7.67 15.86 8.86
8/21/2021 10:45:00 AM 21.15 70.07 0.13 7.69 15.48 8.87
8/21/2021 11:00:00 AM 21.2 70.16 0.13 7.71 16.41 8.87
8/21/2021 11:15:00 AM 21.24 70.232 0.13 7.72 16.55 8.86
8/21/2021 11:30:00 AM 21.32 70.376 0.13 7.74 16.61 8.88
8/21/2021 11:45:00 AM 21.4 70.52 0.13 7.75 18.79 8.86
8/21/2021 12:00:00 PM 21.49 70.682 0.13 7.76 15.4 8.88
8/21/2021 12:15:00 PM 21.59 70.862 0.13 7.78 16.92 8.86
8/21/2021 12:30:00 PM 21.72 71.096 0.13 7.79 17.43 8.88
8/21/2021 12:45:00 PM 21.8 71.24 0.13 7.79 15.8 8.84
8/21/2021 1:00:00 PM 21.88 71.384 0.13 7.81 15.17 8.82
8/21/2021 1:15:00 PM 21.9 71.42 0.13 7.8 17.56 8.81
8/21/2021 1:30:00 PM 22.05 71.69 0.13 7.8 15.48 8.81
8/21/2021 1:45:00 PM 22.24 72.032 0.13 7.82 17.86 8.8
8/21/2021 2:00:00 PM 22.34 72.212 0.13 7.83 16.37 8.78
8/21/2021 2:15:00 PM 22.36 72.248 0.13 7.83 16.14 8.76
8/21/2021 2:30:00 PM 22.43 72.374 0.13 7.83 16.97 8.74
8/21/2021 2:45:00 PM 22.5 72.5 0.13 7.78 1288.66 8.51
8/21/2021 3:00:00 PM 22.51 72.518 0.13 7.79 16.05 8.64
8/21/2021 3:15:00 PM 22.55 72.59 0.13 7.8 11.81 8.65
8/21/2021 3:30:00 PM 22.56 72.608 0.13 7.79 11.82 8.59
8/21/2021 3:45:00 PM 22.57 72.626 0.131 7.77 11.32 8.61
8/21/2021 4:00:00 PM 22.61 72.698 0.131 7.77 11.11 8.59
8/21/2021 4:15:00 PM 22.69 72.842 0.131 7.79 11.21 8.6
8/21/2021 4:30:00 PM 22.73 72.914 0.131 7.77 11.23 8.58
8/21/2021 4:45:00 PM 22.76 72.968 0.131 7.77 11.17 8.54
8/21/2021 5:00:00 PM 22.75 72.95 0.131 7.75 11.04 8.49
8/21/2021 5:15:00 PM 22.76 72.968 0.131 7.75 11.13 8.5
8/21/2021 5:30:00 PM 22.75 72.95 0.131 7.74 11.06 8.48
8/21/2021 5:45:00 PM 22.76 72.968 0.131 7.73 11.07 8.49
8/21/2021 6:00:00 PM 22.78 73.004 0.131 7.74 11.22 8.47
8/21/2021 6:15:00 PM 22.77 72.986 0.131 7.71 11.24 8.42
8/21/2021 6:30:00 PM 22.73 72.914 0.131 7.69 11.26 8.37
8/21/2021 6:45:00 PM 22.68 72.824 0.131 7.65 11.37 8.33
8/21/2021 7:00:00 PM 22.64 72.752 0.131 7.65 11.35 8.32
8/21/2021 7:15:00 PM 22.59 72.662 0.131 7.64 11.05 8.31
8/21/2021 7:30:00 PM 22.54 72.57201 0.132 7.63 11.18 8.29
8/21/2021 7:45:00 PM 22.48 72.464 0.132 7.63 11.28 8.27
8/21/2021 8:00:00 PM 22.4 72.32 0.132 7.61 15.2 8.29
8/21/2021 8:15:00 PM 22.33 72.194 0.132 7.6 11.31 8.26
8/21/2021 8:30:00 PM 22.24 72.032 0.132 7.58 11.25 8.28
8/21/2021 8:45:00 PM 22.17 71.906 0.132 7.57 11.04 8.29
8/21/2021 9:00:00 PM 22.11 71.798 0.132 7.56 11.3 8.31
8/21/2021 9:15:00 PM 22.05 71.69 0.132 7.55 11.52 8.32
8/21/2021 9:30:00 PM 22 71.6 0.133 7.55 11.59 8.34
8/21/2021 9:45:00 PM 21.95 71.51 0.133 7.54 11.71 8.33
8/21/2021 10:00:00 PM 21.9 71.42 0.133 7.52 13.13 8.35
8/21/2021 10:15:00 PM 21.84 71.312 0.133 7.53 10.57 8.35
8/21/2021 10:30:00 PM 21.79 71.222 0.133 7.53 9.48 8.36
8/21/2021 10:45:00 PM 21.74 71.132 0.133 7.52 9.66 8.33
8/21/2021 11:00:00 PM 21.71 71.078 0.133 7.52 9.2 8.37
8/21/2021 11:15:00 PM 21.67 71.006 0.133 7.52 9.19 8.37
8/21/2021 11:30:00 PM 21.64 70.952 0.133 7.52 9.62 8.39
8/21/2021 11:45:00 PM 21.61 70.898 0.133 7.52 9.2 8.4
8/22/2021 12:00:00 AM 21.58 70.844 0.133 7.52 9.11 8.37
8/22/2021 12:15:00 AM 21.54 70.772 0.133 7.51 9.02 8.39
8/22/2021 12:30:00 AM 21.51 70.718 0.133 7.51 9.09 8.4
8/22/2021 12:45:00 AM 21.48 70.664 0.133 7.5 9.1 8.41
8/22/2021 1:00:00 AM 21.45 70.61 0.133 7.51 9.27 8.39
8/22/2021 1:15:00 AM 21.41 70.538 0.133 7.5 9.22 8.37
8/22/2021 1:30:00 AM 21.38 70.484 0.133 7.5 9.25 8.37
8/22/2021 1:45:00 AM 21.34 70.412 0.133 7.5 9.28 8.39
8/22/2021 2:00:00 AM 21.31 70.358 0.133 7.5 9.31 8.41
8/22/2021 2:15:00 AM 21.28 70.304 0.133 7.5 8.92 8.44
8/22/2021 2:30:00 AM 21.24 70.232 0.133 7.5 9.42 8.41
8/22/2021 2:45:00 AM 21.21 70.17799 0.133 7.5 8.98 8.45
8/22/2021 3:00:00 AM 21.18 70.124 0.133 7.5 9.1 8.44
8/22/2021 3:15:00 AM 21.16 70.088 0.134 7.5 9.2 8.46
8/22/2021 3:30:00 AM 21.14 70.052 0.134 7.51 9.33 8.43
8/22/2021 3:45:00 AM 21.1 69.98 0.134 7.5 9.21 8.44
8/22/2021 4:00:00 AM 21.07 69.926 0.134 7.5 8.94 8.4
8/22/2021 4:15:00 AM 21.04 69.872 0.134 7.5 8.91 8.46
8/22/2021 4:30:00 AM 21.02 69.836 0.134 7.51 9.02 8.47
8/22/2021 4:45:00 AM 21 69.8 0.134 7.51 8.9 8.41
8/22/2021 5:00:00 AM 20.98 69.764 0.134 7.51 9.04 8.47
8/22/2021 5:15:00 AM 20.96 69.728 0.134 7.5 8.93 8.45
8/22/2021 5:30:00 AM 20.93 69.674 0.134 7.5 9.15 8.45
8/22/2021 5:45:00 AM 20.92 69.656 0.134 7.5 9.15 8.5
8/22/2021 6:00:00 AM 20.9 69.62 0.134 7.51 9.29 8.5
8/22/2021 6:15:00 AM 20.88 69.584 0.134 7.5 9.33 8.48
8/22/2021 6:30:00 AM 20.86 69.548 0.134 7.5 9.2 8.42
8/22/2021 6:45:00 AM 20.86 69.548 0.134 7.5 9.07 8.51
8/22/2021 7:00:00 AM 20.85 69.53 0.134 7.52 9.1 8.47
8/22/2021 7:15:00 AM 20.86 69.548 0.134 7.53 8.78 8.51
8/22/2021 7:30:00 AM 20.86 69.548 0.134 7.54 8.97 8.58
8/22/2021 7:45:00 AM 20.86 69.548 0.134 7.55 9.07 8.55
8/22/2021 8:00:00 AM 20.89 69.602 0.134 7.57 8.69 8.65
8/22/2021 8:15:00 AM 20.9 69.62 0.134 7.58 8.96 8.64
8/22/2021 8:30:00 AM 20.92 69.656 0.134 7.59 8.78 8.55
8/22/2021 8:45:00 AM 20.95 69.71 0.134 7.61 8.71 8.61
8/22/2021 9:00:00 AM 20.98 69.764 0.134 7.62 8.71 8.58
8/22/2021 9:15:00 AM 21.04 69.872 0.134 7.65 8.71 8.73
8/22/2021 9:30:00 AM 21.07 69.926 0.134 7.65 8.51 8.72
8/22/2021 9:45:00 AM 21.11 69.998 0.134 7.68 8.55 8.78
8/22/2021 10:00:00 AM 21.12 70.016 0.134 7.67 8.47 8.75
8/22/2021 10:15:00 AM 21.13 70.034 0.134 7.66 8.71 8.69
8/22/2021 10:30:00 AM 21.14 70.052 0.134 7.65 8.49 8.71
8/22/2021 10:45:00 AM 21.14 70.052 0.134 7.63 8.47 8.7
8/22/2021 11:00:00 AM 21.17 70.106 0.134 7.65 8.36 8.71
8/22/2021 11:15:00 AM 21.17 70.106 0.134 7.63 8.51 8.64
8/22/2021 11:30:00 AM 21.19 70.142 0.134 7.62 8.77 8.64
8/22/2021 11:45:00 AM 21.2 70.16 0.134 7.62 8.39 8.57
8/22/2021 12:00:00 PM 21.21 70.17799 0.134 7.61 8.67 8.39
8/22/2021 12:15:00 PM 21.25 70.25 0.134 7.63 8.58 8.33
8/22/2021 12:30:00 PM 21.29 70.32201 0.134 7.66 8.61 8.59
8/22/2021 12:45:00 PM 21.31 70.358 0.134 7.66 8.54 8.63
8/22/2021 1:00:00 PM 21.34 70.412 0.134 7.68 8.54 8.58
8/22/2021 1:15:00 PM 21.36 70.448 0.134 7.67 8.51 8.63
8/22/2021 1:30:00 PM 21.37 70.466 0.134 7.67 8.38 8.6
8/22/2021 1:45:00 PM 21.38 70.484 0.134 7.67 8.58 8.31
8/22/2021 2:00:00 PM 21.37 70.466 0.134 7.64 8.55 8.36
8/22/2021 2:15:00 PM 21.39 70.502 0.134 7.65 8.45 8.47
8/22/2021 2:30:00 PM 21.4 70.52 0.135 7.66 8.45 8.64
8/22/2021 2:45:00 PM 21.41 70.538 0.135 7.64 8.43 8.56
8/22/2021 3:00:00 PM 21.42 70.556 0.135 7.64 8.31 8.59
8/22/2021 3:15:00 PM 21.44 70.592 0.135 7.66 8.32 8.56
8/22/2021 3:30:00 PM 21.45 70.61 0.135 7.64 8.46 8.43
8/22/2021 3:45:00 PM 21.44 70.592 0.135 7.61 8.64 8.51
8/22/2021 4:00:00 PM 21.47 70.646 0.135 7.64 8.65 8.44
8/22/2021 4:15:00 PM 21.49 70.682 0.135 7.64 8.58 8.2
8/22/2021 4:30:00 PM 21.49 70.682 0.135 7.63 8.39 8.54
8/22/2021 4:45:00 PM 21.5 70.7 0.135 7.63 8.31 8.48
8/22/2021 5:00:00 PM 21.5 70.7 0.135 7.63 8.5 8.56
8/22/2021 5:15:00 PM 21.52 70.736 0.135 7.65 8.45 8.43
8/22/2021 5:30:00 PM 21.53 70.754 0.135 7.65 8.48 8.33
8/22/2021 5:45:00 PM 21.53 70.754 0.135 7.65 8.3 8.15
8/22/2021 6:00:00 PM 21.52 70.736 0.135 7.65 8.29 8.37
8/22/2021 6:15:00 PM 21.5 70.7 0.135 7.62 8.17 8.2
8/22/2021 6:30:00 PM 21.48 70.664 0.135 7.6 8.73 8.31
8/22/2021 6:45:00 PM 21.46 70.628 0.135 7.59 8.34 8.35
8/22/2021 7:00:00 PM 21.44 70.592 0.135 7.57 8.6 8.08
8/22/2021 7:15:00 PM 21.43 70.574 0.135 7.56 8.84 8.21
8/22/2021 7:30:00 PM 21.42 70.556 0.135 7.56 8.43 8.15
8/22/2021 7:45:00 PM 21.39 70.502 0.135 7.53 8.46 8.26
8/22/2021 8:00:00 PM 21.37 70.466 0.135 7.53 9.76 7.79
8/22/2021 8:15:00 PM 21.35 70.43 0.135 7.53 9.77 8.12
8/22/2021 8:30:00 PM 21.33 70.394 0.135 7.51 8.7 8.21
8/22/2021 8:45:00 PM 21.3 70.34 0.135 7.5 8.6 7.99
8/22/2021 9:00:00 PM 21.29 70.32201 0.135 7.5 8.76 8.01
8/22/2021 9:15:00 PM 21.29 70.32201 0.135 7.51 8.64 8.1
8/22/2021 9:30:00 PM 21.29 70.32201 0.134 7.51 8.99 8.32
8/22/2021 9:45:00 PM 21.28 70.304 0.134 7.51 9.07 8.28
8/22/2021 10:00:00 PM 21.26 70.268 0.133 7.51 8.86 8.27
8/22/2021 10:15:00 PM 21.25 70.25 0.133 7.5 8.83 8.37
8/22/2021 10:30:00 PM 21.27 70.286 0.13 7.51 9.74 8.23
8/22/2021 10:45:00 PM 21.32 70.376 0.123 7.48 13.36 8.32
8/22/2021 11:00:00 PM 21.38 70.484 0.113 7.47 15.83 8.37
8/22/2021 11:15:00 PM 21.39 70.502 0.101 7.44 21.54 8.37
8/22/2021 11:30:00 PM 21.34 70.412 0.104 7.43 20.8 8.48
8/22/2021 11:45:00 PM 21.32 70.376 0.109 7.44 60.95 8.51
8/23/2021 12:00:00 AM 21.42 70.556 0.101 7.39 79.84 8.5
8/23/2021 12:15:00 AM 21.39 70.502 0.081 7.33 116.08 8.54
8/23/2021 12:30:00 AM 21.32 70.376 0.079 7.32 108.44 8.54
8/23/2021 12:45:00 AM 21.3 70.34 0.08 7.32 129.24 8.55
8/23/2021 1:00:00 AM 21.3 70.34 0.088 7.33 138.93 8.55
8/23/2021 1:15:00 AM 21.32 70.376 0.094 7.35 86.47 8.52
8/23/2021 1:30:00 AM 21.33 70.394 0.098 7.36 74.35 8.52
8/23/2021 1:45:00 AM 21.33 70.394 0.1 7.37 67.97 8.5
8/23/2021 2:00:00 AM 21.32 70.376 0.101 7.38 76.04 8.51
8/23/2021 2:15:00 AM 21.31 70.358 0.101 7.37 80.57 8.5
8/23/2021 2:30:00 AM 21.28 70.304 0.102 7.38 73.37 8.49
8/23/2021 2:45:00 AM 21.25 70.25 0.104 7.38 62.85 8.52
8/23/2021 3:00:00 AM 21.22 70.196 0.107 7.39 60.54 8.53
8/23/2021 3:15:00 AM 21.21 70.17799 0.11 7.4 48.14 8.54
8/23/2021 3:30:00 AM 21.19 70.142 0.112 7.4 47.33 8.52
8/23/2021 3:45:00 AM 21.19 70.142 0.114 7.41 46.23 8.52
8/23/2021 4:00:00 AM 21.18 70.124 0.117 7.42 39.3 8.53
8/23/2021 4:15:00 AM 21.18 70.124 0.12 7.44 49.98 8.53
8/23/2021 4:30:00 AM 21.18 70.124 0.123 7.45 29.18 8.54
8/23/2021 4:45:00 AM 21.18 70.124 0.125 7.46 32.96 8.54
8/23/2021 5:00:00 AM 21.2 70.16 0.127 7.46 26.08 8.53
8/23/2021 5:15:00 AM 21.23 70.214 0.128 7.47 25.88 8.53
8/23/2021 5:30:00 AM 21.26 70.268 0.128 7.47 25.02 8.53
8/23/2021 5:45:00 AM 21.29 70.32201 0.128 7.49 23.4 8.52
8/23/2021 6:00:00 AM 21.33 70.394 0.128 7.48 24.49 8.52
8/23/2021 6:15:00 AM 21.37 70.466 0.127 7.47 25.9 8.49
8/23/2021 6:30:00 AM 21.42 70.556 0.127 7.48 25.58 8.51
8/23/2021 6:45:00 AM 21.47 70.646 0.127 7.49 25.02 8.49
8/23/2021 7:00:00 AM 21.54 70.772 0.126 7.49 25.9 8.5
8/23/2021 7:15:00 AM 21.61 70.898 0.126 7.5 25.35 8.49
8/23/2021 7:30:00 AM 21.68 71.024 0.125 7.5 24.06 8.49
8/23/2021 7:45:00 AM 21.76 71.168 0.122 7.51 25.41 8.47
8/23/2021 8:00:00 AM 21.82 71.276 0.121 7.5 26.94 8.5
8/23/2021 8:15:00 AM 21.91 71.438 0.12 7.51 28.13 8.51
8/23/2021 8:30:00 AM 21.98 71.564 0.118 7.49 35.16 8.48
8/23/2021 8:45:00 AM 22 71.6 0.113 7.47 43.89 8.5
8/23/2021 9:00:00 AM 21.89 71.402 0.105 7.42 71.43 8.5
8/23/2021 9:15:00 AM 21.88 71.384 0.104 7.39 72.93 8.51
8/23/2021 9:30:00 AM 21.89 71.402 0.103 7.39 128.13 8.51
8/23/2021 9:45:00 AM 21.86 71.348 0.102 7.37 63.88 8.53
8/23/2021 10:00:00 AM 21.83 71.294 0.101 7.4 59.65 8.54
8/23/2021 10:15:00 AM 21.81 71.258 0.102 7.4 50.22 8.55
8/23/2021 10:30:00 AM 21.81 71.258 0.103 7.41 45.41 8.55
8/23/2021 10:45:00 AM 21.84 71.312 0.106 7.43 41.65 8.57
8/23/2021 11:00:00 AM 21.92 71.456 0.108 7.45 36.87 8.56
8/23/2021 11:15:00 AM 21.94 71.492 0.111 7.45 33.62 8.54
8/23/2021 11:30:00 AM 21.96 71.528 0.113 7.46 32.1 8.51
8/23/2021 11:45:00 AM 22.02 71.636 0.115 7.48 29.87 8.54
8/23/2021 12:00:00 PM 22.11 71.798 0.116 7.5 27.91 8.56
8/23/2021 12:15:00 PM 22.19 71.942 0.118 7.52 29.71 8.55
8/23/2021 12:30:00 PM 22.26 72.068 0.119 7.53 26.76 8.54
8/23/2021 12:45:00 PM 22.33 72.194 0.12 7.53 26.84 8.53
8/23/2021 1:00:00 PM 22.41 72.338 0.121 7.54 26.84 8.52
8/23/2021 1:15:00 PM 22.47 72.446 0.121 7.55 26.91 8.51
8/23/2021 1:30:00 PM 22.55 72.59 0.122 7.55 26.72 8.51
8/23/2021 1:45:00 PM 22.58 72.644 0.122 7.54 26.37 8.47
8/23/2021 2:00:00 PM 22.74 72.932 0.122 7.56 25.37 8.49
8/23/2021 2:15:00 PM 22.76 72.968 0.123 7.56 25.39 8.47
8/23/2021 2:30:00 PM 22.87 73.166 0.123 7.56 25.9 8.46
8/23/2021 2:45:00 PM 22.91 73.238 0.124 7.58 24.76 8.46
8/23/2021 3:00:00 PM 22.86 73.148 0.124 7.56 25.52 8.4
8/23/2021 3:15:00 PM 22.89 73.202 0.124 7.56 25.02 8.4
8/23/2021 3:30:00 PM 23.02 73.436 0.125 7.57 23.9 8.43
8/23/2021 3:45:00 PM 23 73.4 0.125 7.56 24.65 8.42
8/23/2021 4:00:00 PM 23.03 73.454 0.125 7.56 26.52 8.42
8/23/2021 4:15:00 PM 23.04 73.472 0.125 7.56 23.28 8.38
8/23/2021 4:30:00 PM 23.08 73.544 0.125 7.55 24.73 8.36
8/23/2021 4:45:00 PM 23.08 73.544 0.126 7.53 24.7 8.34
8/23/2021 5:00:00 PM 23.06 73.508 0.126 7.53 25.47 8.36
8/23/2021 5:15:00 PM 23.03 73.454 0.126 7.52 24.43 8.36
8/23/2021 5:30:00 PM 23.02 73.436 0.126 7.54 23.64 8.34
8/23/2021 5:45:00 PM 23.02 73.436 0.126 7.51 23.65 8.34
8/23/2021 6:00:00 PM 23.05 73.49 0.126 7.51 24.65 8.36
8/23/2021 6:15:00 PM 23.05 73.49 0.126 7.52 24.03 8.35
8/23/2021 6:30:00 PM 23.03 73.454 0.127 7.48 24.21 8.32
8/23/2021 6:45:00 PM 23.03 73.454 0.127 7.49 23.46 8.33
8/23/2021 7:00:00 PM 23.02 73.436 0.127 7.47 25.19 8.31
8/23/2021 7:15:00 PM 23.01 73.418 0.127 7.46 24.33 8.29
8/23/2021 7:30:00 PM 23 73.4 0.127 7.45 25.67 8.28
8/23/2021 7:45:00 PM 23 73.4 0.127 7.44 24.79 8.29
8/23/2021 8:00:00 PM 22.98 73.364 0.127 7.45 25.95 8.28
8/23/2021 8:15:00 PM 22.95 73.31 0.127 7.44 24.74 8.27
8/23/2021 8:30:00 PM 22.93 73.274 0.127 7.45 25.72 8.27
8/23/2021 8:45:00 PM 22.91 73.238 0.127 7.46 27.31 8.25
8/23/2021 9:00:00 PM 22.89 73.202 0.127 7.45 25.22 8.3
8/23/2021 9:15:00 PM 22.86 73.148 0.127 7.45 25.16 8.28
8/23/2021 9:30:00 PM 22.84 73.112 0.128 7.45 24.62 8.3
8/23/2021 9:45:00 PM 22.82 73.076 0.128 7.45 24.61 8.3
8/23/2021 10:00:00 PM 22.78 73.004 0.128 7.46 25.69 8.3
8/23/2021 10:15:00 PM 22.75 72.95 0.128 7.46 23.03 8.31
8/23/2021 10:30:00 PM 22.72 72.896 0.128 7.43 25.04 8.31
8/23/2021 10:45:00 PM 22.7 72.86 0.128 7.45 24.41 8.31
8/23/2021 11:00:00 PM 22.67 72.806 0.128 7.44 24.62 8.32
8/23/2021 11:15:00 PM 22.63 72.734 0.128 7.46 21.75 8.33
8/23/2021 11:30:00 PM 22.62 72.716 0.128 7.46 22.11 8.33
8/23/2021 11:45:00 PM 22.58 72.644 0.128 7.46 22.69 8.3
8/24/2021 12:00:00 AM 22.52 72.536 0.128 7.42 26.68 8.32
8/24/2021 12:15:00 AM 22.5 72.5 0.128 7.45 21.92 8.34
8/24/2021 12:30:00 AM 22.47 72.446 0.128 7.45 25.08 8.33
8/24/2021 12:45:00 AM 22.43 72.374 0.128 7.44 25.71 8.37
8/24/2021 1:00:00 AM 22.39 72.302 0.129 7.42 22.54 8.37
8/24/2021 1:15:00 AM 22.37 72.266 0.129 7.44 27.03 8.36
8/24/2021 1:30:00 AM 22.33 72.194 0.129 7.44 23.83 8.36
8/24/2021 1:45:00 AM 22.3 72.14 0.129 7.45 22.07 8.36
8/24/2021 2:00:00 AM 22.26 72.068 0.129 7.45 23.89 8.39
8/24/2021 2:15:00 AM 22.23 72.014 0.129 7.45 23.89 8.4
8/24/2021 2:30:00 AM 22.19 71.942 0.129 7.44 21.45 8.39
8/24/2021 2:45:00 AM 22.15 71.87 0.129 7.44 20.88 8.4
8/24/2021 3:00:00 AM 22.1 71.78 0.129 7.45 21.33 8.41
8/24/2021 3:15:00 AM 22.03 71.654 0.13 7.39 22.25 8.42
8/24/2021 3:30:00 AM 22.02 71.636 0.129 7.43 21.66 8.44
8/24/2021 3:45:00 AM 21.95 71.51 0.129 7.36 22.2 8.41
8/24/2021 4:00:00 AM 21.93 71.474 0.129 7.42 24.74 8.45
8/24/2021 4:15:00 AM 21.88 71.384 0.129 7.41 22.08 8.44
8/24/2021 4:30:00 AM 21.85 71.33 0.129 7.44 21.89 8.46
8/24/2021 4:45:00 AM 21.81 71.258 0.129 7.45 21.37 8.46
8/24/2021 5:00:00 AM 21.75 71.15 0.129 7.38 23.9 8.47
8/24/2021 5:15:00 AM 21.69 71.042 0.13 7.42 21.99 8.46
8/24/2021 5:30:00 AM 21.68 71.024 0.129 7.42 25.88 8.47
8/24/2021 5:45:00 AM 21.63 70.934 0.129 7.43 25.26 8.48
8/24/2021 6:00:00 AM 21.58 70.844 0.129 7.35 20.95 8.48
8/24/2021 6:15:00 AM 21.57 70.826 0.129 7.43 21.4 8.5
8/24/2021 6:30:00 AM 21.54 70.772 0.129 7.39 21.62 8.52
8/24/2021 6:45:00 AM 21.5 70.7 0.129 7.44 21.73 8.52
8/24/2021 7:00:00 AM 21.47 70.646 0.129 7.43 23.86 8.53
8/24/2021 7:15:00 AM 21.44 70.592 0.129 7.41 21.33 8.55
8/24/2021 7:30:00 AM 21.43 70.574 0.129 7.46 21.48 8.56
8/24/2021 7:45:00 AM 21.42 70.556 0.129 7.46 21.08 8.57
8/24/2021 8:00:00 AM 21.43 70.574 0.129 7.46 24.12 8.59
8/24/2021 8:15:00 AM 21.44 70.592 0.129 7.47 20.72 8.61
8/24/2021 8:30:00 AM 21.44 70.592 0.13 7.44 21.24 8.61
8/24/2021 8:45:00 AM 21.48 70.664 0.129 7.48 21.07 8.62
8/24/2021 9:00:00 AM 21.51 70.718 0.129 7.49 21.31 8.63
8/24/2021 9:15:00 AM 21.55 70.79 0.129 7.51 23.21 8.64
8/24/2021 9:30:00 AM 21.59 70.862 0.129 7.49 22.71 8.64
8/24/2021 9:45:00 AM 21.66 70.988 0.129 7.53 21.04 8.65
8/24/2021 10:00:00 AM 21.74 71.132 0.129 7.53 24.7 8.62
8/24/2021 10:15:00 AM 21.83 71.294 0.129 7.55 21.46 8.62
8/24/2021 10:30:00 AM 21.92 71.456 0.129 7.56 21.09 8.62
8/24/2021 10:45:00 AM 22 71.6 0.129 7.51 22.76 8.59
8/24/2021 11:00:00 AM 22.13 71.834 0.129 7.56 23.43 8.63
8/24/2021 11:15:00 AM 22.2 71.96 0.129 7.56 24.83 8.63
8/24/2021 11:30:00 AM 22.31 72.158 0.129 7.59 25.26 8.63
8/24/2021 11:45:00 AM 22.39 72.302 0.129 7.56 21.42 8.6
8/24/2021 12:00:00 PM 22.52 72.536 0.129 7.57 23.49 8.59
8/24/2021 12:15:00 PM 22.63 72.734 0.129 7.57 21.03 8.57
8/24/2021 12:30:00 PM 22.7 72.86 0.129 7.58 20.97 8.56
8/24/2021 12:45:00 PM 22.8 73.04 0.129 7.58 20.09 8.55
8/24/2021 1:00:00 PM 22.86 73.148 0.129 7.6 21.04 8.55
8/24/2021 1:15:00 PM 22.93 73.274 0.129 7.61 21.07 8.54
8/24/2021 1:30:00 PM 22.97 73.346 0.129 7.6 20.66 8.52
8/24/2021 1:45:00 PM 23 73.4 0.129 7.61 20.23 8.5
8/24/2021 2:00:00 PM 23.03 73.454 0.129 7.6 21.51 8.5
8/24/2021 2:15:00 PM 23.11 73.598 0.129 7.61 21.14 8.47
8/24/2021 2:30:00 PM 23.14 73.652 0.129 7.59 20.77 8.46
8/24/2021 2:45:00 PM 23.22 73.796 0.129 7.59 20.52 8.48
8/24/2021 3:00:00 PM 23.26 73.868 0.129 7.6 21.18 8.45
8/24/2021 3:15:00 PM 23.31 73.958 0.129 7.58 21.06 8.45
8/24/2021 3:30:00 PM 23.37 74.066 0.129 7.58 20.05 8.44
8/24/2021 3:45:00 PM 23.45 74.21 0.129 7.57 20.82 8.44
8/24/2021 4:00:00 PM 23.46 74.228 0.129 7.58 20.19 8.41
8/24/2021 4:15:00 PM 23.52 74.336 0.129 7.58 20.58 8.39
8/24/2021 4:30:00 PM 23.51 74.318 0.129 7.58 21 8.4
8/24/2021 4:45:00 PM 23.51 74.318 0.129 7.6 20.7 8.37
8/24/2021 5:00:00 PM 23.51 74.318 0.129 7.58 20.97 8.36
8/24/2021 5:15:00 PM 23.47 74.246 0.129 7.56 21.73 8.33
8/24/2021 5:30:00 PM 23.47 74.246 0.129 7.56 20.95 8.29
8/24/2021 5:45:00 PM 23.42 74.156 0.129 7.52 20.82 8.32
8/24/2021 6:00:00 PM 23.41 74.138 0.129 7.53 20.76 8.3
8/24/2021 6:15:00 PM 23.39 74.102 0.129 7.51 20.14 8.3
8/24/2021 6:30:00 PM 23.37 74.066 0.129 7.52 20.41 8.27
8/24/2021 6:45:00 PM 23.32 73.976 0.129 7.53 20.8 8.26
8/24/2021 7:00:00 PM 23.25 73.85 0.13 7.49 20.72 8.29
8/24/2021 7:15:00 PM 23.21 73.778 0.13 7.51 20.58 8.29
8/24/2021 7:30:00 PM 23.15 73.67 0.13 7.51 21.59 8.29
8/24/2021 7:45:00 PM 23.08 73.544 0.13 7.49 20.05 8.27
8/24/2021 8:00:00 PM 23.02 73.436 0.13 7.49 20.63 8.27
8/24/2021 8:15:00 PM 22.98 73.364 0.13 7.5 22.25 8.27
8/24/2021 8:30:00 PM 22.93 73.274 0.13 7.49 32.4 8.29
8/24/2021 8:45:00 PM 22.87 73.166 0.045 7.45 34.72 8.25
8/24/2021 9:00:00 PM 22.82 73.076 0.13 7.47 15.09 8.29
8/24/2021 9:15:00 PM 22.78 73.004 0.13 7.48 14.64 8.32
8/24/2021 9:30:00 PM 22.72 72.896 0.13 7.48 14.31 8.32
8/24/2021 9:45:00 PM 22.66 72.788 0.13 7.45 13.4 8.33
8/24/2021 10:00:00 PM 22.6 72.68 0.131 7.44 13.98 8.33
8/24/2021 10:15:00 PM 22.58 72.644 0.13 7.47 14.23 8.35
8/24/2021 10:30:00 PM 22.52 72.536 0.13 7.45 10.26 8.35
8/24/2021 10:45:00 PM 22.47 72.446 0.131 7.46 10.6 8.37
8/24/2021 11:00:00 PM 22.44 72.392 0.13 7.47 9.42 8.37
8/24/2021 11:15:00 PM 22.41 72.338 0.131 7.47 9.31 8.39
8/24/2021 11:30:00 PM 22.36 72.248 0.131 7.45 10.2 8.39
8/24/2021 11:45:00 PM 22.32 72.176 0.131 7.46 10.15 8.41
8/25/2021 12:00:00 AM 22.26 72.068 0.131 7.46 9.9 8.4
8/25/2021 12:15:00 AM 22.22 71.996 0.131 7.45 9.64 8.39
8/25/2021 12:30:00 AM 22.18 71.924 0.131 7.45 9.7 8.41
8/25/2021 12:45:00 AM 22.15 71.87 0.131 7.46 9.25 8.42
8/25/2021 1:00:00 AM 22.1 71.78 0.131 7.46 9.26 8.43
8/25/2021 1:15:00 AM 22.04 71.672 0.131 7.43 9.73 8.44
8/25/2021 1:30:00 AM 22.04 71.672 0.131 7.47 9.22 8.48
8/25/2021 1:45:00 AM 21.97 71.546 0.131 7.45 9.57 8.45
8/25/2021 2:00:00 AM 21.94 71.492 0.131 7.46 9.5 8.46
8/25/2021 2:15:00 AM 21.88 71.384 0.131 7.45 9.38 8.45
8/25/2021 2:30:00 AM 21.85 71.33 0.131 7.45 9.42 8.48
8/25/2021 2:45:00 AM 21.84 71.312 0.131 7.47 9.86 8.49
8/25/2021 3:00:00 AM 21.79 71.222 0.131 7.46 9.46 8.49
8/25/2021 3:15:00 AM 21.77 71.186 0.131 7.47 9.55 8.49
8/25/2021 3:30:00 AM 21.74 71.132 0.131 7.47 9.75 8.48
8/25/2021 3:45:00 AM 21.69 71.042 0.131 7.43 10.11 8.5
8/25/2021 4:00:00 AM 21.68 71.024 0.131 7.46 10.25 8.52
8/25/2021 4:15:00 AM 21.65 70.97 0.131 7.46 9.72 8.53
8/25/2021 4:30:00 AM 21.61 70.898 0.131 7.45 10.16 8.53
8/25/2021 4:45:00 AM 21.59 70.862 0.131 7.46 9.76 8.53
8/25/2021 5:00:00 AM 21.55 70.79 0.131 7.47 9.96 8.54
8/25/2021 5:15:00 AM 21.5 70.7 0.131 7.45 9.47 8.53
8/25/2021 5:30:00 AM 21.48 70.664 0.131 7.46 9.9 8.55
8/25/2021 5:45:00 AM 21.44 70.592 0.131 7.46 9.57 8.54
8/25/2021 6:00:00 AM 21.41 70.538 0.131 7.45 9.47 8.56
8/25/2021 6:15:00 AM 21.37 70.466 0.131 7.45 9.74 8.57
8/25/2021 6:30:00 AM 21.36 70.448 0.132 7.47 9.52 8.57
8/25/2021 6:45:00 AM 21.33 70.394 0.132 7.47 9.87 8.58
8/25/2021 7:00:00 AM 21.31 70.358 0.132 7.48 9.59 8.62
8/25/2021 7:15:00 AM 21.28 70.304 0.132 7.47 9.27 8.61
8/25/2021 7:30:00 AM 21.26 70.268 0.132 7.47 9.28 8.64
8/25/2021 7:45:00 AM 21.25 70.25 0.132 7.47 9.51 8.64
8/25/2021 8:00:00 AM 21.24 70.232 0.132 7.47 9.12 8.65
8/25/2021 8:15:00 AM 21.26 70.268 0.131 7.47 9.21 8.69
8/25/2021 8:30:00 AM 21.24 70.232 0.132 7.47 9.68 8.69
8/25/2021 8:45:00 AM 21.24 70.232 0.132 7.51 9.23 8.72
8/25/2021 9:00:00 AM 21.27 70.286 0.132 7.51 9.02 8.76
8/25/2021 9:15:00 AM 21.28 70.304 0.132 7.52 8.96 8.77
8/25/2021 9:30:00 AM 21.32 70.376 0.132 7.54 8.71 8.74
8/25/2021 9:45:00 AM 21.38 70.484 0.132 7.55 8.92 8.78
8/25/2021 10:00:00 AM 21.45 70.61 0.132 7.56 9 8.77
8/25/2021 10:15:00 AM 21.52 70.736 0.132 7.56 9 8.79
8/25/2021 10:30:00 AM 21.63 70.934 0.132 7.57 8.65 8.79
8/25/2021 10:45:00 AM 21.74 71.132 0.132 7.57 8.77 8.8
8/25/2021 11:00:00 AM 21.86 71.348 0.132 7.55 8.92 8.79
8/25/2021 11:15:00 AM 21.97 71.546 0.132 7.6 8.9 8.78
8/25/2021 11:30:00 AM 22.1 71.78 0.132 7.58 9.09 8.79
8/25/2021 11:45:00 AM 22.23 72.014 0.132 7.56 8.97 8.76
8/25/2021 12:00:00 PM 22.38 72.284 0.132 7.59 9.01 8.76
8/25/2021 12:15:00 PM 22.55 72.59 0.132 7.63 9.26 8.72
8/25/2021 12:30:00 PM 22.67 72.806 0.132 7.62 9.1 8.74
8/25/2021 12:45:00 PM 22.82 73.076 0.132 7.65 8.75 8.72
8/25/2021 1:00:00 PM 22.93 73.274 0.132 7.66 8.73 8.74
8/25/2021 1:15:00 PM 22.99 73.382 0.132 7.67 9.46 8.69
8/25/2021 1:30:00 PM 23.07 73.526 0.132 7.66 8.8 8.64
8/25/2021 1:45:00 PM 23.11 73.598 0.132 7.65 8.56 8.64
8/25/2021 2:00:00 PM 23.25 73.85 0.132 7.67 8.9 8.63
8/25/2021 2:15:00 PM 23.31 73.958 0.132 7.7 8.63 8.6
8/25/2021 2:30:00 PM 23.42 74.156 0.132 7.68 8.82 8.59
8/25/2021 2:45:00 PM 23.49 74.282 0.132 7.67 8.47 8.58
8/25/2021 3:00:00 PM 23.54 74.372 0.132 7.69 8.56 8.55
8/25/2021 3:15:00 PM 23.63 74.534 0.132 7.64 8.47 8.54
8/25/2021 3:30:00 PM 23.68 74.624 0.132 7.66 9.07 8.48
8/25/2021 3:45:00 PM 23.74 74.732 0.132 7.65 8.67 8.5
8/25/2021 4:00:00 PM 23.81 74.858 0.132 7.64 8.44 8.45
8/25/2021 4:15:00 PM 23.85 74.93 0.132 7.67 8.74 8.49
8/25/2021 4:30:00 PM 23.92 75.056 0.132 7.66 8.38 8.42
8/25/2021 4:45:00 PM 23.89 75.002 0.132 7.63 8.47 8.42
8/25/2021 5:00:00 PM 23.92 75.056 0.132 7.65 8.67 8.41
8/25/2021 5:15:00 PM 23.88 74.984 0.132 7.59 8.53 8.38
8/25/2021 5:30:00 PM 23.88 74.984 0.132 7.56 8.8 8.39
8/25/2021 5:45:00 PM 23.84 74.912 0.132 7.61 8.42 8.33
8/25/2021 6:00:00 PM 23.81 74.858 0.133 7.57 8.51 8.28
8/25/2021 6:15:00 PM 23.77 74.786 0.133 7.58 8.45 8.28
8/25/2021 6:30:00 PM 23.73 74.714 0.133 7.56 8.65 8.25
8/25/2021 6:45:00 PM 23.69 74.642 0.133 7.5 8.49 8.25
8/25/2021 7:00:00 PM 23.63 74.534 0.133 7.54 8.39 8.24
8/25/2021 7:15:00 PM 23.56 74.408 0.133 7.52 8.46 8.22
8/25/2021 7:30:00 PM 23.49 74.282 0.133 7.48 8.62 8.19
8/25/2021 7:45:00 PM 23.41 74.138 0.133 7.48 9.06 8.2
8/25/2021 8:00:00 PM 23.32 73.976 0.133 7.45 8.61 8.19
8/25/2021 8:15:00 PM 23.27 73.886 0.133 7.48 9.16 8.17
8/25/2021 8:30:00 PM 23.21 73.778 0.133 7.45 9.78 8.22
8/25/2021 8:45:00 PM 23.16 73.688 0.133 7.49 8.94 8.2
8/25/2021 9:00:00 PM 23.09 73.562 0.133 7.47 8.96 8.23
8/25/2021 9:15:00 PM 23.02 73.436 0.133 7.45 9.73 8.21
8/25/2021 9:30:00 PM 22.98 73.364 0.133 7.45 9.32 8.23
8/25/2021 9:45:00 PM 22.94 73.292 0.133 7.45 9.22 8.28
8/25/2021 10:00:00 PM 22.88 73.184 0.134 7.46 8.87 8.27
8/25/2021 10:15:00 PM 22.83 73.094 0.134 7.46 8.86 8.27
8/25/2021 10:30:00 PM 22.75 72.95 0.134 7.41 8.69 8.28
8/25/2021 10:45:00 PM 22.71 72.878 0.134 7.45 8.52 8.28
8/25/2021 11:00:00 PM 22.66 72.788 0.134 7.44 8.5 8.3
8/25/2021 11:15:00 PM 22.59 72.662 0.134 7.4 8.61 8.29
8/25/2021 11:30:00 PM 22.57 72.626 0.134 7.47 8.76 8.32
8/25/2021 11:45:00 PM 22.51 72.518 0.134 7.42 14.57 8.29
8/26/2021 12:00:00 AM 22.48 72.464 0.134 7.42 1672 8.3
8/26/2021 12:15:00 AM 22.44 72.392 0.133 7.45 163.45 8.3
8/26/2021 12:30:00 AM 22.39 72.302 0.133 7.46 41.41 8.36
8/26/2021 12:45:00 AM 22.36 72.248 0.133 7.48 36.92 8.35
8/26/2021 1:00:00 AM 22.31 72.158 0.132 7.47 48.8 8.34
8/26/2021 1:15:00 AM 22.26 72.068 0.133 7.45 19.26 8.34
8/26/2021 1:30:00 AM 22.22 71.996 0.133 7.47 20.71 8.37
8/26/2021 1:45:00 AM 22.18 71.924 0.133 7.46 17.99 8.37
8/26/2021 2:00:00 AM 22.16 71.888 0.133 7.47 14.84 8.36
8/26/2021 2:15:00 AM 22.14 71.852 0.133 7.46 14.22 8.39
8/26/2021 2:30:00 AM 22.11 71.798 0.133 7.46 14.44 8.39
8/26/2021 2:45:00 AM 22.1 71.78 0.133 7.47 17.08 8.39
8/26/2021 3:00:00 AM 22.07 71.726 0.133 7.47 14.83 8.41
8/26/2021 3:15:00 AM 22.05 71.69 0.133 7.47 15.04 8.38
8/26/2021 3:30:00 AM 22.02 71.636 0.133 7.46 13.48 8.36
8/26/2021 3:45:00 AM 22.01 71.618 0.133 7.48 13.96 8.41
8/26/2021 4:00:00 AM 21.99 71.582 0.133 7.48 13.61 8.43
8/26/2021 4:15:00 AM 21.99 71.582 0.133 7.49 12.84 8.45
8/26/2021 4:30:00 AM 21.98 71.564 0.133 7.49 14.23 8.41
8/26/2021 4:45:00 AM 21.93 71.474 0.134 7.46 13.93 8.41
8/26/2021 5:00:00 AM 21.91 71.438 0.134 7.44 13.8 8.36
8/26/2021 5:15:00 AM 21.93 71.474 0.133 7.48 13.91 8.4
8/26/2021 5:30:00 AM 21.9 71.42 0.134 7.47 14.28 8.46
8/26/2021 5:45:00 AM 21.9 71.42 0.134 7.49 13.21 8.45
8/26/2021 6:00:00 AM 21.89 71.402 0.134 7.49 13.83 8.44
8/26/2021 6:15:00 AM 21.89 71.402 0.134 7.51 14.08 8.46
8/26/2021 6:30:00 AM 21.85 71.33 0.134 7.48 12.48 8.44
8/26/2021 6:45:00 AM 21.85 71.33 0.134 7.49 12.82 8.45
8/26/2021 7:00:00 AM 21.83 71.294 0.134 7.5 16.11 8.46
8/26/2021 7:15:00 AM 21.78 71.204 0.134 7.46 12.81 8.44
8/26/2021 7:30:00 AM 21.8 71.24 0.134 7.5 13.17 8.53
8/26/2021 7:45:00 AM 21.78 71.204 0.134 7.5 12.51 8.54
8/26/2021 8:00:00 AM 21.79 71.222 0.134 7.53 12.65 8.54
8/26/2021 8:15:00 AM 21.74 71.132 0.134 7.49 12.28 8.51
8/26/2021 8:30:00 AM 21.75 71.15 0.134 7.5 12.05 8.55
8/26/2021 8:45:00 AM 21.74 71.132 0.134 7.49 12.02 8.63
8/26/2021 9:00:00 AM 21.77 71.186 0.134 7.53 12.4 8.64
8/26/2021 9:15:00 AM 21.8 71.24 0.134 7.54 12.37 8.67
8/26/2021 9:30:00 AM 21.84 71.312 0.134 7.58 12.22 8.69
8/26/2021 9:45:00 AM 21.87 71.366 0.134 7.56 11.91 8.74
8/26/2021 10:00:00 AM 21.96 71.528 0.134 7.59 12.26 8.71
8/26/2021 10:15:00 AM 22.01 71.618 0.134 7.58 11.75 8.72
8/26/2021 10:30:00 AM 22.1 71.78 0.134 7.56 11.72 8.7
8/26/2021 10:45:00 AM 22.24 72.032 0.133 7.63 11.81 8.72
8/26/2021 11:00:00 AM 22.32 72.176 0.134 7.56 11.9 8.72
8/26/2021 11:15:00 AM 22.54 72.57201 0.133 7.67 11.92 8.7
8/26/2021 11:30:00 AM 22.64 72.752 0.134 7.65 11.9 8.71
8/26/2021 11:45:00 AM 22.77 72.986 0.134 7.64 11.64 8.71
8/26/2021 12:00:00 PM 22.9 73.22 0.134 7.66 11.76 8.68
8/26/2021 12:15:00 PM 23.03 73.454 0.134 7.68 11.55 8.65
8/26/2021 12:30:00 PM 23.14 73.652 0.134 7.68 11.39 8.66
8/26/2021 12:45:00 PM 23.24 73.832 0.134 7.69 11.55 8.64
8/26/2021 1:00:00 PM 23.37 74.066 0.134 7.73 11.48 8.63
8/26/2021 1:15:00 PM 23.42 74.156 0.134 7.7 11.72 8.58
8/26/2021 1:30:00 PM 23.5 74.3 0.134 7.7 11.72 8.61
8/26/2021 1:45:00 PM 23.55 74.39 0.134 7.71 11.6 8.59
8/26/2021 2:00:00 PM 23.64 74.552 0.134 7.74 12.29 8.56
8/26/2021 2:15:00 PM 23.68 74.624 0.134 7.72 12.25 8.56
8/26/2021 2:30:00 PM 23.74 74.732 0.134 7.73 11.47 8.59
8/26/2021 2:45:00 PM 23.71 74.67799 0.134 7.74 11.55 8.52
8/26/2021 3:00:00 PM 23.7 74.66 0.134 7.72 11.34 8.53
8/26/2021 3:15:00 PM 23.79 74.82201 0.134 7.75 11.23 8.52
8/26/2021 3:30:00 PM 23.77 74.786 0.134 7.7 11.41 8.45
8/26/2021 3:45:00 PM 23.79 74.82201 0.134 7.69 11.33 8.46
8/26/2021 4:00:00 PM 23.73 74.714 0.134 7.64 11.24 8.34
8/26/2021 4:15:00 PM 23.65 74.57 0.134 7.58 11.48 8.26
8/26/2021 4:30:00 PM 23.57 74.426 0.134 7.61 11.52 8.28
8/26/2021 4:45:00 PM 23.5 74.3 0.135 7.61 11.37 8.25
8/26/2021 5:00:00 PM 23.45 74.21 0.135 7.6 11.32 8.28
8/26/2021 5:15:00 PM 23.41 74.138 0.134 7.62 11.45 8.33
8/26/2021 5:30:00 PM 23.34 74.012 0.135 7.63 11.16 8.34
8/26/2021 5:45:00 PM 23.26 73.868 0.135 7.64 11.54 8.34
8/26/2021 6:00:00 PM 23.19 73.742 0.135 7.65 11.14 8.37
8/26/2021 6:15:00 PM 23.13 73.634 0.135 7.66 11.24 8.4
8/26/2021 6:30:00 PM 23.04 73.472 0.135 7.62 11.4 8.36
8/26/2021 6:45:00 PM 22.98 73.364 0.135 7.63 11.05 8.35
8/26/2021 7:00:00 PM 22.91 73.238 0.135 7.63 11.11 8.38
8/26/2021 7:15:00 PM 22.84 73.112 0.135 7.61 11.11 8.38
8/26/2021 7:30:00 PM 22.77 72.986 0.135 7.59 11.07 8.35
8/26/2021 7:45:00 PM 22.73 72.914 0.135 7.59 11.05 8.34
8/26/2021 8:00:00 PM 22.69 72.842 0.135 7.59 11.37 8.33
8/26/2021 8:15:00 PM 22.63 72.734 0.135 7.58 11.37 8.27
8/26/2021 8:30:00 PM 22.57 72.626 0.135 7.56 11.98 8.28
8/26/2021 8:45:00 PM 22.51 72.518 0.135 7.56 11.86 8.31
8/26/2021 9:00:00 PM 22.45 72.41 0.135 7.55 12.28 8.34
8/26/2021 9:15:00 PM 22.39 72.302 0.135 7.55 12.02 8.36
8/26/2021 9:30:00 PM 22.34 72.212 0.135 7.54 11.43 8.35
8/26/2021 9:45:00 PM 22.28 72.104 0.135 7.53 12.14 8.35
8/26/2021 10:00:00 PM 22.23 72.014 0.135 7.52 12.02 8.32
8/26/2021 10:15:00 PM 22.19 71.942 0.135 7.53 11.6 8.36
8/26/2021 10:30:00 PM 22.16 71.888 0.136 7.55 11.92 8.38
8/26/2021 10:45:00 PM 22.11 71.798 0.136 7.54 11.32 8.4
8/26/2021 11:00:00 PM 22.06 71.708 0.137 7.54 11.51 8.42
8/26/2021 11:15:00 PM 22.02 71.636 0.137 7.55 11.93 8.42
8/26/2021 11:30:00 PM 21.96 71.528 0.137 7.53 12.01 8.41
8/26/2021 11:45:00 PM 21.92 71.456 0.138 7.53 11.23 8.41
8/27/2021 12:00:00 AM 21.86 71.348 0.138 7.51 11.29 8.42
8/27/2021 12:15:00 AM 21.84 71.312 0.138 7.53 11.75 8.41
8/27/2021 12:30:00 AM 21.79 71.222 0.138 7.52 11.27 8.39
8/27/2021 12:45:00 AM 21.77 71.186 0.138 7.53 11.48 8.44
8/27/2021 1:00:00 AM 21.73 71.114 0.138 7.54 11.22 8.47
8/27/2021 1:15:00 AM 21.65 70.97 0.138 7.49 12.45 8.41
8/27/2021 1:30:00 AM 21.64 70.952 0.138 7.52 11.54 8.46
8/27/2021 1:45:00 AM 21.6 70.88 0.138 7.51 11.69 8.46
8/27/2021 2:00:00 AM 21.56 70.808 0.138 7.53 11.3 8.48
8/27/2021 2:15:00 AM 21.51 70.718 0.138 7.52 11.44 8.51
8/27/2021 2:30:00 AM 21.49 70.682 0.138 7.54 11.67 8.47
8/27/2021 2:45:00 AM 21.43 70.574 0.139 7.52 11.43 8.51
8/27/2021 3:00:00 AM 21.39 70.502 0.139 7.52 11.83 8.5
8/27/2021 3:15:00 AM 21.37 70.466 0.139 7.53 11.45 8.52
8/27/2021 3:30:00 AM 21.32 70.376 0.139 7.52 11.32 8.49
8/27/2021 3:45:00 AM 21.29 70.32201 0.139 7.51 11.44 8.53
8/27/2021 4:00:00 AM 21.26 70.268 0.139 7.51 11.51 8.56
8/27/2021 4:15:00 AM 21.23 70.214 0.139 7.51 11.51 8.55
8/27/2021 4:30:00 AM 21.22 70.196 0.139 7.53 11.64 8.57
8/27/2021 4:45:00 AM 21.18 70.124 0.139 7.53 12.85 8.55
8/27/2021 5:00:00 AM 21.13 70.034 0.139 7.5 11.63 8.57
8/27/2021 5:15:00 AM 21.1 69.98 0.139 7.5 11.52 8.53
8/27/2021 5:30:00 AM 21.07 69.926 0.139 7.51 11.32 8.56
8/27/2021 5:45:00 AM 21.05 69.89 0.139 7.51 11.52 8.58
8/27/2021 6:00:00 AM 21.05 69.89 0.139 7.52 11.89 8.59
8/27/2021 6:15:00 AM 21.01 69.818 0.139 7.49 11.78 8.58
8/27/2021 6:30:00 AM 21 69.8 0.139 7.51 11.48 8.57
8/27/2021 6:45:00 AM 20.98 69.764 0.139 7.49 11.38 8.59
8/27/2021 7:00:00 AM 20.95 69.71 0.139 7.49 11.47 8.61
8/27/2021 7:15:00 AM 20.94 69.692 0.139 7.49 11.31 8.58
8/27/2021 7:30:00 AM 20.94 69.692 0.139 7.51 11.33 8.61
8/27/2021 7:45:00 AM 20.95 69.71 0.139 7.54 11.39 8.66
8/27/2021 8:00:00 AM 20.94 69.692 0.139 7.51 12.68 8.67
8/27/2021 8:15:00 AM 20.96 69.728 0.139 7.56 11.76 8.7
8/27/2021 8:30:00 AM 20.96 69.728 0.139 7.57 11.56 8.71
8/27/2021 8:45:00 AM 20.99 69.782 0.139 7.57 11.23 8.78
8/27/2021 9:00:00 AM 21.03 69.854 0.139 7.58 11.47 8.8
8/27/2021 9:15:00 AM 21.05 69.89 0.139 7.6 11.21 8.82
8/27/2021 9:30:00 AM 21.07 69.926 0.139 7.6 11.2 8.8
8/27/2021 9:45:00 AM 21.1 69.98 0.139 7.62 11.49 8.84
8/27/2021 10:00:00 AM 21.13 70.034 0.139 7.62 11.13 8.85
8/27/2021 10:15:00 AM 21.16 70.088 0.139 7.63 11.23 8.84
8/27/2021 10:30:00 AM 21.18 70.124 0.139 7.61 11.45 8.87
8/27/2021 10:45:00 AM 21.23 70.214 0.139 7.64 11.26 8.83
8/27/2021 11:00:00 AM 21.26 70.268 0.139 7.62 11.44 8.82
8/27/2021 11:15:00 AM 21.3 70.34 0.139 7.65 11.37 8.85
8/27/2021 11:30:00 AM 21.32 70.376 0.139 7.63 10.93 8.83
8/27/2021 11:45:00 AM 21.36 70.448 0.139 7.65 11.08 8.84
8/27/2021 12:00:00 PM 21.39 70.502 0.139 7.65 11.13 8.81
8/27/2021 12:15:00 PM 21.43 70.574 0.139 7.64 11.39 8.84
8/27/2021 12:30:00 PM 21.49 70.682 0.139 7.67 11.11 8.87
8/27/2021 12:45:00 PM 21.55 70.79 0.139 7.68 11.26 8.89
8/27/2021 1:00:00 PM 21.64 70.952 0.139 7.66 11.13 8.9
8/27/2021 1:15:00 PM 21.73 71.114 0.139 7.67 10.99 8.92
8/27/2021 1:30:00 PM 21.82 71.276 0.139 7.72 10.73 8.93
8/27/2021 1:45:00 PM 21.97 71.546 0.139 7.72 10.85 8.9
8/27/2021 2:00:00 PM 22.05 71.69 0.139 7.78 10.8 8.88
8/27/2021 2:15:00 PM 22.12 71.816 0.139 7.79 10.91 8.9
8/27/2021 2:30:00 PM 22.19 71.942 0.139 7.8 10.71 8.9
8/27/2021 2:45:00 PM 22.28 72.104 0.139 7.82 10.81 8.89
8/27/2021 3:00:00 PM 22.35 72.23 0.139 7.81 10.91 8.84
8/27/2021 3:15:00 PM 22.38 72.284 0.139 7.82 10.78 8.75
8/27/2021 3:30:00 PM 22.41 72.338 0.139 7.8 10.74 8.8
8/27/2021 3:45:00 PM 22.45 72.41 0.139 7.75 10.82 8.75
8/27/2021 4:00:00 PM 22.52 72.536 0.139 7.73 10.66 8.72
8/27/2021 4:15:00 PM 22.57 72.626 0.139 7.76 10.7 8.67
8/27/2021 4:30:00 PM 22.61 72.698 0.139 7.75 10.53 8.64
8/27/2021 4:45:00 PM 22.64 72.752 0.139 7.74 10.61 8.57
8/27/2021 5:00:00 PM 22.65 72.77 0.14 7.67 10.53 8.59
8/27/2021 5:15:00 PM 22.65 72.77 0.14 7.62 10.74 8.52
8/27/2021 5:30:00 PM 22.65 72.77 0.14 7.69 10.7 8.53
8/27/2021 5:45:00 PM 22.65 72.77 0.14 7.67 10.59 8.48
8/27/2021 6:00:00 PM 22.64 72.752 0.14 7.64 10.49 8.42
8/27/2021 6:15:00 PM 22.66 72.788 0.14 7.63 10.45 8.42
8/27/2021 6:30:00 PM 22.66 72.788 0.14 7.61 10.59 8.4
8/27/2021 6:45:00 PM 22.66 72.788 0.14 7.59 11.29 8.39
8/27/2021 7:00:00 PM 22.65 72.77 0.14 7.6 10.61 8.29
8/27/2021 7:15:00 PM 22.61 72.698 0.14 7.6 10.51 8.36
8/27/2021 7:30:00 PM 22.57 72.626 0.14 7.6 10.91 8.22
8/27/2021 7:45:00 PM 22.53 72.554 0.141 7.56 10.83 8.32
8/27/2021 8:00:00 PM 22.47 72.446 0.141 7.56 21.77 8.3
8/27/2021 8:15:00 PM 22.41 72.338 0.14 7.6 15.32 8.35
8/27/2021 8:30:00 PM 22.38 72.284 0.135 7.6 14.12 8.39
8/27/2021 8:45:00 PM 22.34 72.212 0.126 7.54 17.78 8.37
8/27/2021 9:00:00 PM 22.22 71.996 0.127 7.56 20.23 8.37
8/27/2021 9:15:00 PM 22.21 71.978 0.113 7.51 44.59 8.45
8/27/2021 9:30:00 PM 22.09 71.762 0.088 7.4 75.7 8.5
8/27/2021 9:45:00 PM 21.94 71.492 0.073 7.31 122.75 8.54
8/27/2021 10:00:00 PM 21.89 71.402 0.071 7.25 209.31 8.51
8/27/2021 10:15:00 PM 21.85 71.33 0.073 7.27 235.09 8.53
8/27/2021 10:30:00 PM 21.81 71.258 0.077 7.29 115.14 8.54
8/27/2021 10:45:00 PM 21.76 71.168 0.08 7.3 99.57 8.54
8/27/2021 11:00:00 PM 21.72 71.096 0.089 7.31 69.23 8.55
8/27/2021 11:15:00 PM 21.69 71.042 0.094 7.33 54.52 8.54
8/27/2021 11:30:00 PM 21.67 71.006 0.097 7.35 41.42 8.53
8/27/2021 11:45:00 PM 21.65 70.97 0.1 7.35 36.1 8.55
8/28/2021 12:00:00 AM 21.63 70.934 0.103 7.37 40.16 8.55
8/28/2021 12:15:00 AM 21.6 70.88 0.105 7.37 34.99 8.56
8/28/2021 12:30:00 AM 21.58 70.844 0.108 7.38 32.91 8.52
8/28/2021 12:45:00 AM 21.56 70.808 0.11 7.4 31.26 8.56
8/28/2021 1:00:00 AM 21.53 70.754 0.113 7.39 31.55 8.53
8/28/2021 1:15:00 AM 21.51 70.718 0.115 7.41 28.34 8.54
8/28/2021 1:30:00 AM 21.5 70.7 0.117 7.41 26.96 8.55
8/28/2021 1:45:00 AM 21.48 70.664 0.119 7.42 26.35 8.53
8/28/2021 2:00:00 AM 21.47 70.646 0.121 7.42 24.16 8.56
8/28/2021 2:15:00 AM 21.46 70.628 0.123 7.43 23.34 8.55
8/28/2021 2:30:00 AM 21.46 70.628 0.124 7.44 22.39 8.58
8/28/2021 2:45:00 AM 21.47 70.646 0.125 7.44 22.04 8.57
8/28/2021 3:00:00 AM 21.49 70.682 0.126 7.44 21.65 8.58
8/28/2021 3:15:00 AM 21.52 70.736 0.127 7.39 21.84 8.56
8/28/2021 3:30:00 AM 21.59 70.862 0.127 7.45 20.98 8.56
8/28/2021 3:45:00 AM 21.64 70.952 0.127 7.45 21.13 8.55
8/28/2021 4:00:00 AM 21.72 71.096 0.126 7.46 21.21 8.56
8/28/2021 4:15:00 AM 21.81 71.258 0.126 7.47 51.9 8.54
8/28/2021 4:30:00 AM 21.88 71.384 0.126 7.41 21.28 8.5
8/28/2021 4:45:00 AM 22 71.6 0.125 7.46 22.16 8.52
8/28/2021 5:00:00 AM 22.1 71.78 0.124 7.43 23.37 8.5
8/28/2021 5:15:00 AM 22.23 72.014 0.124 7.48 22.34 8.49
8/28/2021 5:30:00 AM 22.36 72.248 0.123 7.5 23.6 8.48
8/28/2021 5:45:00 AM 22.47 72.446 0.122 7.49 27.32 8.46
8/28/2021 6:00:00 AM 22.59 72.662 0.122 7.5 48.24 8.45
8/28/2021 6:15:00 AM 22.7 72.86 0.121 7.51 29.51 8.44
8/28/2021 6:30:00 AM 22.81 73.058 0.121 7.51 30.02 8.43
8/28/2021 6:45:00 AM 22.92 73.256 0.12 7.51 30.59 8.43
8/28/2021 7:00:00 AM 23.02 73.436 0.12 7.5 42.03 8.39
8/28/2021 7:15:00 AM 23.13 73.634 0.119 7.5 31.7 8.38
8/28/2021 7:30:00 AM 23.23 73.814 0.119 7.47 33.17 8.36
8/28/2021 7:45:00 AM 23.34 74.012 0.118 7.48 36.38 8.36
8/28/2021 8:00:00 AM 23.41 74.138 0.118 7.45 34.63 8.35
8/28/2021 8:15:00 AM 23.51 74.318 0.118 7.48 37.31 8.34
8/28/2021 8:30:00 AM 23.57 74.426 0.117 7.45 37.32 8.33
8/28/2021 8:45:00 AM 23.64 74.552 0.117 7.47 39.09 8.32
8/28/2021 9:00:00 AM 23.7 74.66 0.117 7.46 41.88 8.32
8/28/2021 9:15:00 AM 23.76 74.768 0.117 7.49 43.73 8.32
8/28/2021 9:30:00 AM 23.78 74.804 0.117 7.47 44.54 8.3
8/28/2021 9:45:00 AM 23.84 74.912 0.117 7.5 42.73 8.33
8/28/2021 10:00:00 AM 23.88 74.984 0.116 7.52 44.45 8.31
8/28/2021 10:15:00 AM 23.94 75.092 0.116 7.53 50.68 8.32
8/28/2021 10:30:00 AM 23.99 75.182 0.115 7.54 51.27 8.32
8/28/2021 10:45:00 AM 24.03 75.254 0.115 7.52 49.41 8.31
8/28/2021 11:00:00 AM 24.06 75.308 0.114 7.5 45.18 8.31
8/28/2021 11:15:00 AM 24.1 75.38 0.114 7.5 48.71 8.31
8/28/2021 11:30:00 AM 24.13 75.434 0.114 7.52 45.02 8.32
8/28/2021 11:45:00 AM 24.14 75.452 0.113 7.49 45.22 8.29
8/28/2021 12:00:00 PM 24.17 75.506 0.113 7.51 48.66 8.31
8/28/2021 12:15:00 PM 24.18 75.524 0.113 7.52 46.04 8.32
8/28/2021 12:30:00 PM 24.18 75.524 0.113 7.53 44.33 8.32
8/28/2021 12:45:00 PM 24.2 75.56 0.113 7.54 36.66 8.33
8/28/2021 1:00:00 PM 24.21 75.578 0.113 7.55 45.82 8.33
8/28/2021 1:15:00 PM 24.21 75.578 0.113 7.53 43.39 8.31
8/28/2021 1:30:00 PM 24.23 75.614 0.112 7.54 41.87 8.31
8/28/2021 1:45:00 PM 24.25 75.65 0.112 7.54 44.54 8.32
8/28/2021 2:00:00 PM 24.28 75.704 0.112 7.54 39.73 8.31
8/28/2021 2:15:00 PM 24.31 75.758 0.112 7.55 44.35 8.31
8/28/2021 2:30:00 PM 24.33 75.794 0.113 7.55 42.34 8.31
8/28/2021 2:45:00 PM 24.35 75.83 0.113 7.55 44.15 8.32
8/28/2021 3:00:00 PM 24.37 75.866 0.113 7.55 37.28 8.31
8/28/2021 3:15:00 PM 24.39 75.902 0.113 7.55 37.95 8.29
8/28/2021 3:30:00 PM 24.4 75.92 0.113 7.55 41.5 8.29
8/28/2021 3:45:00 PM 24.41 75.938 0.113 7.54 261.22 8.28
8/28/2021 4:00:00 PM 24.42 75.956 0.113 7.54 35.75 8.28
8/28/2021 4:15:00 PM 24.42 75.956 0.113 7.54 42.77 8.28
8/28/2021 4:30:00 PM 24.42 75.956 0.113 7.55 35.02 8.28
8/28/2021 4:45:00 PM 24.42 75.956 0.113 7.54 102.45 8.29
8/28/2021 5:00:00 PM 24.41 75.938 0.113 7.55 38.36 8.29
8/28/2021 5:15:00 PM 24.4 75.92 0.113 7.54 34.62 8.28
8/28/2021 5:30:00 PM 24.39 75.902 0.113 7.54 42.32 8.28
8/28/2021 5:45:00 PM 24.38 75.884 0.112 7.53 37.12 8.28
8/28/2021 6:00:00 PM 24.38 75.884 0.112 7.53 35.21 8.27
8/28/2021 6:15:00 PM 24.37 75.866 0.112 7.52 40.61 8.27
8/28/2021 6:30:00 PM 24.37 75.866 0.112 7.52 37.33 8.27
8/28/2021 6:45:00 PM 24.36 75.848 0.112 7.52 37.22 8.27
8/28/2021 7:00:00 PM 24.35 75.83 0.112 7.51 29.06 8.27
8/28/2021 7:15:00 PM 24.34 75.812 0.112 7.51 44.01 8.27
8/28/2021 7:30:00 PM 24.33 75.794 0.112 7.52 34.83 8.26
8/28/2021 7:45:00 PM 24.32 75.776 0.112 7.51 34.3 8.27
8/28/2021 8:00:00 PM 24.31 75.758 0.112 7.51 30.06 8.27
8/28/2021 8:15:00 PM 24.3 75.74 0.112 7.51 29.12 8.27
8/28/2021 8:30:00 PM 24.29 75.722 0.111 7.51 28.11 8.28
8/28/2021 8:45:00 PM 24.28 75.704 0.111 7.51 29.57 8.28
8/28/2021 9:00:00 PM 24.27 75.686 0.111 7.51 25.61 8.28
8/28/2021 9:15:00 PM 24.26 75.668 0.111 7.51 26.02 8.28
8/28/2021 9:30:00 PM 24.25 75.65 0.111 7.51 27.8 8.28
8/28/2021 9:45:00 PM 24.24 75.632 0.111 7.51 24.92 8.29
8/28/2021 10:00:00 PM 24.23 75.614 0.111 7.52 25.68 8.29
8/28/2021 10:15:00 PM 24.21 75.578 0.111 7.51 23.99 8.28
8/28/2021 10:30:00 PM 24.2 75.56 0.111 7.51 25.44 8.3
8/28/2021 10:45:00 PM 24.19 75.542 0.11 7.51 26.03 8.3
8/28/2021 11:00:00 PM 24.17 75.506 0.111 7.51 23.84 8.3
8/28/2021 11:15:00 PM 24.16 75.488 0.111 7.51 23.85 8.3
8/28/2021 11:30:00 PM 24.14 75.452 0.111 7.5 25.79 8.3
8/28/2021 11:45:00 PM 24.12 75.416 0.111 7.51 22.57 8.3
8/29/2021 12:00:00 AM 24.11 75.398 0.111 7.51 25.41 8.31
8/29/2021 12:15:00 AM 24.09 75.362 0.111 7.51 20.33 8.31
8/29/2021 12:30:00 AM 24.08 75.344 0.111 7.51 20.16 8.31
8/29/2021 12:45:00 AM 24.07 75.326 0.111 7.51 20.15 8.32
8/29/2021 1:00:00 AM 24.04 75.272 0.111 7.5 23.09 8.31
8/29/2021 1:15:00 AM 24.02 75.236 0.111 7.49 19.87 8.31
8/29/2021 1:30:00 AM 24 75.2 0.111 7.5 19.92 8.31
8/29/2021 1:45:00 AM 23.99 75.182 0.111 7.51 20.69 8.32
8/29/2021 2:00:00 AM 23.96 75.128 0.111 7.51 19.91 8.32
8/29/2021 2:15:00 AM 23.94 75.092 0.111 7.5 19.36 8.32
8/29/2021 2:30:00 AM 23.92 75.056 0.111 7.51 19.35 8.33
8/29/2021 2:45:00 AM 23.9 75.02 0.111 7.5 17.77 8.33
8/29/2021 3:00:00 AM 23.89 75.002 0.111 7.51 20.12 8.33
8/29/2021 3:15:00 AM 23.86 74.948 0.111 7.5 18.91 8.33
8/29/2021 3:30:00 AM 23.84 74.912 0.111 7.5 19.09 8.33
8/29/2021 3:45:00 AM 23.82 74.876 0.111 7.51 18.75 8.34
8/29/2021 4:00:00 AM 23.79 74.82201 0.111 7.5 18.73 8.34
8/29/2021 4:15:00 AM 23.77 74.786 0.111 7.49 18.78 8.34
8/29/2021 4:30:00 AM 23.75 74.75 0.111 7.51 18.13 8.35
8/29/2021 4:45:00 AM 23.73 74.714 0.111 7.51 16.47 8.34
8/29/2021 5:00:00 AM 23.71 74.67799 0.11 7.49 16.85 8.34
8/29/2021 5:15:00 AM 23.69 74.642 0.11 7.49 16.34 8.34
8/29/2021 5:30:00 AM 23.67 74.606 0.11 7.5 17.16 8.35
8/29/2021 5:45:00 AM 23.64 74.552 0.111 7.5 15.81 8.35
8/29/2021 6:00:00 AM 23.61 74.498 0.111 7.49 18.19 8.36
8/29/2021 6:15:00 AM 23.57 74.426 0.111 7.49 17.35 8.36
8/29/2021 6:30:00 AM 23.53 74.354 0.111 7.45 19.57 8.37
8/29/2021 6:45:00 AM 23.5 74.3 0.111 7.47 17.29 8.37
8/29/2021 7:00:00 AM 23.48 74.264 0.11 7.49 17.6 8.38
8/29/2021 7:15:00 AM 23.45 74.21 0.11 7.47 15.65 8.38
8/29/2021 7:30:00 AM 23.44 74.192 0.11 7.49 16.06 8.4
8/29/2021 7:45:00 AM 23.42 74.156 0.11 7.5 17.37 8.41
8/29/2021 8:00:00 AM 23.41 74.138 0.11 7.51 16.61 8.42
8/29/2021 8:15:00 AM 23.4 74.12 0.11 7.51 15.93 8.43
8/29/2021 8:30:00 AM 23.4 74.12 0.11 7.52 16.74 8.42
8/29/2021 8:45:00 AM 23.41 74.138 0.11 7.53 17.68 8.43
8/29/2021 9:00:00 AM 23.41 74.138 0.11 7.49 15.89 8.41
8/29/2021 9:15:00 AM 23.43 74.174 0.11 7.51 16.1 8.41
8/29/2021 9:30:00 AM 23.46 74.228 0.11 7.51 16.22 8.42
8/29/2021 9:45:00 AM 23.5 74.3 0.11 7.51 16.37 8.42
8/29/2021 10:00:00 AM 23.56 74.408 0.11 7.54 18.73 8.42
8/29/2021 10:15:00 AM 23.6 74.48 0.11 7.55 15.72 8.42
8/29/2021 10:30:00 AM 23.66 74.588 0.109 7.56 16.54 8.41
8/29/2021 10:45:00 AM 23.7 74.66 0.109 7.55 16.78 8.4
8/29/2021 11:00:00 AM 23.77 74.786 0.109 7.56 15.79 8.4
8/29/2021 11:15:00 AM 23.84 74.912 0.109 7.58 16.02 8.4
8/29/2021 11:30:00 AM 23.91 75.038 0.109 7.59 16.4 8.4
8/29/2021 11:45:00 AM 23.96 75.128 0.109 7.59 16.79 8.39
8/29/2021 12:00:00 PM 23.95 75.11 0.11 7.57 17.42 8.37
8/29/2021 12:15:00 PM 23.97 75.146 0.11 7.4 17.59 8.36
8/29/2021 12:30:00 PM 23.98 75.164 0.11 7.56 16.48 8.34
8/29/2021 12:45:00 PM 23.99 75.182 0.11 7.56 17.13 8.34
8/29/2021 1:00:00 PM 24 75.2 0.109 7.56 17.29 8.35
8/29/2021 1:15:00 PM 24.02 75.236 0.109 7.56 15.62 8.35
8/29/2021 1:30:00 PM 24.05 75.29 0.109 7.55 16.25 8.34
8/29/2021 1:45:00 PM 24.08 75.344 0.109 7.57 15.81 8.35
8/29/2021 2:00:00 PM 24.09 75.362 0.109 7.57 16.19 8.33
8/29/2021 2:15:00 PM 24.09 75.362 0.109 7.56 16.16 8.33
8/29/2021 2:30:00 PM 24.11 75.398 0.109 7.58 16.18 8.34
8/29/2021 2:45:00 PM 24.11 75.398 0.109 7.58 16.61 8.35
8/29/2021 3:00:00 PM 24.13 75.434 0.109 7.58 15.27 8.34
8/29/2021 3:15:00 PM 24.15 75.47 0.108 7.35 15.71 8.34
8/29/2021 3:30:00 PM 24.17 75.506 0.109 7.44 15.87 8.33
8/29/2021 3:45:00 PM 24.2 75.56 0.108 7.58 15.46 8.31
8/29/2021 4:00:00 PM 24.18 75.524 0.109 7.57 15.49 8.3
8/29/2021 4:15:00 PM 24.15 75.47 0.109 7.55 15.85 8.3
8/29/2021 4:30:00 PM 24.14 75.452 0.109 7.55 15.7 8.29
8/29/2021 4:45:00 PM 24.14 75.452 0.109 7.54 16.12 8.29
8/29/2021 5:00:00 PM 24.15 75.47 0.109 7.52 15.63 8.27
8/29/2021 5:15:00 PM 24.18 75.524 0.109 7.53 15.91 8.26
8/29/2021 5:30:00 PM 24.22 75.596 0.11 7.52 15.84 8.25
8/29/2021 5:45:00 PM 24.25 75.65 0.11 7.52 18.57 8.23
8/29/2021 6:00:00 PM 24.28 75.704 0.11 7.53 15.98 8.22
8/29/2021 6:15:00 PM 24.28 75.704 0.11 7.51 15.98 8.2
8/29/2021 6:30:00 PM 24.27 75.686 0.11 7.51 15.2 8.21
8/29/2021 6:45:00 PM 24.25 75.65 0.11 7.5 16.95 8.22
8/29/2021 7:00:00 PM 24.21 75.578 0.111 7.49 16.25 8.22
8/29/2021 7:15:00 PM 24.16 75.488 0.111 7.49 14.81 8.22
8/29/2021 7:30:00 PM 24.13 75.434 0.111 7.5 14.84 8.22
8/29/2021 7:45:00 PM 24.1 75.38 0.11 7.48 15.37 8.22
8/29/2021 8:00:00 PM 24.08 75.344 0.11 7.49 15 8.23
8/29/2021 8:15:00 PM 24.06 75.308 0.11 7.49 17.14 8.23
8/29/2021 8:30:00 PM 24.02 75.236 0.11 7.46 18.14 8.23
8/29/2021 8:45:00 PM 23.97 75.146 0.111 7.4 16.48 8.21
8/29/2021 9:00:00 PM 23.98 75.164 0.11 7.47 18.06 8.23
8/29/2021 9:15:00 PM 23.97 75.146 0.11 7.45 17.56 8.23
8/29/2021 9:30:00 PM 23.95 75.11 0.11 7.46 17.33 8.24
8/29/2021 9:45:00 PM 23.94 75.092 0.11 7.46 16.82 8.23
8/29/2021 10:00:00 PM 23.92 75.056 0.11 7.47 16.79 8.24
8/29/2021 10:15:00 PM 23.88 74.984 0.11 7.44 16.64 8.22
8/29/2021 10:30:00 PM 23.86 74.948 0.11 7.45 16.97 8.24
8/29/2021 10:45:00 PM 23.83 74.894 0.11 7.43 16.32 8.25
8/29/2021 11:00:00 PM 23.81 74.858 0.11 7.46 14.96 8.26
8/29/2021 11:15:00 PM 23.79 74.82201 0.11 7.46 16.32 8.26
8/29/2021 11:30:00 PM 23.76 74.768 0.11 7.47 17.77 8.26
8/29/2021 11:45:00 PM 23.73 74.714 0.11 7.43 16.48 8.25
8/30/2021 12:00:00 AM 23.72 74.696 0.11 7.46 14.72 8.27
8/30/2021 12:15:00 AM 23.69 74.642 0.11 7.44 17.06 8.27
8/30/2021 12:30:00 AM 23.67 74.606 0.11 7.44 18.18 8.26
8/30/2021 12:45:00 AM 23.66 74.588 0.11 7.42 16.45 8.24
8/30/2021 1:00:00 AM 23.65 74.57 0.11 7.45 15.58 8.26
8/30/2021 1:15:00 AM 23.64 74.552 0.11 7.47 16.71 8.27
8/30/2021 1:30:00 AM 23.62 74.516 0.11 7.46 23.63 8.27
8/30/2021 1:45:00 AM 23.6 74.48 0.11 7.45 15.14 8.27
8/30/2021 2:00:00 AM 23.58 74.444 0.11 7.42 15.99 8.26
8/30/2021 2:15:00 AM 23.59 74.462 0.11 7.44 14.57 8.26
8/30/2021 2:30:00 AM 23.56 74.408 0.11 7.42 15.06 8.25
8/30/2021 2:45:00 AM 23.55 74.39 0.11 7.42 18.89 8.26
8/30/2021 3:00:00 AM 23.54 74.372 0.11 7.42 19.52 8.25
8/30/2021 3:15:00 AM 23.52 74.336 0.11 7.41 15.43 8.24
8/30/2021 3:30:00 AM 23.5 74.3 0.11 7.4 19.62 8.24
8/30/2021 3:45:00 AM 23.48 74.264 0.11 7.38 19.05 8.22
8/30/2021 4:00:00 AM 23.47 74.246 0.109 7.4 15.13 8.24
8/30/2021 4:15:00 AM 23.45 74.21 0.109 7.4 15.53 8.26
8/30/2021 4:30:00 AM 23.42 74.156 0.109 7.39 14.8 8.24
8/30/2021 4:45:00 AM 23.41 74.138 0.109 7.45 15.02 8.27
8/30/2021 5:00:00 AM 23.37 74.066 0.109 7.4 13.96 8.26
8/30/2021 5:15:00 AM 23.35 74.03 0.109 7.42 13.97 8.27
8/30/2021 5:30:00 AM 23.32 73.976 0.109 7.41 14.29 8.26
8/30/2021 5:45:00 AM 23.29 73.922 0.109 7.4 14.36 8.25
8/30/2021 6:00:00 AM 23.26 73.868 0.109 7.29 48.09 8.13
8/30/2021 6:15:00 AM 23.26 73.868 0.109 7.42 12.84 8.28
8/30/2021 6:30:00 AM 23.23 73.814 0.109 7.42 12.03 8.26
8/30/2021 6:45:00 AM 23.19 73.742 0.11 7.39 11.73 8.25
8/30/2021 7:00:00 AM 23.17 73.706 0.11 7.38 13.82 8.28
8/30/2021 7:15:00 AM 23.16 73.688 0.11 7.39 12.98 8.3
8/30/2021 7:30:00 AM 23.16 73.688 0.111 7.43 13.39 8.29
8/30/2021 7:45:00 AM 23.16 73.688 0.11 7.44 13.26 8.3
8/30/2021 8:00:00 AM 23.17 73.706 0.11 7.45 13.71 8.3
8/30/2021 8:15:00 AM 23.16 73.688 0.11 7.4 14.62 8.29
8/30/2021 8:30:00 AM 23.19 73.742 0.11 7.45 13.21 8.31
8/30/2021 8:45:00 AM 23.21 73.778 0.11 7.43 13.46 8.33
8/30/2021 9:00:00 AM 23.2 73.76 0.11 7.41 12.68 8.28
8/30/2021 9:15:00 AM 23.24 73.832 0.111 7.42 12.16 8.32
8/30/2021 9:30:00 AM 23.27 73.886 0.11 7.45 14.06 8.33
8/30/2021 9:45:00 AM 23.33 73.994 0.11 7.5 13.78 8.36
8/30/2021 10:00:00 AM 23.37 74.066 0.11 7.5 16.64 8.33
8/30/2021 10:15:00 AM 23.41 74.138 0.11 7.49 15.32 8.35
8/30/2021 10:30:00 AM 23.47 74.246 0.11 7.53 17.68 8.35
8/30/2021 10:45:00 AM 23.49 74.282 0.11 7.49 14.92 8.33
8/30/2021 11:00:00 AM 23.55 74.39 0.11 7.54 11.58 8.34
8/30/2021 11:15:00 AM 23.65 74.57 0.11 7.53 14.04 8.32
8/30/2021 11:30:00 AM 23.71 74.67799 0.11 7.57 15.75 8.35
8/30/2021 11:45:00 AM 23.8 74.84 0.11 7.59 25.98 8.33
8/30/2021 12:00:00 PM 23.81 74.858 0.11 7.55 14.42 8.3
8/30/2021 12:15:00 PM 23.82 74.876 0.11 7.53 15.1 8.3
8/30/2021 12:30:00 PM 23.95 75.11 0.11 7.59 10.54 8.31
8/30/2021 12:45:00 PM 23.95 75.11 0.11 7.58 10.46 8.27
8/30/2021 1:00:00 PM 23.97 75.146 0.11 7.58 11.07 8.24
8/30/2021 1:15:00 PM 23.99 75.182 0.11 7.55 10.63 8.25
8/30/2021 1:30:00 PM 24.05 75.29 0.11 7.6 11.49 8.26
8/30/2021 1:45:00 PM 24.06 75.308 0.11 7.61 10.85 8.28
8/30/2021 2:00:00 PM 24.11 75.398 0.11 7.61 12.02 8.27
8/30/2021 2:15:00 PM 24.2 75.56 0.11 7.62 10.92 8.24
8/30/2021 2:30:00 PM 24.27 75.686 0.11 7.61 12.54 8.23
8/30/2021 2:45:00 PM 24.36 75.848 0.11 7.62 11.24 8.24
8/30/2021 3:00:00 PM 24.42 75.956 0.11 7.6 11.02 8.19
8/30/2021 3:15:00 PM 24.48 76.064 0.11 7.62 11.01 8.17
8/30/2021 3:30:00 PM 24.53 76.154 0.11 7.61 10.73 8.2
8/30/2021 3:45:00 PM 24.61 76.298 0.11 7.61 13.06 8.17
8/30/2021 4:00:00 PM 24.71 76.478 0.11 7.62 12.1 8.17
8/30/2021 4:15:00 PM 24.77 76.586 0.11 7.59 17.94 8.13
8/30/2021 4:30:00 PM 24.83 76.694 0.11 7.61 10.7 8.13
8/30/2021 4:45:00 PM 24.86 76.748 0.11 7.6 10.45 8.09
8/30/2021 5:00:00 PM 24.83 76.694 0.111 7.5 10.42 8.06
8/30/2021 5:15:00 PM 24.86 76.748 0.11 7.58 10.32 8.07
8/30/2021 5:30:00 PM 24.87 76.766 0.111 7.59 10.86 8.08
8/30/2021 5:45:00 PM 24.84 76.712 0.111 7.5 11.28 8.04
8/30/2021 6:00:00 PM 24.89 76.802 0.111 7.56 10.96 8.04
8/30/2021 6:15:00 PM 24.87 76.766 0.111 7.54 13.86 8.01
8/30/2021 6:30:00 PM 24.84 76.712 0.111 7.55 11.76 8.02
8/30/2021 6:45:00 PM 24.8 76.64 0.111 7.53 11.55 8.02
8/30/2021 7:00:00 PM 24.76 76.568 0.111 7.52 11.38 8.01
8/30/2021 7:15:00 PM 24.72 76.496 0.111 7.52 12.54 8
8/30/2021 7:30:00 PM 24.69 76.442 0.112 7.52 13.76 8.01
8/30/2021 7:45:00 PM 24.64 76.352 0.112 7.5 11.26 8
8/30/2021 8:00:00 PM 24.52 76.136 0.108 7.54 14.97 8.06
8/30/2021 8:15:00 PM 24.4 75.92 0.107 7.52 15.29 8.07
8/30/2021 8:30:00 PM 24.26 75.668 0.104 7.5 15.5 8.09
8/30/2021 8:45:00 PM 24.21 75.578 0.105 7.45 20.05 8.07
8/30/2021 9:00:00 PM 24.17 75.506 0.104 7.27 20.46 8.08
8/30/2021 9:15:00 PM 24.12 75.416 0.104 7.39 19.62 8.08
8/30/2021 9:30:00 PM 24.02 75.236 0.103 7.42 25.56 8.13
8/30/2021 9:45:00 PM 23.89 75.002 0.103 7.32 41.58 8.17
8/30/2021 10:00:00 PM 23.81 74.858 0.101 7.39 32.5 8.19
8/30/2021 10:15:00 PM 23.69 74.642 0.098 7.36 43.81 8.22
8/30/2021 10:30:00 PM 23.39 74.102 0.095 7.32 51.5 8.25
8/30/2021 10:45:00 PM 23.21 73.778 0.095 7.33 46.13 8.28
8/30/2021 11:00:00 PM 23.1 73.58 0.096 7.34 35.5 8.3
8/30/2021 11:15:00 PM 23.01 73.418 0.097 7.33 31.13 8.3
8/30/2021 11:30:00 PM 22.93 73.274 0.098 7.33 29.55 8.31
8/30/2021 11:45:00 PM 22.87 73.166 0.1 7.3 22.11 8.32
8/31/2021 12:00:00 AM 22.86 73.148 0.101 7.33 22.15 8.32
8/31/2021 12:15:00 AM 22.89 73.202 0.103 7.32 19.93 8.31
8/31/2021 12:30:00 AM 22.92 73.256 0.105 7.31 17.88 8.29
8/31/2021 12:45:00 AM 22.97 73.346 0.106 7.33 16.66 8.31
8/31/2021 1:00:00 AM 23 73.4 0.107 7.23 17.92 8.3
8/31/2021 1:15:00 AM 23.02 73.436 0.108 7.36 15 8.3
8/31/2021 1:30:00 AM 23.04 73.472 0.109 7.37 16.27 8.3
8/31/2021 1:45:00 AM 23.04 73.472 0.11 7.37 14.98 8.3
8/31/2021 2:00:00 AM 23.04 73.472 0.11 7.36 16.1 8.3
8/31/2021 2:15:00 AM 23.04 73.472 0.11 7.38 15.92 8.31
8/31/2021 2:30:00 AM 23.04 73.472 0.11 7.4 15.22 8.31
8/31/2021 2:45:00 AM 23.03 73.454 0.11 7.37 14.4 8.29
8/31/2021 3:00:00 AM 23.01 73.418 0.11 7.39 14.08 8.31
8/31/2021 3:15:00 AM 22.98 73.364 0.11 7.41 13.76 8.31
8/31/2021 3:30:00 AM 22.96 73.328 0.11 7.38 13.96 8.32
8/31/2021 3:45:00 AM 22.93 73.274 0.11 7.43 14.21 8.32
8/31/2021 4:00:00 AM 22.89 73.202 0.11 7.41 14.32 8.33
8/31/2021 4:15:00 AM 22.84 73.112 0.11 7.4 15.64 8.32
8/31/2021 4:30:00 AM 22.81 73.058 0.11 7.37 13.85 8.35
8/31/2021 4:45:00 AM 22.77 72.986 0.11 7.39 13.61 8.34
8/31/2021 5:00:00 AM 22.75 72.95 0.11 7.4 13.28 8.37
8/31/2021 5:15:00 AM 22.71 72.878 0.11 7.39 12.94 8.36
8/31/2021 5:30:00 AM 22.68 72.824 0.11 7.18 12.26 8.36
8/31/2021 5:45:00 AM 22.64 72.752 0.11 7.37 15.03 8.36
8/31/2021 6:00:00 AM 22.62 72.716 0.11 7.39 11.98 8.38
8/31/2021 6:15:00 AM 22.58 72.644 0.11 7.38 13.36 8.37
8/31/2021 6:30:00 AM 22.56 72.608 0.11 7.4 13.25 8.38
8/31/2021 6:45:00 AM 22.52 72.536 0.11 7.37 13.86 8.39
8/31/2021 7:00:00 AM 22.5 72.5 0.11 7.37 12.7 8.4
8/31/2021 7:15:00 AM 22.49 72.482 0.11 7.38 14.33 8.41
8/31/2021 7:30:00 AM 22.48 72.464 0.11 7.42 12.74 8.43
8/31/2021 7:45:00 AM 22.45 72.41 0.11 7.36 13.23 8.42
8/31/2021 8:00:00 AM 22.46 72.42799 0.11 7.4 13.51 8.44
8/31/2021 8:15:00 AM 22.45 72.41 0.11 7.38 13.77 8.44
8/31/2021 8:30:00 AM 22.45 72.41 0.11 7.39 14.51 8.45
8/31/2021 8:45:00 AM 22.46 72.42799 0.11 7.4 13.32 8.45
8/31/2021 9:00:00 AM 22.48 72.464 0.11 7.44 12.51 8.48
8/31/2021 9:15:00 AM 22.47 72.446 0.11 7.41 12.51 8.47
8/31/2021 9:30:00 AM 22.5 72.5 0.111 7.42 12.49 8.48
8/31/2021 9:45:00 AM 22.52 72.536 0.111 7.42 11.68 8.47
8/31/2021 10:00:00 AM 22.55 72.59 0.111 7.43 12.07 8.47
8/31/2021 10:15:00 AM 22.57 72.626 0.111 7.44 12.43 8.48
8/31/2021 10:30:00 AM 22.61 72.698 0.111 7.22 11.82 8.47
8/31/2021 10:45:00 AM 22.66 72.788 0.111 7.42 12.12 8.47
8/31/2021 11:00:00 AM 22.74 72.932 0.111 7.44 13.05 8.47
8/31/2021 11:15:00 AM 22.78 73.004 0.111 7.41 12.07 8.47
8/31/2021 11:30:00 AM 22.87 73.166 0.11 7.48 12.89 8.44
8/31/2021 11:45:00 AM 22.92 73.256 0.111 7.45 12.19 8.46
8/31/2021 12:00:00 PM 22.96 73.328 0.111 7.46 13.62 8.42
8/31/2021 12:15:00 PM 23 73.4 0.111 7.45 12.29 8.41
8/31/2021 12:30:00 PM 23.04 73.472 0.111 7.45 12.09 8.44
8/31/2021 12:45:00 PM 23.08 73.544 0.111 7.44 12.57 8.42
8/31/2021 1:00:00 PM 23.12 73.616 0.112 7.39 11.27 8.4
8/31/2021 1:15:00 PM 23.18 73.724 0.111 7.52 11.79 8.41
8/31/2021 1:30:00 PM 23.18 73.724 0.111 7.48 12.35 8.37
8/31/2021 1:45:00 PM 23.22 73.796 0.111 7.43 11.57 8.37
8/31/2021 2:00:00 PM 23.28 73.904 0.112 7.48 11.42 8.37
8/31/2021 2:15:00 PM 23.33 73.994 0.111 7.46 11.59 8.35
8/31/2021 2:30:00 PM 23.39 74.102 0.112 7.44 11.9 8.35
8/31/2021 2:45:00 PM 23.42 74.156 0.112 7.43 14.66 8.36
8/31/2021 3:00:00 PM 23.47 74.246 0.111 7.46 11.75 8.34
8/31/2021 3:15:00 PM 23.49 74.282 0.111 7.44 12.38 8.32
8/31/2021 3:30:00 PM 23.54 74.372 0.112 7.45 11.17 8.29
8/31/2021 3:45:00 PM 23.55 74.39 0.112 7.47 11.42 8.27
8/31/2021 4:00:00 PM 23.55 74.39 0.112 7.44 11.92 8.29
8/31/2021 4:15:00 PM 23.56 74.408 0.112 7.41 11.7 8.27
8/31/2021 4:30:00 PM 23.57 74.426 0.112 7.45 11.3 8.27
8/31/2021 4:45:00 PM 23.53 74.354 0.112 7.36 12.36 8.24
8/31/2021 5:00:00 PM 23.56 74.408 0.111 7.42 11.48 8.24
8/31/2021 5:15:00 PM 23.51 74.318 0.112 7.37 11.53 8.24
8/31/2021 5:30:00 PM 23.52 74.336 0.111 7.43 10.9 8.23
8/31/2021 5:45:00 PM 23.55 74.39 0.111 7.45 11.16 8.25
8/31/2021 6:00:00 PM 23.55 74.39 0.111 7.4 11.77 8.23
8/31/2021 6:15:00 PM 23.56 74.408 0.111 7.29 12.52 8.19
8/31/2021 6:30:00 PM 23.58 74.444 0.111 7.37 11.44 8.18
8/31/2021 6:45:00 PM 23.6 74.48 0.111 7.36 13.26 8.16
8/31/2021 7:00:00 PM 23.64 74.552 0.111 7.32 12.95 8.16
8/31/2021 7:15:00 PM 23.67 74.606 0.111 7.39 11.39 8.14
8/31/2021 7:30:00 PM 23.66 74.588 0.111 7.37 10.75 8.13
8/31/2021 7:45:00 PM 23.63 74.534 0.112 7.35 10.81 8.1
8/31/2021 8:00:00 PM 23.6 74.48 0.112 7.35 11.87 8.13
8/31/2021 8:15:00 PM 23.56 74.408 0.112 7.34 11.62 8.13
8/31/2021 8:30:00 PM 23.52 74.336 0.112 7.36 10.69 8.15
8/31/2021 8:45:00 PM 23.49 74.282 0.112 7.37 12.73 8.15
8/31/2021 9:00:00 PM 23.46 74.228 0.112 7.42 13.86 8.19
8/31/2021 9:15:00 PM 23.4 74.12 0.112 7.33 12.72 8.17
8/31/2021 9:30:00 PM 23.4 74.12 0.111 7.4 14.25 8.19
8/31/2021 9:45:00 PM 23.37 74.066 0.111 7.39 11.49 8.2
8/31/2021 10:00:00 PM 23.34 74.012 0.112 7.4 12.43 8.19
8/31/2021 10:15:00 PM 23.28 73.904 0.112 7.37 13.82 8.19
8/31/2021 10:30:00 PM 23.24 73.832 0.112 7.38 12.67 8.19
8/31/2021 10:45:00 PM 23.19 73.742 0.112 7.43 15.11 8.22
8/31/2021 11:00:00 PM 23.12 73.616 0.112 7.4 11.93 8.22
8/31/2021 11:15:00 PM 23.06 73.508 0.112 7.37 12.08 8.24
8/31/2021 11:30:00 PM 23.01 73.418 0.112 7.4 13.88 8.26
8/31/2021 11:45:00 PM 22.98 73.364 0.112 7.44 12.21 8.27
9/1/2021 12:00:00 AM 22.92 73.256 0.112 7.42 12.33 8.26
9/1/2021 12:15:00 AM 22.87 73.166 0.112 7.4 12.08 8.29
9/1/2021 12:30:00 AM 22.82 73.076 0.112 7.43 12.19 8.28
9/1/2021 12:45:00 AM 22.75 72.95 0.112 7.35 12.3 8.27
9/1/2021 1:00:00 AM 22.71 72.878 0.112 7.39 11.36 8.3
9/1/2021 1:15:00 AM 22.66 72.788 0.112 7.41 11.29 8.3
9/1/2021 1:30:00 AM 22.61 72.698 0.112 7.41 11.76 8.33
9/1/2021 1:45:00 AM 22.58 72.644 0.113 7.4 14.05 8.33
9/1/2021 2:00:00 AM 22.55 72.59 0.112 7.41 13.81 8.34
9/1/2021 2:15:00 AM 22.53 72.554 0.112 7.42 13.05 8.35
9/1/2021 2:30:00 AM 22.5 72.5 0.112 7.43 12.52 8.34
9/1/2021 2:45:00 AM 22.46 72.42799 0.113 7.4 12.72 8.32
9/1/2021 3:00:00 AM 22.46 72.42799 0.112 7.42 11.87 8.35
9/1/2021 3:15:00 AM 22.44 72.392 0.112 7.41 11.79 8.36
9/1/2021 3:30:00 AM 22.42 72.356 0.112 7.42 11.63 8.36
9/1/2021 3:45:00 AM 22.4 72.32 0.112 7.41 13.76 8.37
9/1/2021 4:00:00 AM 22.36 72.248 0.113 7.4 11.78 8.34
9/1/2021 4:15:00 AM 22.34 72.212 0.113 7.21 11.75 8.36
9/1/2021 4:30:00 AM 22.31 72.158 0.112 7.41 11.99 8.37
9/1/2021 4:45:00 AM 22.28 72.104 0.112 7.44 12.48 8.38
9/1/2021 5:00:00 AM 22.23 72.014 0.113 7.41 11.45 8.36
9/1/2021 5:15:00 AM 22.2 71.96 0.112 7.45 12.36 8.4
9/1/2021 5:30:00 AM 22.13 71.834 0.113 7.33 12.19 8.36
9/1/2021 5:45:00 AM 22.1 71.78 0.112 7.41 13.68 8.4
9/1/2021 6:00:00 AM 22.07 71.726 0.112 7.46 12.38 8.42
9/1/2021 6:15:00 AM 22.01 71.618 0.112 7.37 13.06 8.41
9/1/2021 6:30:00 AM 21.95 71.51 0.111 7.45 12.3 8.46
9/1/2021 6:45:00 AM 21.86 71.348 0.11 7.42 12.22 8.43
9/1/2021 7:00:00 AM 21.79 71.222 0.11 7.38 12.65 8.45
9/1/2021 7:15:00 AM 21.74 71.132 0.11 7.39 14.15 8.45
9/1/2021 7:30:00 AM 21.7 71.06 0.109 7.37 14.17 8.45
9/1/2021 7:45:00 AM 21.65 70.97 0.109 7.37 12.68 8.47
9/1/2021 8:00:00 AM 21.61 70.898 0.109 7.38 15.63 8.48
9/1/2021 8:15:00 AM 21.56 70.808 0.109 7.37 15.29 8.49
9/1/2021 8:30:00 AM 21.45 70.61 0.108 7.21 42.56 8.49
9/1/2021 8:45:00 AM 21.38 70.484 0.107 7.31 17.83 8.54
9/1/2021 9:00:00 AM 21.32 70.376 0.106 7.34 18.7 8.58
9/1/2021 9:15:00 AM 21.25 70.25 0.106 7.33 17.06 8.6
9/1/2021 9:30:00 AM 21.19 70.142 0.104 7.38 21.23 8.64
9/1/2021 9:45:00 AM 21.1 69.98 0.101 7.4 25.53 8.68
9/1/2021 10:00:00 AM 20.99 69.782 0.098 7.38 32.42 8.69
9/1/2021 10:15:00 AM 20.91 69.638 0.096 7.36 30.56 8.71
9/1/2021 10:30:00 AM 20.81 69.458 0.094 7.11 34.17 8.73
9/1/2021 10:45:00 AM 20.71 69.278 0.094 7.33 34.37 8.75
9/1/2021 11:00:00 AM 20.67 69.206 0.094 7.32 28.32 8.74
9/1/2021 11:15:00 AM 20.68 69.224 0.095 7.33 25.44 8.74
9/1/2021 11:30:00 AM 20.71 69.278 0.097 7.34 21.95 8.73
9/1/2021 11:45:00 AM 20.76 69.368 0.098 7.34 20.69 8.72
9/1/2021 12:00:00 PM 20.82 69.476 0.099 7.35 20.56 8.72
9/1/2021 12:15:00 PM 20.87 69.566 0.1 7.37 18.48 8.72
9/1/2021 12:30:00 PM 20.93 69.674 0.101 7.37 18.14 8.71
9/1/2021 12:45:00 PM 20.97 69.746 0.101 7.35 19.36 8.7
9/1/2021 1:00:00 PM 20.99 69.782 0.101 7.1 18.27 8.67
9/1/2021 1:15:00 PM 21.04 69.872 0.1 7.32 18.27 8.67
9/1/2021 1:30:00 PM 21.04 69.872 0.1 7.26 18.08 8.63
9/1/2021 1:45:00 PM 21.07 69.926 0.099 7.27 22.56 8.66
9/1/2021 2:00:00 PM 21.06 69.908 0.098 7.26 21.37 8.67
9/1/2021 2:15:00 PM 21.05 69.89 0.097 7.27 22.88 8.67
9/1/2021 2:30:00 PM 21.03 69.854 0.096 7.27 23.49 8.68
9/1/2021 2:45:00 PM 21.01 69.818 0.095 7.27 27.69 8.7
9/1/2021 3:00:00 PM 21 69.8 0.095 7.28 23.83 8.69
9/1/2021 3:15:00 PM 20.99 69.782 0.094 7.28 22.64 8.69
9/1/2021 3:30:00 PM 20.98 69.764 0.094 7.29 24.95 8.7
9/1/2021 3:45:00 PM 20.97 69.746 0.093 7.29 25.79 8.69
9/1/2021 4:00:00 PM 20.95 69.71 0.093 7.28 24.92 8.69
9/1/2021 4:15:00 PM 20.93 69.674 0.093 7.26 23.77 8.69
9/1/2021 4:30:00 PM 20.94 69.692 0.093 7.28 23.28 8.7
9/1/2021 4:45:00 PM 20.95 69.71 0.094 7.31 20.4 8.7
9/1/2021 5:00:00 PM 20.96 69.728 0.094 7.28 18.58 8.69
9/1/2021 5:15:00 PM 20.97 69.746 0.094 7.21 19.99 8.69
9/1/2021 5:30:00 PM 20.96 69.728 0.095 7.29 22.63 8.69
9/1/2021 5:45:00 PM 20.95 69.71 0.094 7.29 20.35 8.69
9/1/2021 6:00:00 PM 20.92 69.656 0.094 7.02 24.17 8.69
9/1/2021 6:15:00 PM 20.88 69.584 0.094 7.26 35.47 8.7
9/1/2021 6:30:00 PM 20.84 69.512 0.093 7.24 38.15 8.7
9/1/2021 6:45:00 PM 20.79 69.422 0.086 7.23 47.67 8.71
9/1/2021 7:00:00 PM 20.71 69.278 0.084 7.22 49.66 8.72
9/1/2021 7:15:00 PM 20.63 69.134 0.083 7.22 43.23 8.74
9/1/2021 7:30:00 PM 20.57 69.026 0.084 7.23 46.44 8.75
9/1/2021 7:45:00 PM 20.54 68.972 0.084 7.2 38.42 8.75
9/1/2021 8:00:00 PM 20.51 68.918 0.084 7.2 38.47 8.76
9/1/2021 8:15:00 PM 20.47 68.846 0.084 7.18 43.51 8.77
9/1/2021 8:30:00 PM 20.43 68.774 0.083 7.2 40.27 8.79
9/1/2021 8:45:00 PM 20.4 68.72 0.083 7.18 49.84 8.8
9/1/2021 9:00:00 PM 20.35 68.63 0.082 7.18 57.16 8.82
9/1/2021 9:15:00 PM 20.31 68.558 0.082 7.17 59.99 8.83
9/1/2021 9:30:00 PM 20.27 68.486 0.081 7.15 55.04 8.84
9/1/2021 9:45:00 PM 20.27 68.486 0.082 7.14 56.09 8.84
9/1/2021 10:00:00 PM 20.28 68.504 0.082 7.14 49.21 8.84
9/1/2021 10:15:00 PM 20.31 68.558 0.082 7.16 46.53 8.83
9/1/2021 10:30:00 PM 20.35 68.63 0.083 7.16 49.18 8.83
9/1/2021 10:45:00 PM 20.4 68.72 0.084 7.16 36.4 8.82
9/1/2021 11:00:00 PM 20.46 68.828 0.084 7.17 35.5 8.81
9/1/2021 11:15:00 PM 20.52 68.936 0.085 7.18 29.57 8.8
9/1/2021 11:30:00 PM 20.58 69.044 0.086 7.19 30.43 8.79
9/1/2021 11:45:00 PM 20.62 69.116 0.087 7.2 28.44 8.78
9/2/2021 12:00:00 AM 20.66 69.188 0.088 7.21 25.56 8.78
9/2/2021 12:15:00 AM 20.69 69.242 0.089 7.21 28.16 8.77
9/2/2021 12:30:00 AM 20.7 69.26 0.096 7.23 27.76 8.77
9/2/2021 12:45:00 AM 20.7 69.26 0.098 7.23 26.23 8.77
9/2/2021 1:00:00 AM 20.7 69.26 0.098 7.25 35.87 8.77
9/2/2021 1:15:00 AM 20.7 69.26 0.099 7.25 24.06 8.77
9/2/2021 1:30:00 AM 20.7 69.26 0.099 7.26 23 8.77
9/2/2021 1:45:00 AM 20.69 69.242 0.099 7.26 22.55 8.77
9/2/2021 2:00:00 AM 20.68 69.224 0.099 7.27 20.96 8.77
9/2/2021 2:15:00 AM 20.66 69.188 0.1 7.26 19.94 8.78
9/2/2021 2:30:00 AM 20.63 69.134 0.1 7.26 21.2 8.78
9/2/2021 2:45:00 AM 20.59 69.062 0.1 7.27 20.07 8.79
9/2/2021 3:00:00 AM 20.55 68.99 0.101 7.28 20.86 8.8
9/2/2021 3:15:00 AM 20.5 68.9 0.101 7.27 19.19 8.81
9/2/2021 3:30:00 AM 20.45 68.81 0.102 7.28 20.3 8.82
9/2/2021 3:45:00 AM 20.39 68.702 0.102 7.28 19.43 8.82
9/2/2021 4:00:00 AM 20.34 68.612 0.101 7.26 19.3 8.83
9/2/2021 4:15:00 AM 20.29 68.522 0.101 7.28 18.43 8.84
9/2/2021 4:30:00 AM 20.25 68.45 0.101 7.26 17.7 8.85
9/2/2021 4:45:00 AM 20.2 68.36 0.101 7.27 19.25 8.86
9/2/2021 5:00:00 AM 20.15 68.27 0.101 7.27 17.13 8.87
9/2/2021 5:15:00 AM 20.11 68.198 0.101 7.28 17.55 8.88
9/2/2021 5:30:00 AM 20.07 68.126 0.101 7.27 17.37 8.89
9/2/2021 5:45:00 AM 20.03 68.054 0.1 7.27 16.65 8.89
9/2/2021 6:00:00 AM 20 68 0.1 7.27 17.23 8.9
9/2/2021 6:15:00 AM 19.97 67.946 0.1 7.28 16.37 8.91
9/2/2021 6:30:00 AM 19.94 67.892 0.1 7.27 16.44 8.92
9/2/2021 6:45:00 AM 19.91 67.838 0.1 7.27 16.36 8.92
9/2/2021 7:00:00 AM 19.88 67.784 0.1 7.28 16.33 8.94
9/2/2021 7:15:00 AM 19.85 67.73 0.1 7.27 15.8 8.94
9/2/2021 7:30:00 AM 19.83 67.694 0.094 7.28 16.06 8.95
9/2/2021 7:45:00 AM 19.81 67.658 0.1 7.28 17.07 8.95
9/2/2021 8:00:00 AM 19.8 67.64 0.1 7.28 15.08 8.96
9/2/2021 8:15:00 AM 19.8 67.64 0.1 7.27 15.91 8.96
9/2/2021 8:30:00 AM 19.8 67.64 0.1 7.28 15.33 8.97
9/2/2021 8:45:00 AM 19.81 67.658 0.1 7.29 14.69 8.96
9/2/2021 9:00:00 AM 19.82 67.676 0.1 7.28 14.91 8.96
9/2/2021 9:15:00 AM 19.85 67.73 0.1 7.3 14.8 8.97
9/2/2021 9:30:00 AM 19.89 67.802 0.1 7.29 14.77 8.96
9/2/2021 9:45:00 AM 19.92 67.856 0.099 7.3 14.79 8.96
9/2/2021 10:00:00 AM 19.97 67.946 0.099